Provisional Data: Swatara Creek near Annville, PA


Please select a monitoring station.
Please select start date.
Please select start date.

Toggle Unit: C/F Toggle Unit: C/F
Sample Time Temperature (C) Temperature (F) Specific Conductivity (mS/cm) pH   Turbidity (NTU+) DO (mg/L)
10/17/2022 12:00:00 AM 12.61 54.698 0.22 6.24 4.75 9.82
10/17/2022 12:15:00 AM 12.59 54.662 0.22 6.22 4.95 9.84
10/17/2022 12:30:00 AM 12.56 54.608 0.22 6.23 4.66 9.81
10/17/2022 12:45:00 AM 12.54 54.572 0.22 6.22 4.96 9.81
10/17/2022 1:00:00 AM 12.51 54.518 0.22 6.24 4.96 9.81
10/17/2022 1:15:00 AM 12.49 54.482 0.22 6.26 5.4 9.8
10/17/2022 1:30:00 AM 12.47 54.446 0.22 6.22 5.18 9.79
10/17/2022 1:45:00 AM 12.44 54.392 0.22 6.24 4.98 9.79
10/17/2022 2:00:00 AM 12.41 54.338 0.22 6.22 4.7 9.76
10/17/2022 2:15:00 AM 12.38 54.284 0.22 6.23 5.62 9.76
10/17/2022 2:30:00 AM 12.35 54.23 0.22 6.16 5.24 9.76
10/17/2022 2:45:00 AM 12.32 54.176 0.221 6.19 5.06 9.75
10/17/2022 3:00:00 AM 12.28 54.104 0.221 6.18 4.6 9.73
10/17/2022 3:15:00 AM 12.25 54.05 0.221 6.18 5.12 9.71
10/17/2022 3:30:00 AM 12.22 53.996 0.221 6.17 4.76 9.68
10/17/2022 3:45:00 AM 12.18 53.924 0.221 6.21 4.99 9.7
10/17/2022 4:00:00 AM 12.14 53.852 0.221 6.15 4.9 9.66
10/17/2022 4:15:00 AM 12.11 53.798 0.221 6.19 5.12 9.67
10/17/2022 4:30:00 AM 12.08 53.744 0.221 6.2 5.09 9.65
10/17/2022 4:45:00 AM 12.05 53.69 0.221 6.16 4.43 9.65
10/17/2022 5:00:00 AM 12.02 53.636 0.221 6.16 4.75 9.63
10/17/2022 5:15:00 AM 11.98 53.564 0.221 6.3 5.04 9.62
10/17/2022 5:30:00 AM 11.95 53.51 0.221 6.17 5.08 9.6
10/17/2022 5:45:00 AM 11.91 53.438 0.221 6.15 5.39 9.61
10/17/2022 6:00:00 AM 11.89 53.402 0.222 6.19 5 9.59
10/17/2022 6:15:00 AM 11.86 53.348 0.222 6.15 4.51 9.59
10/17/2022 6:30:00 AM 11.83 53.294 0.222 6.15 5.06 9.57
10/17/2022 6:45:00 AM 11.81 53.258 0.222 6.14 4.96 9.56
10/17/2022 7:00:00 AM 11.79 53.222 0.222 6.17 4.82 9.55
10/17/2022 7:15:00 AM 11.77 53.186 0.222 6.15 5.22 9.52
10/17/2022 7:30:00 AM 11.76 53.168 0.222 6.14 4.66 9.5
10/17/2022 7:45:00 AM 11.74 53.132 0.222 6.13 4.98 9.5
10/17/2022 8:00:00 AM 11.73 53.114 0.222 6.12 4.6 9.48
10/17/2022 8:15:00 AM 11.72 53.096 0.222 6.13 5.72 9.54
10/17/2022 8:30:00 AM 11.72 53.096 0.222 6.1 4.6 9.52
10/17/2022 8:45:00 AM 11.72 53.096 0.222 6.13 4.52 9.53
10/17/2022 9:00:00 AM 11.72 53.096 0.223 6.12 5.22 9.55
10/17/2022 9:15:00 AM 11.74 53.132 0.223 6.14 6.07 9.61
10/17/2022 9:30:00 AM 11.76 53.168 0.223 6.27 4.35 9.65
10/17/2022 9:45:00 AM 11.78 53.204 0.223 6.28 4.53 9.67
10/17/2022 10:00:00 AM 11.8 53.24 0.223 6.3 4.27 9.73
10/17/2022 10:15:00 AM 11.82 53.276 0.223 6.37 4.28 9.79
10/17/2022 10:30:00 AM 11.84 53.312 0.223 6.33 4.5 9.83
10/17/2022 10:45:00 AM 11.87 53.366 0.223 6.39 4.39 9.91
10/17/2022 11:00:00 AM 11.89 53.402 0.223 6.36 4.41 9.93
10/17/2022 11:15:00 AM 11.93 53.474 0.224 6.36 4.48 10.01
10/17/2022 11:30:00 AM 11.98 53.564 0.224 6.37 4.27 10.08
10/17/2022 11:45:00 AM 12.03 53.654 0.224 6.37 4.32 10.19
10/17/2022 12:00:00 PM 12.1 53.78 0.224 6.4 4.41 10.29
10/17/2022 12:15:00 PM 12.3 54.14 0.224 6.41 4.38 10.42
10/17/2022 12:30:00 PM 12.33 54.194 0.224 6.46 4.33 10.48
10/17/2022 12:45:00 PM 12.34 54.212 0.224 6.47 5 10.5
10/17/2022 1:00:00 PM 12.4 54.32 0.224 6.48 4.31 10.61
10/17/2022 1:15:00 PM 12.45 54.41 0.225 6.51 4.38 10.68
10/17/2022 1:30:00 PM 12.49 54.482 0.225 6.53 4.46 10.71
10/17/2022 1:45:00 PM 12.56 54.608 0.225 6.53 4.55 10.82
10/17/2022 2:00:00 PM 12.6 54.68 0.225 6.58 4.19 10.87
10/17/2022 2:15:00 PM 12.65 54.77 0.225 6.59 4.36 10.92
10/17/2022 2:30:00 PM 12.68 54.824 0.225 6.6 4.38 10.94
10/17/2022 2:45:00 PM 12.7 54.86 0.225 6.65 4.41 10.93
10/17/2022 3:00:00 PM 12.71 54.878 0.225 6.65 4.18 10.94
10/17/2022 3:15:00 PM 12.73 54.914 0.226 6.69 4.22 10.96
10/17/2022 3:30:00 PM 12.75 54.95 0.226 6.69 4.1 11.02
10/17/2022 3:45:00 PM 12.76 54.968 0.226 6.7 4.37 11.01
10/17/2022 4:00:00 PM 12.76 54.968 0.226 6.72 5.35 10.98
10/17/2022 4:15:00 PM 12.77 54.986 0.226 6.71 6.09 10.96
10/17/2022 4:30:00 PM 12.77 54.986 0.227 6.72 4.52 11
10/17/2022 4:45:00 PM 12.77 54.986 0.227 6.72 5.33 10.99
10/17/2022 5:00:00 PM 12.77 54.986 0.227 6.74 4.47 10.97
10/17/2022 5:15:00 PM 12.76 54.968 0.227 6.74 5.59 10.9
10/17/2022 5:30:00 PM 12.75 54.95 0.227 6.75 5.36 10.83
10/17/2022 5:45:00 PM 12.73 54.914 0.228 6.73 5.42 10.74
10/17/2022 6:00:00 PM 12.72 54.896 0.228 6.71 5.31 10.68
10/17/2022 6:15:00 PM 12.7 54.86 0.228 6.74 4.48 10.58
10/17/2022 6:30:00 PM 12.68 54.824 0.228 6.72 4.02 10.6
10/17/2022 6:45:00 PM 12.63 54.734 0.228 6.71 4.13 10.54
10/17/2022 7:00:00 PM 12.6 54.68 0.229 6.75 4.34 10.51
10/17/2022 7:15:00 PM 12.57 54.626 0.229 6.72 4.98 10.46
10/17/2022 7:30:00 PM 12.54 54.572 0.229 6.65 4.35 10.4
10/17/2022 7:45:00 PM 12.51 54.518 0.229 6.68 4.52 10.35
10/17/2022 8:00:00 PM 12.48 54.464 0.229 6.65 4.34 10.29
10/17/2022 8:15:00 PM 12.45 54.41 0.229 6.61 4.38 10.23
10/17/2022 8:30:00 PM 12.42 54.356 0.229 6.67 4.82 10.2
10/17/2022 8:45:00 PM 12.39 54.302 0.23 6.63 4.75 10.15
10/17/2022 9:00:00 PM 12.37 54.266 0.23 6.58 4.52 10.11
10/17/2022 9:15:00 PM 12.35 54.23 0.23 6.59 4.75 10.07
10/17/2022 9:30:00 PM 12.32 54.176 0.23 6.61 4.24 10.04
10/17/2022 9:45:00 PM 12.29 54.122 0.23 6.34 4.36 9.99
10/17/2022 10:00:00 PM 12.25 54.05 0.23 6.35 4.55 9.96
10/17/2022 10:15:00 PM 12.22 53.996 0.23 6.37 4.45 9.94
10/17/2022 10:30:00 PM 12.19 53.942 0.231 6.34 4.51 9.91
10/17/2022 10:45:00 PM 12.16 53.888 0.231 6.32 5.09 9.9
10/17/2022 11:00:00 PM 12.14 53.852 0.231 6.32 7.62 9.88
10/17/2022 11:15:00 PM 12.11 53.798 0.231 6.3 4.51 9.86
10/17/2022 11:30:00 PM 12.08 53.744 0.231 6.3 4.83 9.83
10/17/2022 11:45:00 PM 12.06 53.708 0.231 6.24 4.76 9.83
10/18/2022 12:00:00 AM 12.02 53.636 0.231 6.29 4.8 9.83
10/18/2022 12:15:00 AM 11.98 53.564 0.231 6.31 5.08 9.82
10/18/2022 12:30:00 AM 11.94 53.492 0.231 6.27 5.13 9.81
10/18/2022 12:45:00 AM 11.91 53.438 0.231 6.27 4.72 9.8
10/18/2022 1:00:00 AM 11.87 53.366 0.231 6.27 4.79 9.8
10/18/2022 1:15:00 AM 11.84 53.312 0.231 6.27 4.92 9.79
10/18/2022 1:30:00 AM 11.81 53.258 0.231 6.3 4.74 9.79
10/18/2022 1:45:00 AM 11.77 53.186 0.231 6.31 4.76 9.78
10/18/2022 2:00:00 AM 11.74 53.132 0.231 6.3 4.81 9.76
10/18/2022 2:15:00 AM 11.7 53.06 0.231 6.29 4.79 9.75
10/18/2022 2:30:00 AM 11.67 53.006 0.231 6.28 4.78 9.75
10/18/2022 2:45:00 AM 11.64 52.952 0.231 6.28 5.08 9.75
10/18/2022 3:00:00 AM 11.61 52.898 0.231 6.3 5.11 9.75
10/18/2022 3:15:00 AM 11.57 52.826 0.231 6.3 4.85 9.73
10/18/2022 3:30:00 AM 11.54 52.772 0.231 6.29 4.83 9.71
10/18/2022 3:45:00 AM 11.5 52.7 0.231 6.29 5.2 9.72
10/18/2022 4:00:00 AM 11.44 52.592 0.231 6.3 4.91 9.71
10/18/2022 4:15:00 AM 11.4 52.52 0.231 6.3 5.02 9.71
10/18/2022 4:30:00 AM 11.35 52.43 0.231 6.32 4.73 9.7
10/18/2022 4:45:00 AM 11.3 52.34 0.231 6.35 5.16 9.68
10/18/2022 5:00:00 AM 11.25 52.25 0.231 6.32 4.85 9.68
10/18/2022 5:15:00 AM 11.21 52.178 0.231 6.27 4.83 9.67
10/18/2022 5:30:00 AM 11.15 52.07 0.231 6.31 5.28 9.66
10/18/2022 5:45:00 AM 11.1 51.98 0.231 6.32 5.18 9.65
10/18/2022 6:00:00 AM 11.05 51.89 0.231 6.26 5.16 9.65
10/18/2022 6:15:00 AM 11.01 51.818 0.231 6.31 5.71 9.62
10/18/2022 6:30:00 AM 10.96 51.728 0.231 6.32 5.05 9.63
10/18/2022 6:45:00 AM 10.9 51.62 0.231 6.39 5.02 9.62
10/18/2022 7:00:00 AM 10.87 51.566 0.231 6.37 5.04 9.62
10/18/2022 7:15:00 AM 10.8 51.44 0.231 6.4 5.23 9.56
10/18/2022 7:30:00 AM 10.78 51.404 0.231 6.41 4.76 9.57
10/18/2022 7:45:00 AM 10.73 51.314 0.231 6.45 4.46 9.57
10/18/2022 8:00:00 AM 10.68 51.224 0.231 6.45 4.9 9.57
10/18/2022 8:15:00 AM 10.64 51.152 0.231 6.43 5.17 9.59
10/18/2022 8:30:00 AM 10.62 51.116 0.231 6.46 4.91 9.64
10/18/2022 8:45:00 AM 10.58 51.044 0.231 6.45 4.91 9.66
10/18/2022 9:00:00 AM 10.56 51.008 0.231 6.44 5.5 9.67
10/18/2022 9:15:00 AM 10.53 50.954 0.231 6.45 4.86 9.73
10/18/2022 9:30:00 AM 10.52 50.936 0.231 6.42 4.88 9.78
10/18/2022 9:45:00 AM 10.51 50.918 0.231 6.39 5.63 9.75
10/18/2022 10:00:00 AM 10.51 50.918 0.231 6.36 5.35 9.84
10/18/2022 10:15:00 AM 10.51 50.918 0.231 6.3 5.36 9.88
10/18/2022 10:30:00 AM 10.6 51.08 0.231 6.22 5.67 10.03
10/18/2022 10:45:00 AM 10.68 51.224 0.231 6.21 5.19 10.16
10/18/2022 11:00:00 AM 10.82 51.476 0.231 6.18 5.45 10.29
10/18/2022 11:15:00 AM 10.89 51.602 0.23 6.16 5.5 10.31
10/18/2022 11:30:00 AM 11.04 51.872 0.23 6.07 6.05 10.42
10/18/2022 11:45:00 AM 11.16 52.088 0.23 6.03 5.29 10.53
10/18/2022 12:00:00 PM 11.35 52.43 0.23 6.05 4.91 10.59
10/18/2022 12:15:00 PM 11.41 52.538 0.23 6.03 5.23 10.64
10/18/2022 12:30:00 PM 11.4 52.52 0.231 6.08 5.39 10.71
10/18/2022 12:45:00 PM 11.26 52.268 0.231 6.12 5.07 10.69
10/18/2022 1:00:00 PM 11.2 52.16 0.231 6.13 5.12 10.72
10/18/2022 1:15:00 PM 11.18 52.124 0.231 6.16 5.19 10.79
10/18/2022 1:30:00 PM 11.2 52.16 0.231 6.14 4.9 10.89
10/18/2022 1:45:00 PM 11.22 52.196 0.231 6.17 4.97 10.98
10/18/2022 2:00:00 PM 11.26 52.268 0.231 6.17 4.87 11.11
10/18/2022 2:15:00 PM 11.4 52.52 0.231 6.2 5.09 11.17
10/18/2022 2:30:00 PM 11.44 52.592 0.231 6.19 4.85 11.25
10/18/2022 2:45:00 PM 11.42 52.556 0.231 6.25 4.93 11.24
10/18/2022 3:00:00 PM 11.43 52.574 0.231 6.28 5.04 11.27
10/18/2022 3:15:00 PM 11.46 52.628 0.231 6.31 4.71 11.3
10/18/2022 3:30:00 PM 11.48 52.664 0.231 6.35 4.49 11.32
10/18/2022 3:45:00 PM 11.52 52.736 0.231 6.4 4.72 11.4
10/18/2022 4:00:00 PM 11.54 52.772 0.231 6.42 4.63 11.4
10/18/2022 4:15:00 PM 11.57 52.826 0.231 6.44 5.13 11.38
10/18/2022 4:30:00 PM 11.57 52.826 0.232 6.48 4.71 11.39
10/18/2022 4:45:00 PM 11.59 52.862 0.232 6.53 4.86 11.38
10/18/2022 5:00:00 PM 11.58 52.844 0.232 6.56 4.56 11.38
10/18/2022 5:15:00 PM 11.58 52.844 0.232 6.56 4.63 11.37
10/18/2022 5:30:00 PM 11.56 52.808 0.232 6.63 4.69 11.31
10/18/2022 5:45:00 PM 11.54 52.772 0.232 6.65 4.6 11.23
10/18/2022 6:00:00 PM 11.52 52.736 0.233 6.61 4.53 11.21
10/18/2022 6:15:00 PM 11.49 52.682 0.233 6.63 4.62 11.16
10/18/2022 6:30:00 PM 11.45 52.61 0.233 6.62 4.7 11.11
10/18/2022 6:45:00 PM 11.41 52.538 0.233 6.61 5.38 11.01
10/18/2022 7:00:00 PM 11.37 52.466 0.234 6.61 4.41 10.97
10/18/2022 7:15:00 PM 11.34 52.412 0.234 6.6 5.03 10.9
10/18/2022 7:30:00 PM 11.3 52.34 0.234 6.58 4.94 10.86
10/18/2022 7:45:00 PM 11.25 52.25 0.235 6.6 4.78 10.79
10/18/2022 8:00:00 PM 11.21 52.178 0.235 6.58 4.81 10.72
10/18/2022 8:15:00 PM 11.16 52.088 0.235 6.6 4.68 10.64
10/18/2022 8:30:00 PM 11.11 51.998 0.235 6.58 5.2 10.57
10/18/2022 8:45:00 PM 11.07 51.926 0.236 6.58 5.42 10.54
10/18/2022 9:00:00 PM 11.03 51.854 0.236 6.56 5.3 10.5
10/18/2022 9:15:00 PM 11 51.8 0.236 6.57 6.97 10.46
10/18/2022 9:30:00 PM 10.96 51.728 0.236 6.57 5.37 10.41
10/18/2022 9:45:00 PM 10.92 51.656 0.237 6.58 5.36 10.36
10/18/2022 10:00:00 PM 10.88 51.584 0.237 6.58 5.34 10.34
10/18/2022 10:15:00 PM 10.85 51.53 0.237 6.59 6.08 10.3
10/18/2022 10:30:00 PM 10.82 51.476 0.237 6.64 5.56 10.26
10/18/2022 10:45:00 PM 10.79 51.422 0.237 6.64 5.24 10.24
10/18/2022 11:00:00 PM 10.76 51.368 0.237 6.62 5.23 10.23
10/18/2022 11:15:00 PM 10.72 51.296 0.237 6.58 5.37 10.21
10/18/2022 11:30:00 PM 10.69 51.242 0.238 6.62 5.64 10.19
10/18/2022 11:45:00 PM 10.66 51.188 0.238 6.63 5.25 10.15
10/19/2022 12:00:00 AM 10.61 51.098 0.238 6.67 5.35 10.17
10/19/2022 12:15:00 AM 10.57 51.026 0.238 6.66 5.33 10.15
10/19/2022 12:30:00 AM 10.54 50.972 0.238 6.65 5.44 10.14
10/19/2022 12:45:00 AM 10.5 50.9 0.238 6.65 5.75 10.15
10/19/2022 1:00:00 AM 10.46 50.828 0.238 6.68 5.41 10.13
10/19/2022 1:15:00 AM 10.41 50.738 0.238 6.7 5.7 10.13
10/19/2022 1:30:00 AM 10.37 50.666 0.238 6.71 8.88 10.09
10/19/2022 1:45:00 AM 10.32 50.576 0.238 6.81 5.58 10.09
10/19/2022 2:00:00 AM 10.29 50.522 0.238 6.96 6.05 10.08
10/19/2022 2:15:00 AM 10.23 50.414 0.239 7.07 5.86 10.09
10/19/2022 2:30:00 AM 10.19 50.342 0.239 7.22 5.44 10.09
10/19/2022 2:45:00 AM 10.14 50.252 0.239 7.27 6.69 10.11
10/19/2022 3:00:00 AM 10.11 50.198 0.239 7.26 5.75 10.11
10/19/2022 3:15:00 AM 10.07 50.126 0.239 7.3 5.95 10.12
10/19/2022 3:30:00 AM 10.02 50.036 0.239 7.32 6.76 10.1
10/19/2022 3:45:00 AM 9.98 49.964 0.239 7.33 5.97 10.1
10/19/2022 4:00:00 AM 9.92 49.856 0.239 7.43 6.04 10.11
10/19/2022 4:15:00 AM 9.89 49.802 0.239 7.41 5.87 10.09
10/19/2022 4:30:00 AM 9.84 49.712 0.239 7.4 5.86 10.11
10/19/2022 4:45:00 AM 9.79 49.622 0.239 7.38 5.89 10.11
10/19/2022 5:00:00 AM 9.76 49.568 0.239 7.38 6.06 10.11
10/19/2022 5:15:00 AM 9.73 49.514 0.239 7.36 6.53 10.12
10/19/2022 5:30:00 AM 9.69 49.442 0.239 7.36 7.51 10.11
10/19/2022 5:45:00 AM 9.67 49.406 0.239 7.37 6.93 10.1
10/19/2022 6:00:00 AM 9.63 49.334 0.24 7.37 6.19 10.1
10/19/2022 6:15:00 AM 9.61 49.298 0.24 7.38 6.44 10.1
10/19/2022 6:30:00 AM 9.58 49.244 0.24 7.38 6.41 10.09
10/19/2022 6:45:00 AM 9.55 49.19 0.24 7.36 7.36 10.09
10/19/2022 7:00:00 AM 9.52 49.136 0.24 7.36 6.54 10.1
10/19/2022 7:15:00 AM 9.5 49.1 0.24 7.36 6.16 10.05
10/19/2022 7:30:00 AM 9.49 49.082 0.24 7.36 5.8 10.04
10/19/2022 7:45:00 AM 9.47 49.046 0.24 7.34 6.09 10.05
10/19/2022 8:00:00 AM 9.43 48.974 0.24 7.38 6.39 10.08
10/19/2022 8:15:00 AM 9.43 48.974 0.24 7.36 6.77 10.11
10/19/2022 8:30:00 AM 9.41 48.938 0.241 7.37 6.54 10.15
10/19/2022 8:45:00 AM 9.42 48.956 0.241 7.33 6.52 10.23
10/19/2022 9:00:00 AM 9.45 49.01 0.241 7.3 6.2 10.3
10/19/2022 9:15:00 AM 9.47 49.046 0.241 7.29 6.39 10.37
10/19/2022 9:30:00 AM 9.47 49.046 0.241 7.27 6.36 10.39
10/19/2022 9:45:00 AM 9.49 49.082 0.241 7.26 6.41 10.48
10/19/2022 10:00:00 AM 9.52 49.136 0.241 7.25 6.67 10.58
10/19/2022 10:15:00 AM 9.54 49.172 0.241 7.26 6.32 10.63
10/19/2022 10:30:00 AM 9.57 49.226 0.241 7.26 6.66 10.7
10/19/2022 10:45:00 AM 9.59 49.262 0.241 7.27 6.48 10.75
10/19/2022 11:00:00 AM 9.64 49.352 0.241 7.25 6.62 10.8
10/19/2022 11:15:00 AM 9.7 49.46 0.241 7.25 6.56 10.93
10/19/2022 11:30:00 AM 9.8 49.64 0.241 7.14 6.63 11.02
10/19/2022 11:45:00 AM 10.08 50.144 0.241 7 6.21 11.09
10/19/2022 12:00:00 PM 10.3 50.54 0.241 6.96 6.67 11.19
10/19/2022 12:15:00 PM 10.17 50.306 0.242 6.97 6.48 11.22
10/19/2022 12:30:00 PM 10.1 50.18 0.242 6.99 6.88 11.19
10/19/2022 12:45:00 PM 10.12 50.216 0.242 6.95 6.51 11.28
10/19/2022 1:00:00 PM 10.09 50.162 0.242 6.94 5.53 11.25
10/19/2022 1:15:00 PM 10.11 50.198 0.242 6.94 6.29 11.33
10/19/2022 1:30:00 PM 10.11 50.198 0.242 6.96 6.27 11.29
10/19/2022 1:45:00 PM 10.11 50.198 0.242 6.98 7.3 11.28
10/19/2022 2:00:00 PM 10.13 50.234 0.242 6.93 6.02 11.38
10/19/2022 2:15:00 PM 10.25 50.45 0.242 6.83 6.57 11.42
10/19/2022 2:30:00 PM 10.29 50.522 0.242 6.8 7.62 11.6
10/19/2022 2:45:00 PM 10.29 50.522 0.242 6.82 6.83 11.57
10/19/2022 3:00:00 PM 10.29 50.522 0.242 6.86 6.73 11.55
10/19/2022 3:15:00 PM 10.28 50.504 0.242 6.82 6.68 11.57
10/19/2022 3:30:00 PM 10.3 50.54 0.242 6.83 6.57 11.62
10/19/2022 3:45:00 PM 10.31 50.558 0.242 6.82 7.02 11.63
10/19/2022 4:00:00 PM 10.31 50.558 0.242 6.79 7.14 11.65
10/19/2022 4:15:00 PM 10.32 50.576 0.242 6.81 6.85 11.65
10/19/2022 4:30:00 PM 10.33 50.594 0.242 6.68 7.3 11.64
10/19/2022 4:45:00 PM 10.33 50.594 0.242 6.68 6.89 11.68
10/19/2022 5:00:00 PM 10.3 50.54 0.242 6.7 7.16 11.66
10/19/2022 5:15:00 PM 10.29 50.522 0.242 6.7 6.72 11.63
10/19/2022 5:30:00 PM 10.25 50.45 0.243 6.7 6.72 11.53
10/19/2022 5:45:00 PM 10.23 50.414 0.243 6.67 6.88 11.46
10/19/2022 6:00:00 PM 10.21 50.378 0.243 6.64 6.99 11.42
10/19/2022 6:15:00 PM 10.19 50.342 0.243 6.64 6.73 11.39
10/19/2022 6:30:00 PM 10.18 50.324 0.243 6.75 7.3 11.28
10/19/2022 6:45:00 PM 10.13 50.234 0.243 6.95 6.73 11.26
10/19/2022 7:00:00 PM 10.1 50.18 0.243 6.95 6.95 11.24
10/19/2022 7:15:00 PM 10.08 50.144 0.243 6.95 7.29 11.16
10/19/2022 7:30:00 PM 10.04 50.072 0.243 7.02 7.43 11.11
10/19/2022 7:45:00 PM 10.01 50.018 0.243 7.14 7.28 11.05
10/19/2022 8:00:00 PM 9.98 49.964 0.243 7.12 7.08 11
10/19/2022 8:15:00 PM 9.94 49.892 0.244 7.17 7.65 10.97
10/19/2022 8:30:00 PM 9.89 49.802 0.244 7.21 7.68 10.87
10/19/2022 8:45:00 PM 9.83 49.694 0.244 7.29 7.42 10.84
10/19/2022 9:00:00 PM 9.79 49.622 0.244 7.29 7.61 10.77
10/19/2022 9:15:00 PM 9.76 49.568 0.244 7.31 8.04 10.7
10/19/2022 9:30:00 PM 9.72 49.496 0.244 7.35 8.09 10.67
10/19/2022 9:45:00 PM 9.68 49.424 0.245 7.24 7.73 10.6
10/19/2022 10:00:00 PM 9.65 49.37 0.245 7.25 8.24 10.57
10/19/2022 10:15:00 PM 9.62 49.316 0.245 7.24 7.87 10.6
10/19/2022 10:30:00 PM 9.58 49.244 0.245 7.26 7.91 10.54
10/19/2022 10:45:00 PM 9.54 49.172 0.245 7.37 7.75 10.48
10/19/2022 11:00:00 PM 9.52 49.136 0.245 7.31 7.66 10.41
10/19/2022 11:15:00 PM 9.5 49.1 0.245 7.27 8.06 10.45
10/19/2022 11:30:00 PM 9.49 49.082 0.246 7.24 7.81 10.41
10/19/2022 11:45:00 PM 9.48 49.064 0.246 7.22 8.16 10.42
10/20/2022 12:00:00 AM 9.47 49.046 0.246 7.19 8.34 10.35
10/20/2022 12:15:00 AM 9.42 48.956 0.246 7.2 8.22 10.38
10/20/2022 12:30:00 AM 9.41 48.938 0.246 7.22 8.05 10.37
10/20/2022 12:45:00 AM 9.38 48.884 0.246 7.21 8.26 10.33
10/20/2022 1:00:00 AM 9.37 48.866 0.247 7.19 8.34 10.34
10/20/2022 1:15:00 AM 9.35 48.83 0.247 7.23 8.53 10.31
10/20/2022 1:30:00 AM 9.31 48.758 0.247 7.29 8.2 10.33
10/20/2022 1:45:00 AM 9.28 48.704 0.247 7.32 8.3 10.29
10/20/2022 2:00:00 AM 9.24 48.632 0.247 7.4 8.45 10.33
10/20/2022 2:15:00 AM 9.21 48.578 0.247 7.44 8.51 10.27
10/20/2022 2:30:00 AM 9.18 48.524 0.247 7.46 8.4 10.27
10/20/2022 2:45:00 AM 9.15 48.47 0.248 7.68 8.68 10.31
10/20/2022 3:00:00 AM 9.12 48.416 0.248 7.66 8.48 10.29
10/20/2022 3:15:00 AM 9.08 48.344 0.248 7.66 8.63 10.32
10/20/2022 3:30:00 AM 9.04 48.272 0.248 7.66 8.63 10.29
10/20/2022 3:45:00 AM 9.01 48.218 0.248 7.7 8.47 10.31
10/20/2022 4:00:00 AM 8.96 48.128 0.248 7.71 8.41 10.3
10/20/2022 4:15:00 AM 8.94 48.092 0.248 7.71 9.04 10.31
10/20/2022 4:30:00 AM 8.9 48.02 0.248 7.71 8.82 10.34
10/20/2022 4:45:00 AM 8.86 47.948 0.248 7.72 9.14 10.34
10/20/2022 5:00:00 AM 8.82 47.876 0.248 7.72 8.93 10.33
10/20/2022 5:15:00 AM 8.76 47.768 0.248 7.73 8.96 10.35
10/20/2022 5:30:00 AM 8.73 47.714 0.249 7.73 8.86 10.34
10/20/2022 5:45:00 AM 8.68 47.624 0.249 7.73 9 10.36
10/20/2022 6:00:00 AM 8.64 47.552 0.249 7.74 9.08 10.35
10/20/2022 6:15:00 AM 8.59 47.462 0.249 7.74 9.15 10.35
10/20/2022 6:30:00 AM 8.54 47.372 0.249 7.74 9.14 10.37
10/20/2022 6:45:00 AM 8.49 47.282 0.249 7.75 8.97 10.32
10/20/2022 7:00:00 AM 8.47 47.246 0.249 7.75 9.8 10.35
10/20/2022 7:15:00 AM 8.43 47.174 0.249 7.75 9.4 10.33
10/20/2022 7:30:00 AM 8.37 47.066 0.249 7.75 9.67 10.27
10/20/2022 7:45:00 AM 8.34 47.012 0.249 7.75 10.34 10.35
10/20/2022 8:00:00 AM 8.28 46.904 0.249 7.77 10.26 10.34
10/20/2022 8:15:00 AM 8.26 46.868 0.249 7.77 9.66 10.44
10/20/2022 8:30:00 AM 8.23 46.814 0.249 7.78 10.06 10.45
10/20/2022 8:45:00 AM 8.17 46.706 0.249 7.76 11.15 10.49
10/20/2022 9:00:00 AM 8.19 46.742 0.249 7.77 10.93 10.45
10/20/2022 9:15:00 AM 8.17 46.706 0.249 7.76 10.23 10.52
10/20/2022 9:30:00 AM 8.17 46.706 0.249 7.76 10.51 10.54
10/20/2022 9:45:00 AM 8.17 46.706 0.249 7.75 10.74 10.6
10/20/2022 10:00:00 AM 8.17 46.706 0.249 7.72 10.36 10.67
10/20/2022 10:15:00 AM 8.21 46.778 0.248 7.7 10.8 10.71
10/20/2022 10:30:00 AM 8.27 46.886 0.248 7.67 10.58 10.76
10/20/2022 10:45:00 AM 8.38 47.084 0.248 7.57 10.57 10.92
10/20/2022 11:00:00 AM 8.54 47.372 0.248 7.04 11.29 10.95
10/20/2022 11:15:00 AM 8.64 47.552 0.248 6.81 9.91 11.02
10/20/2022 11:30:00 AM 8.84 47.912 0.248 6.51 10.25 11.11
10/20/2022 11:45:00 AM 8.98 48.164 0.248 6.17 9.87 11.2
10/20/2022 12:00:00 PM 9.11 48.398 0.248 5.77 9.82 11.15
10/20/2022 12:15:00 PM 9.19 48.542 0.248 5.64 10.05 11.05
10/20/2022 12:30:00 PM 9.29 48.722 0.248 5.23 10.07 11.05
10/20/2022 12:45:00 PM 9.44 48.992 0.248 5.11 9.92 11.1
10/20/2022 1:00:00 PM 9.56 49.208 0.248 4.93 9.67 11.21
10/20/2022 1:15:00 PM 9.66 49.388 0.248 4.71 10.21 11.16
10/20/2022 1:30:00 PM 9.72 49.496 0.248 4.59 9.76 11.41
10/20/2022 1:45:00 PM 9.75 49.55 0.248 4.56 10.05 11.34
10/20/2022 2:00:00 PM 9.79 49.622 0.248 4.4 10.54 11.29
10/20/2022 2:15:00 PM 9.9 49.82 0.248 4.54 10.35 11.36
10/20/2022 2:30:00 PM 10.07 50.126 0.248 4.46 10.65 11.63
10/20/2022 2:45:00 PM 10.12 50.216 0.248 4.49 10.23 11.8
10/20/2022 3:00:00 PM 10.12 50.216 0.248 4.55 9.81 11.79
10/20/2022 3:15:00 PM 10.11 50.198 0.248 4.22 10.2 11.73
10/20/2022 3:30:00 PM 10.13 50.234 0.248 4.27 10.11 11.68
10/20/2022 3:45:00 PM 10.17 50.306 0.247 4.28 10.24 11.84
10/20/2022 4:00:00 PM 10.23 50.414 0.247 4.19 10.02 11.7
10/20/2022 4:15:00 PM 10.29 50.522 0.247 4.2 8.46 11.87
10/20/2022 4:30:00 PM 10.32 50.576 0.247 4.34 7.62 11.89
10/20/2022 4:45:00 PM 10.36 50.648 0.247 4.58 7.95 11.86
10/20/2022 5:00:00 PM 10.38 50.684 0.247 4.65 8.16 11.6
10/20/2022 5:15:00 PM 10.41 50.738 0.247 4.7 7.74 11.73
10/20/2022 5:30:00 PM 10.42 50.756 0.247 4.81 7.7 11.65
10/20/2022 5:45:00 PM 10.41 50.738 0.247 4.95 8.04 11.7
10/20/2022 6:00:00 PM 10.39 50.702 0.248 5.03 8.51 11.44
10/20/2022 6:15:00 PM 10.37 50.666 0.248 5.09 8.18 11.39
10/20/2022 6:30:00 PM 10.33 50.594 0.248 5.11 8.32 11.3
10/20/2022 6:45:00 PM 10.26 50.468 0.248 5.33 8.52 11.39
10/20/2022 7:00:00 PM 10.2 50.36 0.248 5.41 8.38 11.28
10/20/2022 7:15:00 PM 10.15 50.27 0.248 6.05 7.98 11.21
10/20/2022 7:30:00 PM 10.08 50.144 0.248 6.37 8.31 11.13
10/20/2022 7:45:00 PM 9.96 49.928 0.248 6.86 8.51 11.06
10/20/2022 8:00:00 PM 9.89 49.802 0.249 7.06 8.45 11.04
10/20/2022 8:15:00 PM 9.8 49.64 0.248 7.13 9.21 10.96
10/20/2022 8:30:00 PM 9.72 49.496 0.248 7.23 8.25 11.01
10/20/2022 8:45:00 PM 9.65 49.37 0.248 7.4 9.78 10.83
10/20/2022 9:00:00 PM 9.58 49.244 0.248 7.45 8.44 10.79
10/20/2022 9:15:00 PM 9.52 49.136 0.248 7.5 8.28 10.7
10/20/2022 9:30:00 PM 9.44 48.992 0.248 7.45 8.51 10.59
10/20/2022 9:45:00 PM 9.33 48.794 0.248 7.63 8.58 10.75
10/20/2022 10:00:00 PM 9.25 48.65 0.249 7.65 9.88 10.68
10/20/2022 10:15:00 PM 9.23 48.614 0.249 7.67 9.77 10.52
10/20/2022 10:30:00 PM 9.16 48.488 0.249 7.74 8.7 10.59
10/20/2022 10:45:00 PM 9.09 48.362 0.249 7.72 8.54 10.63
10/20/2022 11:00:00 PM 9.04 48.272 0.249 7.73 8.87 10.65
10/20/2022 11:15:00 PM 9.03 48.254 0.249 7.75 8.88 10.46
10/20/2022 11:30:00 PM 9 48.2 0.249 7.75 8.71 10.44
10/20/2022 11:45:00 PM 8.98 48.164 0.249 7.73 9.16 10.37
10/21/2022 12:00:00 AM 8.92 48.056 0.249 7.72 8.88 10.52
10/21/2022 12:15:00 AM 8.89 48.002 0.25 7.72 9.5 10.49
10/21/2022 12:30:00 AM 8.86 47.948 0.249 7.71 9.02 10.5
10/21/2022 12:45:00 AM 8.85 47.93 0.249 7.71 9.27 10.45
10/21/2022 1:00:00 AM 8.83 47.894 0.249 7.7 9.15 10.42
10/21/2022 1:15:00 AM 8.79 47.822 0.249 7.72 9.22 10.41
10/21/2022 1:30:00 AM 8.78 47.804 0.25 7.72 9.13 10.31
10/21/2022 1:45:00 AM 8.77 47.786 0.249 7.71 9.25 10.35
10/21/2022 2:00:00 AM 8.74 47.732 0.25 7.72 9.13 10.37
10/21/2022 2:15:00 AM 8.69 47.642 0.25 7.72 9.85 10.36
10/21/2022 2:30:00 AM 8.69 47.642 0.25 7.74 8.94 10.29
10/21/2022 2:45:00 AM 8.67 47.606 0.25 7.73 9.09 10.32
10/21/2022 3:00:00 AM 8.65 47.57 0.25 7.75 9.35 10.35
10/21/2022 3:15:00 AM 8.6 47.48 0.25 7.76 9.28 10.36
10/21/2022 3:30:00 AM 8.55 47.39 0.251 7.76 9.03 10.37
10/21/2022 3:45:00 AM 8.53 47.354 0.251 7.77 9.72 10.32
10/21/2022 4:00:00 AM 8.52 47.336 0.251 7.76 9.79 10.32
10/21/2022 4:15:00 AM 8.49 47.282 0.251 7.76 9.51 10.32
10/21/2022 4:30:00 AM 8.44 47.192 0.251 7.77 10.05 10.33
10/21/2022 4:45:00 AM 8.37 47.066 0.251 7.77 7.66 10.33
10/21/2022 5:00:00 AM 8.36 47.048 0.252 7.78 8.09 10.31
10/21/2022 5:15:00 AM 8.32 46.976 0.252 7.78 8.49 10.34
10/21/2022 5:30:00 AM 8.24 46.832 0.252 7.79 8.5 10.36
10/21/2022 5:45:00 AM 8.22 46.796 0.252 7.8 8.55 10.29
10/21/2022 6:00:00 AM 8.18 46.724 0.252 7.8 8.6 10.31
10/21/2022 6:15:00 AM 8.1 46.58 0.253 7.8 8.66 10.37
10/21/2022 6:30:00 AM 8.08 46.544 0.252 7.8 8.77 10.35
10/21/2022 6:45:00 AM 8.01 46.418 0.253 7.8 8.68 10.35
10/21/2022 7:00:00 AM 8.01 46.418 0.253 7.8 8.55 10.28
10/21/2022 7:15:00 AM 7.95 46.31 0.253 7.8 8.99 10.33
10/21/2022 7:30:00 AM 7.88 46.184 0.253 7.8 9.22 10.38
10/21/2022 7:45:00 AM 7.86 46.148 0.254 7.79 9.56 10.28
10/21/2022 8:00:00 AM 7.81 46.058 0.254 7.8 9.27 10.39
10/21/2022 8:15:00 AM 7.77 45.986 0.254 7.8 10.62 10.4
10/21/2022 8:30:00 AM 7.74 45.932 0.254 7.8 9.88 10.39
10/21/2022 8:45:00 AM 7.71 45.878 0.255 7.8 9.68 10.42
10/21/2022 9:00:00 AM 7.7 45.86 0.255 7.8 10.07 10.49
10/21/2022 9:15:00 AM 7.66 45.788 0.255 7.79 9.12 10.54
10/21/2022 9:30:00 AM 7.67 45.806 0.255 7.79 9.11 10.51
10/21/2022 9:45:00 AM 7.66 45.788 0.255 7.78 10.71 10.62
10/21/2022 10:00:00 AM 7.68 45.824 0.255 7.76 9.1 10.67
10/21/2022 10:15:00 AM 7.73 45.914 0.255 7.74 9.45 10.7
10/21/2022 10:30:00 AM 7.83 46.094 0.255 7.6 8.38 10.81
10/21/2022 10:45:00 AM 7.94 46.292 0.255 7.36 8.82 10.75
10/21/2022 11:00:00 AM 8.04 46.472 0.255 6.91 7.3 11.12
10/21/2022 11:15:00 AM 8.13 46.634 0.256 6.12 7.04 11.2
10/21/2022 11:30:00 AM 8.28 46.904 0.256 5.46 7.34 11.2
10/21/2022 11:45:00 AM 8.43 47.174 0.256 5.21 7.32 11.32
10/21/2022 12:00:00 PM 8.61 47.498 0.256 4.82 7.43 11.42
10/21/2022 12:15:00 PM 8.78 47.804 0.256 4.6 8.28 11.39
10/21/2022 12:30:00 PM 8.9 48.02 0.256 4.54 8.54 11.45
10/21/2022 12:45:00 PM 9.04 48.272 0.256 4.53 10.74 11.57
10/21/2022 1:00:00 PM 9.15 48.47 0.256 4.41 11.64 11.66
10/21/2022 1:15:00 PM 9.27 48.686 0.256 4.4 8.86 11.64
10/21/2022 1:30:00 PM 9.39 48.902 0.256 4.35 8.79 11.65
10/21/2022 1:45:00 PM 9.46 49.028 0.257 4.21 8.26 11.69
10/21/2022 2:00:00 PM 9.53 49.154 0.257 4.28 8.2 11.76
10/21/2022 2:15:00 PM 9.65 49.37 0.257 4.4 8.24 11.77
10/21/2022 2:30:00 PM 9.76 49.568 0.257 4.54 7.45 11.89
10/21/2022 2:45:00 PM 9.8 49.64 0.257 4.78 7.86 11.94
10/21/2022 3:00:00 PM 9.86 49.748 0.258 4.7 7.81 11.92
10/21/2022 3:15:00 PM 9.91 49.838 0.257 4.49 8.08 11.91
10/21/2022 3:30:00 PM 9.92 49.856 0.258 4.35 8.06 12
10/21/2022 3:45:00 PM 9.98 49.964 0.258 4.42 9.13 11.96
10/21/2022 4:00:00 PM 10.02 50.036 0.258 4.24 8.25 12
10/21/2022 4:15:00 PM 10.08 50.144 0.258 4.06 8.53 12.05
10/21/2022 4:30:00 PM 10.15 50.27 0.258 4.17 8.83 12.08
10/21/2022 4:45:00 PM 10.21 50.378 0.258 4.12 8.12 12.07
10/21/2022 5:00:00 PM 10.26 50.468 0.258 4.04 8.14 12.1
10/21/2022 5:15:00 PM 10.3 50.54 0.258 4.12 8.74 12.05
10/21/2022 5:30:00 PM 10.35 50.63 0.258 4.1 7.97 12.04
10/21/2022 5:45:00 PM 10.37 50.666 0.259 4.26 7.65 11.99
10/21/2022 6:00:00 PM 10.37 50.666 0.259 4.1 7.67 11.96
10/21/2022 6:15:00 PM 10.37 50.666 0.259 4.2 8.39 11.86
10/21/2022 6:30:00 PM 10.35 50.63 0.259 4.11 6.88 11.83
10/21/2022 6:45:00 PM 10.31 50.558 0.259 4.17 7.75 11.78
10/21/2022 7:00:00 PM 10.26 50.468 0.259 4.49 8.06 11.72
10/21/2022 7:15:00 PM 10.2 50.36 0.26 4.76 7.64 11.6
10/21/2022 7:30:00 PM 10.13 50.234 0.26 5.03 8.08 11.55
10/21/2022 7:45:00 PM 10.07 50.126 0.26 5.59 7.88 11.47
10/21/2022 8:00:00 PM 9.99 49.982 0.26 6.06 8.19 11.36
10/21/2022 8:15:00 PM 9.91 49.838 0.26 6.46 8.72 11.33
10/21/2022 8:30:00 PM 9.82 49.676 0.26 6.49 8.48 11.25
10/21/2022 8:45:00 PM 9.76 49.568 0.26 6.72 8.72 11.18
10/21/2022 9:00:00 PM 9.67 49.406 0.26 6.86 8.77 11.1
10/21/2022 9:15:00 PM 9.61 49.298 0.26 7.08 9.04 11.05
10/21/2022 9:30:00 PM 9.52 49.136 0.26 7.18 9.32 11
10/21/2022 9:45:00 PM 9.47 49.046 0.26 7.24 8.74 10.91
10/21/2022 10:00:00 PM 9.39 48.902 0.26 7.32 8.01 10.89
10/21/2022 10:15:00 PM 9.32 48.776 0.26 7.27 7.49 10.83
10/21/2022 10:30:00 PM 9.26 48.668 0.26 7.34 7.49 10.8
10/21/2022 10:45:00 PM 9.2 48.56 0.26 7.38 8.33 10.74
10/21/2022 11:00:00 PM 9.14 48.452 0.26 7.52 7.93 10.7
10/21/2022 11:15:00 PM 9.08 48.344 0.26 7.57 8.77 10.68
10/21/2022 11:30:00 PM 9.04 48.272 0.26 7.51 8.38 10.64
10/21/2022 11:45:00 PM 8.99 48.182 0.26 7.57 8.89 10.61
10/22/2022 12:00:00 AM 8.94 48.092 0.26 7.62 9.05 10.58
10/22/2022 12:15:00 AM 8.88 47.984 0.26 7.65 9.54 10.57
10/22/2022 12:30:00 AM 8.85 47.93 0.26 7.65 8.76 10.55
10/22/2022 12:45:00 AM 8.8 47.84 0.26 7.69 9.29 10.54
10/22/2022 1:00:00 AM 8.76 47.768 0.26 7.67 8.85 10.55
10/22/2022 1:15:00 AM 8.72 47.696 0.26 7.69 8.33 10.53
10/22/2022 1:30:00 AM 8.68 47.624 0.26 7.72 8.6 10.53
10/22/2022 1:45:00 AM 8.65 47.57 0.26 7.7 8.95 10.54
10/22/2022 2:00:00 AM 8.62 47.516 0.26 7.71 8.51 10.53
10/22/2022 2:15:00 AM 8.58 47.444 0.26 7.72 8.76 10.53
10/22/2022 2:30:00 AM 8.55 47.39 0.259 7.74 8.76 10.53
10/22/2022 2:45:00 AM 8.52 47.336 0.26 7.74 8.49 10.53
10/22/2022 3:00:00 AM 8.49 47.282 0.26 7.74 9.33 10.54
10/22/2022 3:15:00 AM 8.46 47.228 0.26 7.74 8.87 10.54
10/22/2022 3:30:00 AM 8.42 47.156 0.26 7.75 8.71 10.54
10/22/2022 3:45:00 AM 8.39 47.102 0.26 7.75 9.23 10.54
10/22/2022 4:00:00 AM 8.36 47.048 0.26 7.75 8.91 10.55
10/22/2022 4:15:00 AM 8.34 47.012 0.26 7.76 8.35 10.54
10/22/2022 4:30:00 AM 8.31 46.958 0.26 7.77 9.07 10.55
10/22/2022 4:45:00 AM 8.27 46.886 0.26 7.78 9.31 10.54
10/22/2022 5:00:00 AM 8.23 46.814 0.26 7.78 9.29 10.56
10/22/2022 5:15:00 AM 8.2 46.76 0.251 7.78 8.85 10.55
10/22/2022 5:30:00 AM 8.15 46.67 0.26 7.79 9.31 10.57
10/22/2022 5:45:00 AM 8.11 46.598 0.259 7.79 10.14 10.53
10/22/2022 6:00:00 AM 8.07 46.526 0.247 7.79 9.97 10.57
10/22/2022 6:15:00 AM 8.03 46.454 0.261 7.79 9.97 10.55
10/22/2022 6:30:00 AM 7.99 46.382 0.261 7.8 9.81 10.58
10/22/2022 6:45:00 AM 7.94 46.292 0.261 7.8 9.62 10.56
10/22/2022 7:00:00 AM 7.93 46.274 0.261 7.8 10.14 10.55
10/22/2022 7:15:00 AM 7.87 46.166 0.261 7.8 9.34 10.54
10/22/2022 7:30:00 AM 7.82 46.076 0.261 7.8 8.58 10.53
10/22/2022 7:45:00 AM 7.78 46.004 0.261 7.8 10.72 10.52
10/22/2022 8:00:00 AM 7.75 45.95 0.261 7.81 10.04 10.57
10/22/2022 8:15:00 AM 7.72 45.896 0.261 7.81 9.34 10.59
10/22/2022 8:30:00 AM 7.68 45.824 0.261 7.81 9.45 10.66
10/22/2022 8:45:00 AM 7.65 45.77 0.261 7.81 9.03 10.69
10/22/2022 9:00:00 AM 7.64 45.752 0.262 7.8 9.16 10.72
10/22/2022 9:15:00 AM 7.63 45.734 0.261 7.78 10.95 10.72
10/22/2022 9:30:00 AM 7.63 45.734 0.262 7.79 9.61 10.78
10/22/2022 9:45:00 AM 7.65 45.77 0.261 7.78 9.91 10.85
10/22/2022 10:00:00 AM 7.69 45.842 0.261 7.75 10.31 10.91
10/22/2022 10:15:00 AM 7.76 45.968 0.262 7.72 10.25 11.02
10/22/2022 10:30:00 AM 7.86 46.148 0.261 7.59 10.15 11.08
10/22/2022 10:45:00 AM 7.99 46.382 0.261 7.06 10.15 11.17
10/22/2022 11:00:00 AM 8.14 46.652 0.262 5.71 10.23 11.26
10/22/2022 11:15:00 AM 8.3 46.94 0.262 5.11 10.23 11.31
10/22/2022 11:30:00 AM 8.46 47.228 0.262 5.09 9.94 11.4
10/22/2022 11:45:00 AM 8.67 47.606 0.261 4.75 10.31 11.44
10/22/2022 12:00:00 PM 8.83 47.894 0.262 4.4 11.11 11.55
10/22/2022 12:15:00 PM 8.98 48.164 0.262 4.41 9.75 11.58
10/22/2022 12:30:00 PM 9.11 48.398 0.262 4.4 14.3 11.69
10/22/2022 12:45:00 PM 9.24 48.632 0.262 4.6 12.4 11.73
10/22/2022 1:00:00 PM 9.4 48.92 0.262 4.66 9.88 11.74
10/22/2022 1:15:00 PM 9.55 49.19 0.262 4.89 13.31 11.76
10/22/2022 1:30:00 PM 9.66 49.388 0.262 5.1 8.47 11.85
10/22/2022 1:45:00 PM 9.72 49.496 0.263 5.11 8.08 11.92
10/22/2022 2:00:00 PM 9.86 49.748 0.263 5.15 10.37 12.01
10/22/2022 2:15:00 PM 10 50 0.263 5.38 9.99 12.02
10/22/2022 2:30:00 PM 10.1 50.18 0.263 5.92 9.16 12.07
10/22/2022 2:45:00 PM 10.15 50.27 0.263 6.1 8.95 12.1
10/22/2022 3:00:00 PM 10.22 50.396 0.263 6.18 9.98 12.13
10/22/2022 3:15:00 PM 10.2 50.36 0.263 6.21 9.27 12.19
10/22/2022 3:30:00 PM 10.24 50.432 0.263 5.76 8.69 12.21
10/22/2022 3:45:00 PM 10.28 50.504 0.263 5.5 9.08 12.23
10/22/2022 4:00:00 PM 10.33 50.594 0.263 5.18 9.58 12.25
10/22/2022 4:15:00 PM 10.4 50.72 0.264 5.22 9.47 12.23
10/22/2022 4:30:00 PM 10.45 50.81 0.264 5.32 8.96 12.24
10/22/2022 4:45:00 PM 10.51 50.918 0.264 5.1 10.32 12.22
10/22/2022 5:00:00 PM 10.57 51.026 0.264 4.86 9.87 12.19
10/22/2022 5:15:00 PM 10.61 51.098 0.264 4.81 9.41 12.17
10/22/2022 5:30:00 PM 10.67 51.206 0.265 4.66 10.77 12.16
10/22/2022 5:45:00 PM 10.71 51.278 0.265 4.67 10.86 12.1
10/22/2022 6:00:00 PM 10.74 51.332 0.265 4.41 10.91 12.08
10/22/2022 6:15:00 PM 10.75 51.35 0.265 4.1 11.16 12.05
10/22/2022 6:30:00 PM 10.75 51.35 0.266 4.17 9.8 11.94
10/22/2022 6:45:00 PM 10.72 51.296 0.266 3.86 10.61 11.9
10/22/2022 7:00:00 PM 10.69 51.242 0.266 3.91 10.58 11.82
10/22/2022 7:15:00 PM 10.66 51.188 0.267 3.89 12.42 11.73
10/22/2022 7:30:00 PM 10.58 51.044 0.267 4.04 9.8 11.63
10/22/2022 7:45:00 PM 10.53 50.954 0.267 4.09 11.32 11.59
10/22/2022 8:00:00 PM 10.47 50.846 0.267 4.22 10.47 11.51
10/22/2022 8:15:00 PM 10.39 50.702 0.268 4.69 11.82 11.41
10/22/2022 8:30:00 PM 10.32 50.576 0.268 5.14 11.34 11.35
10/22/2022 8:45:00 PM 10.24 50.432 0.268 5.13 11.06 11.27
10/22/2022 9:00:00 PM 10.17 50.306 0.268 5.31 11.28 11.17
10/22/2022 9:15:00 PM 10.09 50.162 0.268 5.51 12.29 11.12
10/22/2022 9:30:00 PM 10.02 50.036 0.268 5.83 12.04 11.02
10/22/2022 9:45:00 PM 9.94 49.892 0.268 6.14 12.02 10.95
10/22/2022 10:00:00 PM 9.89 49.802 0.269 6.5 11.57 10.89
10/22/2022 10:15:00 PM 9.83 49.694 0.269 6.62 15.51 10.82
10/22/2022 10:30:00 PM 9.76 49.568 0.269 6.61 11.58 10.78
10/22/2022 10:45:00 PM 9.71 49.478 0.269 6.67 11.99 10.71
10/22/2022 11:00:00 PM 9.66 49.388 0.269 6.82 11.55 10.69
10/22/2022 11:15:00 PM 9.61 49.298 0.269 6.91 11.07 10.64
10/22/2022 11:30:00 PM 9.56 49.208 0.269 7.03 11.08 10.61
10/22/2022 11:45:00 PM 9.52 49.136 0.269 7.08 11.89 10.55
10/23/2022 12:00:00 AM 9.47 49.046 0.269 7.21 12.83 10.52
10/23/2022 12:15:00 AM 9.43 48.974 0.269 7.16 12.6 10.51
10/23/2022 12:30:00 AM 9.39 48.902 0.269 7.26 12.84 10.48
10/23/2022 12:45:00 AM 9.34 48.812 0.269 7.25 12.83 10.45
10/23/2022 1:00:00 AM 9.31 48.758 0.269 7.32 13.52 10.44
10/23/2022 1:15:00 AM 9.27 48.686 0.269 7.34 12.96 10.43
10/23/2022 1:30:00 AM 9.23 48.614 0.269 7.36 12.48 10.41
10/23/2022 1:45:00 AM 9.2 48.56 0.269 7.37 12.67 10.42
10/23/2022 2:00:00 AM 9.16 48.488 0.269 7.43 13.18 10.4
10/23/2022 2:15:00 AM 9.13 48.434 0.269 7.54 13 10.39
10/23/2022 2:30:00 AM 9.11 48.398 0.269 7.58 12.72 10.4
10/23/2022 2:45:00 AM 9.08 48.344 0.269 7.57 12.96 10.41
10/23/2022 3:00:00 AM 9.05 48.29 0.269 7.58 12.53 10.42
10/23/2022 3:15:00 AM 9.02 48.236 0.269 7.61 12.82 10.41
10/23/2022 3:30:00 AM 9 48.2 0.269 7.61 13.8 10.38
10/23/2022 3:45:00 AM 8.96 48.128 0.269 7.61 12.68 10.39
10/23/2022 4:00:00 AM 8.95 48.11 0.269 7.61 13.37 10.39
10/23/2022 4:15:00 AM 8.92 48.056 0.269 7.64 12.18 10.4
10/23/2022 4:30:00 AM 8.89 48.002 0.269 7.66 13.26 10.42
10/23/2022 4:45:00 AM 8.86 47.948 0.269 7.67 13.72 10.41
10/23/2022 5:00:00 AM 8.83 47.894 0.269 7.68 12.65 10.4
10/23/2022 5:15:00 AM 8.81 47.858 0.269 7.68 13.76 10.43
10/23/2022 5:30:00 AM 8.77 47.786 0.269 7.68 14.5 10.42
10/23/2022 5:45:00 AM 8.74 47.732 0.269 7.7 14.25 10.39
10/23/2022 6:00:00 AM 8.71 47.678 0.269 7.69 13.81 10.42
10/23/2022 6:15:00 AM 8.68 47.624 0.269 7.69 14.03 10.41
10/23/2022 6:30:00 AM 8.65 47.57 0.269 7.71 14.21 10.43
10/23/2022 6:45:00 AM 8.62 47.516 0.269 7.71 13.02 10.42
10/23/2022 7:00:00 AM 8.58 47.444 0.269 7.73 12.1 10.41
10/23/2022 7:15:00 AM 8.55 47.39 0.269 7.7 12.79 10.37
10/23/2022 7:30:00 AM 8.52 47.336 0.269 7.68 12.21 10.38
10/23/2022 7:45:00 AM 8.48 47.264 0.269 7.7 22.82 10.4
10/23/2022 8:00:00 AM 8.46 47.228 0.269 7.68 11.45 10.44
10/23/2022 8:15:00 AM 8.44 47.192 0.269 7.67 13.86 10.48
10/23/2022 8:30:00 AM 8.41 47.138 0.269 7.72 19.34 10.49
10/23/2022 8:45:00 AM 8.41 47.138 0.269 7.63 13.77 10.53
10/23/2022 9:00:00 AM 8.42 47.156 0.269 7.6 14.58 10.57
10/23/2022 9:15:00 AM 8.43 47.174 0.269 7.51 14.75 10.64
10/23/2022 9:30:00 AM 8.45 47.21 0.268 7.37 14 10.72
10/23/2022 9:45:00 AM 8.48 47.264 0.268 7.23 14.86 10.77
10/23/2022 10:00:00 AM 8.54 47.372 0.268 6.97 15.62 10.87
10/23/2022 10:15:00 AM 8.57 47.426 0.268 6.78 14.75 10.93
10/23/2022 10:30:00 AM 8.63 47.534 0.268 6.41 15.06 11.02
10/23/2022 10:45:00 AM 8.68 47.624 0.268 6.11 13.18 11.05
10/23/2022 11:00:00 AM 8.75 47.75 0.268 5.57 15.96 11.17
10/23/2022 11:15:00 AM 8.8 47.84 0.268 5.11 13.35 11.25
10/23/2022 11:30:00 AM 8.89 48.002 0.268 4.9 12.72 11.36
10/23/2022 11:45:00 AM 8.97 48.146 0.268 4.57 13.72 11.47
10/23/2022 12:00:00 PM 9.08 48.344 0.268 4.51 15.26 11.54
10/23/2022 12:15:00 PM 9.2 48.56 0.268 4.4 15.14 11.68
10/23/2022 12:30:00 PM 9.3 48.74 0.268 4.42 14.1 11.81
10/23/2022 12:45:00 PM 9.4 48.92 0.268 4.5 15.13 11.86
10/23/2022 1:00:00 PM 9.46 49.028 0.268 4.49 15.03 11.96
10/23/2022 1:15:00 PM 9.5 49.1 0.268 4.51 14.42 12
10/23/2022 1:30:00 PM 9.56 49.208 0.268 4.56 14.56 12.06
10/23/2022 1:45:00 PM 9.62 49.316 0.268 4.61 15.32 12.1
10/23/2022 2:00:00 PM 9.66 49.388 0.268 4.57 14.46 12.14
10/23/2022 2:15:00 PM 9.73 49.514 0.268 4.53 15.47 12.21
10/23/2022 2:30:00 PM 9.79 49.622 0.268 4.58 15.1 12.29
10/23/2022 2:45:00 PM 9.84 49.712 0.268 4.54 16.15 12.23
10/23/2022 3:00:00 PM 9.89 49.802 0.268 4.56 14.76 12.28
10/23/2022 3:15:00 PM 9.93 49.874 0.268 4.59 14.22 12.28
10/23/2022 3:30:00 PM 9.97 49.946 0.268 4.58 15.43 12.29
10/23/2022 3:45:00 PM 10 50 0.268 4.46 15.08 12.3
10/23/2022 4:00:00 PM 10.03 50.054 0.268 4.41 15.9 12.31
10/23/2022 4:15:00 PM 10.06 50.108 0.268 4.3 13.25 12.27
10/23/2022 4:30:00 PM 10.09 50.162 0.268 4.23 15.5 12.26
10/23/2022 4:45:00 PM 10.11 50.198 0.268 4.21 16.12 12.21
10/23/2022 5:00:00 PM 10.13 50.234 0.268 4.19 15.76 12.17
10/23/2022 5:15:00 PM 10.15 50.27 0.268 4.23 16.27 12.08
10/23/2022 5:30:00 PM 10.16 50.288 0.268 4.14 15.31 12.03
10/23/2022 5:45:00 PM 10.18 50.324 0.268 4.05 15.65 11.93
10/23/2022 6:00:00 PM 10.18 50.324 0.268 3.96 13.8 11.9
10/23/2022 6:15:00 PM 10.19 50.342 0.268 4.05 15.46 11.77
10/23/2022 6:30:00 PM 10.19 50.342 0.268 4.09 17.2 11.76
10/23/2022 6:45:00 PM 10.19 50.342 0.268 4.07 15.19 11.7
10/23/2022 7:00:00 PM 10.19 50.342 0.268 4.05 15.4 11.59
10/23/2022 7:15:00 PM 10.19 50.342 0.268 3.93 15.94 11.53
10/23/2022 7:30:00 PM 10.17 50.306 0.268 3.84 15.91 11.47
10/23/2022 7:45:00 PM 10.17 50.306 0.269 3.83 16.17 11.37
10/23/2022 8:00:00 PM 10.17 50.306 0.269 3.82 15.95 11.29
10/23/2022 8:15:00 PM 10.16 50.288 0.269 3.73 15.57 11.21
10/23/2022 8:30:00 PM 10.16 50.288 0.269 3.75 15.95 11.13
10/23/2022 8:45:00 PM 10.16 50.288 0.269 3.62 17.19 11.07
10/23/2022 9:00:00 PM 10.16 50.288 0.269 3.45 16.21 10.98
10/23/2022 9:15:00 PM 10.17 50.306 0.269 3.43 16.31 10.91
10/23/2022 9:30:00 PM 10.17 50.306 0.269 3.22 17.46 10.82
10/23/2022 9:45:00 PM 10.17 50.306 0.269 3.53 17.49 10.75
10/23/2022 10:00:00 PM 10.17 50.306 0.269 3.42 15.45 10.67
10/23/2022 10:15:00 PM 10.18 50.324 0.269 3.6 17.96 10.6
10/23/2022 10:30:00 PM 10.18 50.324 0.269 3.51 18.45 10.55
10/23/2022 10:45:00 PM 10.2 50.36 0.267 3.62 18.73 10.5
10/23/2022 11:00:00 PM 10.22 50.396 0.265 3.54 19.61 10.44
10/23/2022 11:15:00 PM 10.23 50.414 0.263 3.48 11.72 10.39
10/23/2022 11:30:00 PM 10.24 50.432 0.263 3.44 20.65 10.27
10/23/2022 11:45:00 PM 10.25 50.45 0.262 3.63 21.84 10.25
10/24/2022 12:00:00 AM 10.26 50.468 0.261 3.53 21.64 10.2
10/24/2022 12:15:00 AM 10.26 50.468 0.261 3.48 24.26 10.16
10/24/2022 12:30:00 AM 10.27 50.486 0.261 3.45 24.88 10.12
10/24/2022 12:45:00 AM 10.28 50.504 0.261 3.55 23.51 10.09
10/24/2022 1:00:00 AM 10.29 50.522 0.261 3.65 23.66 9.95
10/24/2022 1:15:00 AM 10.3 50.54 0.26 3.71 23.79 9.97
10/24/2022 1:30:00 AM 10.31 50.558 0.259 3.65 25.13 9.9
10/24/2022 1:45:00 AM 10.32 50.576 0.257 3.65 22.72 9.82
10/24/2022 2:00:00 AM 10.33 50.594 0.256 3.5 25.43 9.74
10/24/2022 2:15:00 AM 10.34 50.612 0.255 3.61 24.68 9.61
10/24/2022 2:30:00 AM 10.35 50.63 0.253 3.64 24.17 9.45
10/24/2022 2:45:00 AM 10.37 50.666 0.252 3.6 27.31 9.38
10/24/2022 3:00:00 AM 10.39 50.702 0.248 3.52 28.27 9.31
10/24/2022 3:15:00 AM 10.45 50.81 0.242 3.72 30.99 9.32
10/24/2022 3:30:00 AM 10.52 50.936 0.238 4.02 34.93 9.37
10/24/2022 3:45:00 AM 10.57 51.026 0.237 4.19 35.99 9.4
10/24/2022 4:00:00 AM 10.62 51.116 0.235 4.18 44.38 9.27
10/24/2022 4:15:00 AM 10.66 51.188 0.236 4.06 46.55 9.35
10/24/2022 4:30:00 AM 10.7 51.26 0.237 4.17 52.22 9.38
10/24/2022 4:45:00 AM 10.76 51.368 0.235 4.24 52.92 9.32
10/24/2022 5:00:00 AM 10.74 51.332 0.239 4.5 52.05 9.35
10/24/2022 5:15:00 AM 10.76 51.368 0.237 4.22 49.05 8.87
10/24/2022 5:30:00 AM 10.83 51.494 0.233 4.73 57 8.73
10/24/2022 5:45:00 AM 10.81 51.458 0.235 5.02 66.09 8.84
10/24/2022 6:00:00 AM 10.78 51.404 0.236 5.11 58.92 9.07
10/24/2022 6:15:00 AM 10.77 51.386 0.238 4.6 59.06 9.03
10/24/2022 6:30:00 AM 10.74 51.332 0.24 5.36 55.7 9.21
10/24/2022 6:45:00 AM 10.73 51.314 0.238 5.5 51.97 9.31
10/24/2022 7:00:00 AM 10.73 51.314 0.245 5.47 43.47 9.19
10/24/2022 7:15:00 AM 10.74 51.332 0.246 5.13 44.96 9.35
10/24/2022 7:30:00 AM 10.73 51.314 0.248 5.53 42.51 9.3
10/24/2022 7:45:00 AM 10.76 51.368 0.248 5.57 42.42 9.31
10/24/2022 8:00:00 AM 10.77 51.386 0.25 5.75 41.72 9.29
10/24/2022 8:15:00 AM 10.79 51.422 0.251 5.27 42.71 9.26
10/24/2022 8:30:00 AM 10.83 51.494 0.251 5.46 43.65 9.22
10/24/2022 8:45:00 AM 10.84 51.512 0.252 5.77 41.59 9.21
10/24/2022 9:00:00 AM 10.88 51.584 0.251 5.58 47.17 9.2
10/24/2022 9:15:00 AM 10.91 51.638 0.25 5.5 46.24 9.18
10/24/2022 9:30:00 AM 10.94 51.692 0.251 5.42 45.09 9.2
10/24/2022 9:45:00 AM 10.99 51.782 0.249 5.51 49.33 9.21
10/24/2022 10:00:00 AM 11.03 51.854 0.248 5.55 47.34 9.23
10/24/2022 10:15:00 AM 11.09 51.962 0.247 5.45 48.55 9.22
10/24/2022 10:30:00 AM 11.12 52.016 0.247 5.53 47.98 9.22
10/24/2022 10:45:00 AM 11.16 52.088 0.246 5.54 48.35 9.22
10/24/2022 11:00:00 AM 11.19 52.142 0.245 5.65 47.37 9.23
10/24/2022 11:15:00 AM 11.21 52.178 0.244 5.61 47 9.26
10/24/2022 11:30:00 AM 11.24 52.232 0.244 5.61 47.59 9.29
10/24/2022 11:45:00 AM 11.26 52.268 0.244 5.67 50.58 9.31
10/24/2022 12:00:00 PM 11.29 52.322 0.244 5.69 45.96 9.34
10/24/2022 12:15:00 PM 11.32 52.376 0.244 5.67 44.07 9.36
10/24/2022 12:30:00 PM 11.35 52.43 0.244 5.72 45.17 9.38
10/24/2022 12:45:00 PM 11.37 52.466 0.244 5.69 44.82 9.38
10/24/2022 1:00:00 PM 11.4 52.52 0.245 5.67 45.51 9.39
10/24/2022 1:15:00 PM 11.42 52.556 0.245 5.66 48.99 9.39
10/24/2022 1:30:00 PM 11.45 52.61 0.245 5.64 47.83 9.41
10/24/2022 1:45:00 PM 11.46 52.628 0.247 5.62 49.88 9.42
10/24/2022 2:00:00 PM 11.48 52.664 0.247 5.62 45.84 9.39
10/24/2022 2:15:00 PM 11.51 52.718 0.248 5.66 34.61 9.37
10/24/2022 2:30:00 PM 11.53 52.754 0.248 5.6 50.76 9.36
10/24/2022 2:45:00 PM 11.55 52.79 0.248 5.71 56.54 9.37
10/24/2022 3:00:00 PM 11.57 52.826 0.249 5.8 55.45 9.36
10/24/2022 3:15:00 PM 11.61 52.898 0.248 5.7 53.66 9.36
10/24/2022 3:30:00 PM 11.64 52.952 0.248 5.76 54.99 9.36
10/24/2022 3:45:00 PM 11.66 52.988 0.248 5.78 52.58 9.37
10/24/2022 4:00:00 PM 11.68 53.024 0.247 5.7 51.33 9.33
10/24/2022 4:15:00 PM 11.7 53.06 0.247 5.74 50.91 9.34
10/24/2022 4:30:00 PM 11.72 53.096 0.246 5.7 50.81 9.36
10/24/2022 4:45:00 PM 11.74 53.132 0.246 5.68 53.6 9.38
10/24/2022 5:00:00 PM 11.77 53.186 0.245 5.64 34.98 9.38
10/24/2022 5:15:00 PM 11.78 53.204 0.244 5.64 41.68 9.38
10/24/2022 5:30:00 PM 11.8 53.24 0.235 5.66 44.32 9.35
10/24/2022 5:45:00 PM 11.81 53.258 0.242 5.65 60.99 9.35
10/24/2022 6:00:00 PM 11.82 53.276 0.241 5.7 47.31 9.33
10/24/2022 6:15:00 PM 11.83 53.294 0.24 5.69 39.04 9.32
10/24/2022 6:30:00 PM 11.83 53.294 0.239 5.66 33.33 9.28
10/24/2022 6:45:00 PM 11.84 53.312 0.239 5.7 44.77 9.25
10/24/2022 7:00:00 PM 11.84 53.312 0.239 5.54 56.53 9.22
10/24/2022 7:15:00 PM 11.85 53.33 0.238 5.6 42.54 9.16
10/24/2022 7:30:00 PM 11.86 53.348 0.238 5.67 39.68 9.14
10/24/2022 7:45:00 PM 11.87 53.366 0.238 5.71 62.04 9.12
10/24/2022 8:00:00 PM 11.88 53.384 0.238 5.68 51.63 9.06
10/24/2022 8:15:00 PM 11.9 53.42 0.238 5.62 55.12 9.03
10/24/2022 8:30:00 PM 11.91 53.438 0.238 5.68 50.6 9.01
10/24/2022 8:45:00 PM 11.93 53.474 0.239 5.5 49.2 8.97
10/24/2022 9:00:00 PM 11.95 53.51 0.24 5.55 69.31 8.97
10/24/2022 9:15:00 PM 11.97 53.546 0.241 5.55 55.73 8.96
10/24/2022 9:30:00 PM 12 53.6 0.241 5.52 67.89 8.93
10/24/2022 9:45:00 PM 12.02 53.636 0.243 5.54 58.91 8.94
10/24/2022 10:00:00 PM 12.04 53.672 0.245 5.65 73.27 8.94
10/24/2022 10:15:00 PM 12.07 53.726 0.247 5.59 52.58 8.94
10/24/2022 10:30:00 PM 12.09 53.762 0.25 5.59 72.9 8.94
10/24/2022 10:45:00 PM 12.11 53.798 0.253 5.56 77.42 8.94
10/24/2022 11:00:00 PM 12.13 53.834 0.255 5.55 58.23 8.94
10/24/2022 11:15:00 PM 12.14 53.852 0.258 5.53 63.53 8.91
10/24/2022 11:30:00 PM 12.16 53.888 0.261 5.57 76.95 8.9
10/24/2022 11:45:00 PM 12.18 53.924 0.263 5.59 58.66 8.88
10/25/2022 12:00:00 AM 12.19 53.942 0.265 5.53 70.55 8.88
10/25/2022 12:15:00 AM 12.2 53.96 0.267 5.59 84.04 8.85
10/25/2022 12:30:00 AM 12.21 53.978 0.268 5.59 72.44 8.83
10/25/2022 12:45:00 AM 12.22 53.996 0.268 5.64 96.37 8.81
10/25/2022 1:00:00 AM 12.23 54.014 0.268 5.54 72.5 8.76
10/25/2022 1:15:00 AM 12.24 54.032 0.268 5.55 54.29 8.76
10/25/2022 1:30:00 AM 12.24 54.032 0.267 5.58 69.05 8.74
10/25/2022 1:45:00 AM 12.25 54.05 0.265 5.58 66.81 8.68
10/25/2022 2:00:00 AM 12.25 54.05 0.263 5.55 67.67 8.71
10/25/2022 2:15:00 AM 12.25 54.05 0.262 5.6 75.97 8.68
10/25/2022 2:30:00 AM 12.25 54.05 0.259 5.6 85.68 8.66
10/25/2022 2:45:00 AM 12.25 54.05 0.257 5.61 59.64 8.62
10/25/2022 3:00:00 AM 12.25 54.05 0.255 5.65 78.97 8.53
10/25/2022 3:15:00 AM 12.25 54.05 0.252 5.63 76.62 8.54
10/25/2022 3:30:00 AM 12.24 54.032 0.25 5.66 81.74 8.61
10/25/2022 3:45:00 AM 12.24 54.032 0.247 5.67 114.7 8.58
10/25/2022 4:00:00 AM 12.24 54.032 0.245 5.64 79.82 8.59
10/25/2022 4:15:00 AM 12.24 54.032 0.243 5.72 61.8 8.57
10/25/2022 4:30:00 AM 12.23 54.014 0.241 5.74 74.07 8.55
10/25/2022 4:45:00 AM 12.23 54.014 0.239 5.76 76.95 8.56
10/25/2022 5:00:00 AM 12.22 53.996 0.237 5.73 89.6 8.52
10/25/2022 5:15:00 AM 12.22 53.996 0.235 5.72 74.63 8.51
10/25/2022 5:30:00 AM 12.22 53.996 0.234 5.71 50.78 8.52
10/25/2022 5:45:00 AM 12.21 53.978 0.232 5.64 50.6 8.51
10/25/2022 6:00:00 AM 12.21 53.978 0.231 5.7 54.86 8.51
10/25/2022 6:15:00 AM 12.21 53.978 0.231 5.67 55.06 8.45
10/25/2022 6:30:00 AM 12.2 53.96 0.23 5.68 80.34 8.46
10/25/2022 6:45:00 AM 12.2 53.96 0.229 5.68 56.41 8.47
10/25/2022 7:00:00 AM 12.19 53.942 0.228 5.67 54.36 8.46
10/25/2022 7:15:00 AM 12.19 53.942 0.228 5.7 61.07 8.47
10/25/2022 7:30:00 AM 12.19 53.942 0.227 5.67 75.02 8.47
10/25/2022 7:45:00 AM 12.19 53.942 0.227 5.69 76.13 8.49
10/25/2022 8:00:00 AM 12.19 53.942 0.227 5.67 84.14 8.46
10/25/2022 8:15:00 AM 12.19 53.942 0.227 5.72 72.32 8.47
10/25/2022 8:30:00 AM 12.2 53.96 0.227 5.69 62.87 8.44
10/25/2022 8:45:00 AM 12.21 53.978 0.227 5.72 69.88 8.47
10/25/2022 9:00:00 AM 12.22 53.996 0.227 5.7 82.05 8.47
10/25/2022 9:15:00 AM 12.23 54.014 0.227 5.7 59.82 8.46
10/25/2022 9:30:00 AM 12.25 54.05 0.227 5.68 69.11 8.51
10/25/2022 9:45:00 AM 12.28 54.104 0.227 5.72 65.51 8.53
10/25/2022 10:00:00 AM 12.3 54.14 0.227 5.7 71.21 8.56
10/25/2022 10:15:00 AM 12.32 54.176 0.227 5.72 56.19 8.54
10/25/2022 10:30:00 AM 12.34 54.212 0.227 5.74 55.26 8.57
10/25/2022 10:45:00 AM 12.37 54.266 0.227 5.71 63.65 8.59
10/25/2022 11:00:00 AM 12.41 54.338 0.227 5.75 66.13 8.61
10/25/2022 11:15:00 AM 12.45 54.41 0.227 5.76 71.5 8.65
10/25/2022 11:30:00 AM 12.48 54.464 0.228 5.77 70.14 8.67
10/25/2022 11:45:00 AM 12.51 54.518 0.228 5.77 71.08 8.65
10/25/2022 12:00:00 PM 12.54 54.572 0.228 5.8 83.98 8.71
10/25/2022 12:15:00 PM 12.58 54.644 0.228 5.78 74.35 8.72
10/25/2022 12:30:00 PM 12.61 54.698 0.228 5.79 79.05 8.74
10/25/2022 12:45:00 PM 12.7 54.86 0.228 5.8 97.23 8.78
10/25/2022 1:00:00 PM 12.74 54.932 0.228 5.82 56.36 8.79
10/25/2022 1:15:00 PM 12.79 55.022 0.228 5.81 46.17 8.81
10/25/2022 1:30:00 PM 12.81 55.058 0.228 5.84 78.35 8.8
10/25/2022 1:45:00 PM 12.82 55.076 0.228 5.86 74.75 8.83
10/25/2022 2:00:00 PM 12.85 55.13 0.228 5.87 44.9 8.85
10/25/2022 2:15:00 PM 12.87 55.166 0.228 5.87 35.54 8.81
10/25/2022 2:30:00 PM 12.9 55.22 0.228 5.88 35.65 8.83
10/25/2022 2:45:00 PM 12.92 55.256 0.228 5.89 37.27 8.86
10/25/2022 3:00:00 PM 12.96 55.328 0.228 5.88 36.63 8.86
10/25/2022 3:15:00 PM 13 55.4 0.228 5.86 37.56 8.87
10/25/2022 3:30:00 PM 13.04 55.472 0.228 5.86 44.51 8.84
10/25/2022 3:45:00 PM 13.07 55.526 0.228 5.89 35.53 8.86
10/25/2022 4:00:00 PM 13.1 55.58 0.227 5.89 45.08 8.86
10/25/2022 4:15:00 PM 13.13 55.634 0.227 5.88 45.01 8.87
10/25/2022 4:30:00 PM 13.16 55.688 0.227 5.89 38.23 8.85
10/25/2022 4:45:00 PM 13.18 55.724 0.227 5.92 30.83 8.82
10/25/2022 5:00:00 PM 13.21 55.778 0.227 5.93 43.77 8.82
10/25/2022 5:15:00 PM 13.22 55.796 0.227 5.93 24.11 8.84
10/25/2022 5:30:00 PM 13.24 55.832 0.227 5.94 27.55 8.84
10/25/2022 5:45:00 PM 13.25 55.85 0.227 5.92 34.65 8.82
10/25/2022 6:00:00 PM 13.25 55.85 0.227 5.94 29.44 8.79
10/25/2022 6:15:00 PM 13.26 55.868 0.227 5.95 29.67 8.78
10/25/2022 6:30:00 PM 13.27 55.886 0.227 5.98 41.32 8.77
10/25/2022 6:45:00 PM 13.28 55.904 0.226 5.96 45.05 8.73
10/25/2022 7:00:00 PM 13.28 55.904 0.226 5.99 26.21 8.54
10/25/2022 7:15:00 PM 13.29 55.922 0.226 5.98 34.94 8.68
10/25/2022 7:30:00 PM 13.3 55.94 0.226 5.99 27.39 8.67
10/25/2022 7:45:00 PM 13.31 55.958 0.225 5.97 27.32 8.68
10/25/2022 8:00:00 PM 13.32 55.976 0.225 5.96 27.38 8.68
10/25/2022 8:15:00 PM 13.32 55.976 0.225 5.98 30.39 8.65
10/25/2022 8:30:00 PM 13.33 55.994 0.225 5.96 32.24 8.64
10/25/2022 8:45:00 PM 13.33 55.994 0.224 5.98 36.22 8.62
10/25/2022 9:00:00 PM 13.34 56.012 0.224 5.98 34.94 8.6
10/25/2022 9:15:00 PM 13.35 56.03 0.224 5.99 35.66 8.62
10/25/2022 9:30:00 PM 13.35 56.03 0.224 5.97 38.71 8.6
10/25/2022 9:45:00 PM 13.36 56.048 0.224 5.99 39.92 8.61
10/25/2022 10:00:00 PM 13.37 56.066 0.223 6.01 34.01 8.55
10/25/2022 10:15:00 PM 13.36 56.048 0.223 6.02 37.12 8.57
10/25/2022 10:30:00 PM 13.37 56.066 0.223 6.02 41.45 8.55
10/25/2022 10:45:00 PM 13.37 56.066 0.222 6.01 44.66 8.54
10/25/2022 11:00:00 PM 13.38 56.084 0.223 6.04 38.43 8.48
10/25/2022 11:15:00 PM 13.38 56.084 0.222 6.01 39.85 8.49
10/25/2022 11:30:00 PM 13.38 56.084 0.222 6.03 48.53 8.48
10/25/2022 11:45:00 PM 13.39 56.102 0.222 6.02 39.65 8.47
10/26/2022 12:00:00 AM 13.39 56.102 0.222 6.01 64.07 8.47
10/26/2022 12:15:00 AM 13.39 56.102 0.221 6.07 65.4 8.44
10/26/2022 12:30:00 AM 13.39 56.102 0.221 6.07 71.46 8.44
10/26/2022 12:45:00 AM 13.39 56.102 0.221 6.09 43.76 8.44
10/26/2022 1:00:00 AM 13.39 56.102 0.221 6.12 43.37 8.44
10/26/2022 1:15:00 AM 13.39 56.102 0.221 6.11 39.56 8.44
10/26/2022 1:30:00 AM 13.39 56.102 0.221 6.09 70.06 8.41
10/26/2022 1:45:00 AM 13.39 56.102 0.221 6.09 41.91 8.36
10/26/2022 2:00:00 AM 13.38 56.084 0.221 6.08 52.53 8.35
10/26/2022 2:15:00 AM 13.39 56.102 0.22 6.07 43.43 8.33
10/26/2022 2:30:00 AM 13.38 56.084 0.221 6.09 37.1 8.35
10/26/2022 2:45:00 AM 13.39 56.102 0.221 6.03 48.29 8.33
10/26/2022 3:00:00 AM 13.39 56.102 0.221 6.04 44.47 8.35
10/26/2022 3:15:00 AM 13.39 56.102 0.221 6 45.66 8.34
10/26/2022 3:30:00 AM 13.39 56.102 0.221 6.02 47.13 8.36
10/26/2022 3:45:00 AM 13.39 56.102 0.221 6.03 40.84 8.27
10/26/2022 4:00:00 AM 13.39 56.102 0.221 6.03 88.23 8.27
10/26/2022 4:15:00 AM 13.39 56.102 0.221 6.05 98.91 8.3
10/26/2022 4:30:00 AM 13.39 56.102 0.221 6.03 72.75 8.29
10/26/2022 4:45:00 AM 13.4 56.12 0.222 6.04 101.9 8.28
10/26/2022 5:00:00 AM 13.4 56.12 0.222 6.06 88.54 8.26
10/26/2022 5:15:00 AM 13.41 56.138 0.221 6.04 59.69 8.27
10/26/2022 5:30:00 AM 13.41 56.138 0.221 6.02 52.6 8.27
10/26/2022 5:45:00 AM 13.42 56.156 0.222 6.05 79.64 8.26
10/26/2022 6:00:00 AM 13.42 56.156 0.222 6.05 65.98 8.25
10/26/2022 6:15:00 AM 13.43 56.174 0.222 6.07 89.06 8.23
10/26/2022 6:30:00 AM 13.43 56.174 0.222 6.01 70.27 8.24
10/26/2022 6:45:00 AM 13.44 56.192 0.222 6.01 73.65 8.22
10/26/2022 7:00:00 AM 13.44 56.192 0.222 6.01 70.93 8.22
10/26/2022 7:15:00 AM 13.45 56.21 0.223 6.03 78.46 8.18
10/26/2022 7:30:00 AM 13.46 56.228 0.222 6.01 100.2 8.19
10/26/2022 7:45:00 AM 13.46 56.228 0.223 6.03 104.3 8.19
10/26/2022 8:00:00 AM 13.47 56.246 0.223 6.03 98.87 8.18
10/26/2022 8:15:00 AM 13.47 56.246 0.223 6.05 151.6 8.14
10/26/2022 8:30:00 AM 13.48 56.264 0.223 6.06 134.2 8.18
10/26/2022 8:45:00 AM 13.49 56.282 0.223 6.03 101.6 8.15
10/26/2022 9:00:00 AM 13.49 56.282 0.223 6.03 90.84 8.15
10/26/2022 9:15:00 AM 13.52 56.336 0.224 6.04 99.35 8.19
10/26/2022 9:30:00 AM 13.54 56.372 0.224 6.05 104.6 8.19
10/26/2022 9:45:00 AM 13.56 56.408 0.224 6.04 98.63 8.2
10/26/2022 10:00:00 AM 13.58 56.444 0.224 6.01 99.71 8.23
10/26/2022 10:15:00 AM 13.6 56.48 0.224 6.03 77.78 8.24
10/26/2022 10:30:00 AM 13.63 56.534 0.224 6.02 89.1 8.29
10/26/2022 10:45:00 AM 13.68 56.624 0.224 6.06 85.24 8.3
10/26/2022 11:00:00 AM 13.7 56.66 0.224 6.06 112.1 8.33
10/26/2022 11:15:00 AM 13.76 56.768 0.224 6.09 106.1 8.38
10/26/2022 11:30:00 AM 13.8 56.84 0.225 6.09 114.1 8.43
10/26/2022 11:45:00 AM 13.83 56.894 0.225 6.13 154.7 8.44
10/26/2022 12:00:00 PM 13.9 57.02 0.225 6.13 128.4 8.51
10/26/2022 12:15:00 PM 13.92 57.056 0.225 6.11 87.62 8.53
10/26/2022 12:30:00 PM 13.96 57.128 0.225 6.15 134.2 8.54
10/26/2022 12:45:00 PM 14 57.2 0.225 6.13 118.8 8.62
10/26/2022 1:00:00 PM 14.04 57.272 0.225 6.12 124.4 8.65
10/26/2022 1:15:00 PM 14.05 57.29 0.226 6.15 110.9 8.66
10/26/2022 1:30:00 PM 14.08 57.344 0.226 6.15 120.9 8.67
10/26/2022 1:45:00 PM 14.11 57.398 0.226 6.18 96.74 8.72
10/26/2022 2:00:00 PM 14.12 57.416 0.226 6.19 91.15 8.75
10/26/2022 2:15:00 PM 14.14 57.452 0.226 6.19 111.1 8.73
10/26/2022 2:30:00 PM 14.16 57.488 0.227 6.23 109.3 8.75
10/26/2022 2:45:00 PM 14.19 57.542 0.227 6.18 158.4 8.77
10/26/2022 3:00:00 PM 14.2 57.56 0.227 6.2 84.84 8.77
10/26/2022 3:15:00 PM 14.21 57.578 0.227 6.22 86.47 8.76
10/26/2022 3:30:00 PM 14.22 57.596 0.227 6.18 94.68 8.76
10/26/2022 3:45:00 PM 14.23 57.614 0.227 6.19 109.1 8.77
10/26/2022 4:00:00 PM 14.25 57.65 0.227 6.22 103.5 8.76
10/26/2022 4:15:00 PM 14.27 57.686 0.227 6.25 88.99 8.76
10/26/2022 4:30:00 PM 14.27 57.686 0.227 6.27 81.71 8.73
10/26/2022 4:45:00 PM 14.28 57.704 0.227 6.28 105.5 8.75
10/26/2022 5:00:00 PM 14.28 57.704 0.227 6.25 97.91 8.72
10/26/2022 5:15:00 PM 14.28 57.704 0.227 6.24 89.83 8.7
10/26/2022 5:30:00 PM 14.28 57.704 0.227 6.25 103.3 8.7
10/26/2022 5:45:00 PM 14.28 57.704 0.228 6.28 88.12 8.67
10/26/2022 6:00:00 PM 14.27 57.686 0.228 6.31 93.71 8.66
10/26/2022 6:15:00 PM 14.27 57.686 0.228 6.27 100.5 8.64
10/26/2022 6:30:00 PM 14.27 57.686 0.225 6.23 92.75 8.61
10/26/2022 6:45:00 PM 14.27 57.686 0.228 6.22 95.39 8.59
10/26/2022 7:00:00 PM 14.27 57.686 0.228 6.26 103.5 8.59
10/26/2022 7:15:00 PM 14.27 57.686 0.228 6.23 107.8 8.56
10/26/2022 7:30:00 PM 14.27 57.686 0.228 6.25 103.4 8.54
10/26/2022 7:45:00 PM 14.27 57.686 0.228 6.23 107.2 8.53
10/26/2022 8:00:00 PM 14.27 57.686 0.229 6.21 95.35 8.52
10/26/2022 8:15:00 PM 14.27 57.686 0.229 6.19 94.89 8.5
10/26/2022 8:30:00 PM 14.28 57.704 0.229 6.21 109.2 8.48
10/26/2022 8:45:00 PM 14.27 57.686 0.229 6.18 93.84 8.46
10/26/2022 9:00:00 PM 14.27 57.686 0.229 6.17 106.5 8.45
10/26/2022 9:15:00 PM 14.27 57.686 0.229 6.17 106.4 8.4
10/26/2022 9:30:00 PM 14.26 57.668 0.23 6.16 107.4 8.39
10/26/2022 9:45:00 PM 14.24 57.632 0.23 6.16 109.7 8.37
10/26/2022 10:00:00 PM 14.23 57.614 0.23 5.99 99.2 8.36
10/26/2022 10:15:00 PM 14.22 57.596 0.23 5.97 103.2 8.34
10/26/2022 10:30:00 PM 14.21 57.578 0.23 5.95 106.1 8.33
10/26/2022 10:45:00 PM 14.19 57.542 0.23 5.98 110.7 8.35
10/26/2022 11:00:00 PM 14.17 57.506 0.23 6.02 103.3 8.32
10/26/2022 11:15:00 PM 14.15 57.47 0.229 5.99 107.5 8.35
10/26/2022 11:30:00 PM 14.13 57.434 0.229 5.98 112.3 8.33
10/26/2022 11:45:00 PM 14.1 57.38 0.229 5.99 109.9 8.33
10/27/2022 12:00:00 AM 14.08 57.344 0.229 5.96 112.5 8.33
10/27/2022 12:15:00 AM 14.05 57.29 0.229 5.95 98.94 8.31
10/27/2022 12:30:00 AM 14.03 57.254 0.229 5.95 97.28 8.32
10/27/2022 12:45:00 AM 14.01 57.218 0.228 5.97 93.13 8.31
10/27/2022 1:00:00 AM 13.99 57.182 0.228 5.95 94.84 8.29
10/27/2022 1:15:00 AM 13.97 57.146 0.228 5.94 94.11 8.3
10/27/2022 1:30:00 AM 13.94 57.092 0.228 5.94 102.7 8.29
10/27/2022 1:45:00 AM 13.91 57.038 0.228 5.94 110.3 8.28
10/27/2022 2:00:00 AM 13.89 57.002 0.228 5.93 104.4 8.24
10/27/2022 2:15:00 AM 13.86 56.948 0.227 5.96 93.14 8.26
10/27/2022 2:30:00 AM 13.83 56.894 0.227 5.89 100.4 8.24
10/27/2022 2:45:00 AM 13.8 56.84 0.227 5.9 102 8.22
10/27/2022 3:00:00 AM 13.79 56.822 0.228 5.9 102.7 8.25
10/27/2022 3:15:00 AM 13.78 56.804 0.227 5.9 105.7 8.22
10/27/2022 3:30:00 AM 13.76 56.768 0.228 5.89 105.3 8.21
10/27/2022 3:45:00 AM 13.74 56.732 0.228 5.93 105.5 8.21
10/27/2022 4:00:00 AM 13.71 56.678 0.228 5.9 94.5 8.2
10/27/2022 4:15:00 AM 13.69 56.642 0.228 5.9 91.83 8.2
10/27/2022 4:30:00 AM 13.66 56.588 0.228 5.89 103.5 8.18
10/27/2022 4:45:00 AM 13.64 56.552 0.229 5.9 103.1 8.2
10/27/2022 5:00:00 AM 13.62 56.516 0.229 5.89 119.4 8.17
10/27/2022 5:15:00 AM 13.6 56.48 0.229 5.93 113 8.18
10/27/2022 5:30:00 AM 13.59 56.462 0.229 5.93 110.4 8.16
10/27/2022 5:45:00 AM 13.57 56.426 0.23 5.9 102.9 8.16
10/27/2022 6:00:00 AM 13.56 56.408 0.23 5.89 111.4 8.16
10/27/2022 6:15:00 AM 13.54 56.372 0.23 5.88 121.3 8.13
10/27/2022 6:30:00 AM 13.53 56.354 0.231 5.88 113.8 8.14
10/27/2022 6:45:00 AM 13.52 56.336 0.231 5.89 106.9 8.14
10/27/2022 7:00:00 AM 13.5 56.3 0.231 5.89 124.3 8.15
10/27/2022 7:15:00 AM 13.49 56.282 0.232 5.87 122.1 8.13
10/27/2022 7:30:00 AM 13.47 56.246 0.232 5.87 112.1 8.13
10/27/2022 7:45:00 AM 13.46 56.228 0.232 5.89 111 8.13
10/27/2022 8:00:00 AM 13.44 56.192 0.233 5.89 118.7 8.14
10/27/2022 8:15:00 AM 13.42 56.156 0.233 5.9 112.6 8.14
10/27/2022 8:30:00 AM 13.38 56.084 0.234 5.88 104.6 8.15
10/27/2022 8:45:00 AM 13.36 56.048 0.234 5.9 118.2 8.16
10/27/2022 9:00:00 AM 13.35 56.03 0.234 5.9 123.7 8.16
10/27/2022 9:15:00 AM 13.32 55.976 0.235 5.88 121.1 8.16
10/27/2022 9:30:00 AM 13.3 55.94 0.235 5.87 114.9 8.17
10/27/2022 9:45:00 AM 13.28 55.904 0.235 5.88 126.1 8.19
10/27/2022 10:00:00 AM 13.27 55.886 0.236 5.9 128 8.22
10/27/2022 10:15:00 AM 13.3 55.94 0.236 5.9 127.2 8.26
10/27/2022 10:30:00 AM 13.33 55.994 0.236 5.87 134.7 8.3
10/27/2022 10:45:00 AM 13.38 56.084 0.237 5.87 125.9 8.37
10/27/2022 11:00:00 AM 13.44 56.192 0.237 5.9 131.8 8.41
10/27/2022 11:15:00 AM 13.48 56.264 0.237 5.92 134.2 8.45
10/27/2022 11:30:00 AM 13.55 56.39 0.237 5.95 129.2 8.48
10/27/2022 11:45:00 AM 13.61 56.498 0.238 5.95 135.3 8.52
10/27/2022 12:00:00 PM 13.69 56.642 0.238 5.94 126.6 8.57
10/27/2022 12:15:00 PM 13.76 56.768 0.238 5.95 129 8.6
10/27/2022 12:30:00 PM 13.82 56.876 0.238 5.97 133.4 8.64
10/27/2022 12:45:00 PM 13.89 57.002 0.238 5.99 125.6 8.67
10/27/2022 1:00:00 PM 13.98 57.164 0.239 6.03 135.3 8.7
10/27/2022 1:15:00 PM 14.06 57.308 0.239 6.04 144.2 8.74
10/27/2022 1:30:00 PM 14.11 57.398 0.239 6.03 124.1 8.79
10/27/2022 1:45:00 PM 14.18 57.524 0.239 6.03 140.5 8.82
10/27/2022 2:00:00 PM 14.25 57.65 0.24 6.03 144.5 8.86
10/27/2022 2:15:00 PM 14.31 57.758 0.24 6.08 128.8 8.89
10/27/2022 2:30:00 PM 14.37 57.866 0.24 6.07 128.2 8.94
10/27/2022 2:45:00 PM 14.41 57.938 0.24 6.12 131.6 8.98
10/27/2022 3:00:00 PM 14.44 57.992 0.241 6.13 125.7 9.01
10/27/2022 3:15:00 PM 14.49 58.082 0.241 6.15 120.1 9.03
10/27/2022 3:30:00 PM 14.52 58.136 0.241 6.15 121 9.05
10/27/2022 3:45:00 PM 14.55 58.19 0.241 6.17 117.4 9.06
10/27/2022 4:00:00 PM 14.57 58.226 0.241 6.17 107.9 9.07
10/27/2022 4:15:00 PM 14.58 58.244 0.241 6.19 119.5 9.06
10/27/2022 4:30:00 PM 14.56 58.208 0.241 6.23 122.4 9.05
10/27/2022 4:45:00 PM 14.52 58.136 0.241 6.25 122.8 9.05
10/27/2022 5:00:00 PM 14.47 58.046 0.242 6.26 127.4 9.03
10/27/2022 5:15:00 PM 14.42 57.956 0.241 6.23 126.1 8.99
10/27/2022 5:30:00 PM 14.36 57.848 0.242 6.23 146.9 8.97
10/27/2022 5:45:00 PM 14.29 57.722 0.241 6.24 131.9 8.95
10/27/2022 6:00:00 PM 14.21 57.578 0.242 6.23 129.2 8.9
10/27/2022 6:15:00 PM 14.13 57.434 0.242 6.2 129 8.88
10/27/2022 6:30:00 PM 14.05 57.29 0.242 6.19 133.8 8.84
10/27/2022 6:45:00 PM 13.97 57.146 0.242 6.18 148.4 8.78
10/27/2022 7:00:00 PM 13.89 57.002 0.242 6.16 143.6 8.77
10/27/2022 7:15:00 PM 13.83 56.894 0.242 6.17 145.4 8.74
10/27/2022 7:30:00 PM 13.76 56.768 0.242 6.14 171 8.71
10/27/2022 7:45:00 PM 13.71 56.678 0.242 6.12 164.1 8.68
10/27/2022 8:00:00 PM 13.65 56.57 0.242 6.11 152.9 8.65
10/27/2022 8:15:00 PM 13.6 56.48 0.242 6.1 163 8.64
10/27/2022 8:30:00 PM 13.56 56.408 0.242 6.11 165.1 8.63
10/27/2022 8:45:00 PM 13.51 56.318 0.242 6.07 146.7 8.61
10/27/2022 9:00:00 PM 13.47 56.246 0.242 6.06 132.5 8.6
10/27/2022 9:15:00 PM 13.43 56.174 0.242 6.06 145.7 8.57
10/27/2022 9:30:00 PM 13.39 56.102 0.242 6.04 140.1 8.58
10/27/2022 9:45:00 PM 13.35 56.03 0.242 6.05 146.9 8.57
10/27/2022 10:00:00 PM 13.31 55.958 0.242 6.05 139.9 8.57
10/27/2022 10:15:00 PM 13.28 55.904 0.242 6.05 142.1 8.57
10/27/2022 10:30:00 PM 13.25 55.85 0.242 6.05 143.6 8.59
10/27/2022 10:45:00 PM 13.2 55.76 0.242 6.07 142.5 8.57
10/27/2022 11:00:00 PM 13.16 55.688 0.242 6.06 163.7 8.57
10/27/2022 11:15:00 PM 13.12 55.616 0.242 6.06 146.6 8.58
10/27/2022 11:30:00 PM 13.08 55.544 0.242 6.03 140.8 8.58
10/27/2022 11:45:00 PM 13.03 55.454 0.242 6.04 142.2 8.59
10/28/2022 12:00:00 AM 12.99 55.382 0.242 6.03 138 8.58
10/28/2022 12:15:00 AM 12.94 55.292 0.242 6.02 145.7 8.58
10/28/2022 12:30:00 AM 12.9 55.22 0.242 6.02 151 8.57
10/28/2022 12:45:00 AM 12.85 55.13 0.242 6 152.6 8.56
10/28/2022 1:00:00 AM 12.81 55.058 0.242 6.02 145.3 8.57
10/28/2022 1:15:00 AM 12.75 54.95 0.242 6.03 157.3 8.57
10/28/2022 1:30:00 AM 12.7 54.86 0.242 6.01 156.6 8.54
10/28/2022 1:45:00 AM 12.65 54.77 0.242 6.02 155.8 8.55
10/28/2022 2:00:00 AM 12.6 54.68 0.242 5.98 155.6 8.55
10/28/2022 2:15:00 AM 12.54 54.572 0.241 5.99 158.4 8.55
10/28/2022 2:30:00 AM 12.49 54.482 0.242 5.98 161.7 8.56
10/28/2022 2:45:00 AM 12.44 54.392 0.241 5.98 160.7 8.54
10/28/2022 3:00:00 AM 12.39 54.302 0.241 5.95 159.1 8.53
10/28/2022 3:15:00 AM 12.34 54.212 0.241 5.96 162.8 8.53
10/28/2022 3:30:00 AM 12.3 54.14 0.241 5.97 156.4 8.53
10/28/2022 3:45:00 AM 12.25 54.05 0.241 5.95 161.5 8.52
10/28/2022 4:00:00 AM 12.21 53.978 0.241 5.93 170 8.52
10/28/2022 4:15:00 AM 12.16 53.888 0.241 5.96 170.2 8.52
10/28/2022 4:30:00 AM 12.11 53.798 0.241 5.96 155.8 8.5
10/28/2022 4:45:00 AM 12.06 53.708 0.241 5.93 160.7 8.52
10/28/2022 5:00:00 AM 12.02 53.636 0.241 5.93 156 8.5
10/28/2022 5:15:00 AM 11.98 53.564 0.241 5.94 143.5 8.5
10/28/2022 5:30:00 AM 11.95 53.51 0.24 5.93 138.3 8.51
10/28/2022 5:45:00 AM 11.9 53.42 0.24 5.92 154.6 8.51
10/28/2022 6:00:00 AM 11.86 53.348 0.24 5.92 152.1 8.52
10/28/2022 6:15:00 AM 11.82 53.276 0.24 5.92 153.7 8.52
10/28/2022 6:30:00 AM 11.77 53.186 0.239 5.89 166.5 8.52
10/28/2022 6:45:00 AM 11.72 53.096 0.24 5.88 151 8.52
10/28/2022 7:00:00 AM 11.68 53.024 0.24 5.87 144.7 8.52
10/28/2022 7:15:00 AM 11.63 52.934 0.24 5.89 135.6 8.52
10/28/2022 7:30:00 AM 11.57 52.826 0.239 5.89 144.1 8.53
10/28/2022 7:45:00 AM 11.53 52.754 0.239 5.88 154.9 8.52
10/28/2022 8:00:00 AM 11.49 52.682 0.239 5.87 150.2 8.55
10/28/2022 8:15:00 AM 11.44 52.592 0.239 5.86 136.8 8.57
10/28/2022 8:30:00 AM 11.41 52.538 0.239 5.87 144 8.57
10/28/2022 8:45:00 AM 11.38 52.484 0.239 5.86 140.3 8.6
10/28/2022 9:00:00 AM 11.36 52.448 0.239 5.85 156.6 8.63
10/28/2022 9:15:00 AM 11.35 52.43 0.239 5.85 158.5 8.67
10/28/2022 9:30:00 AM 11.34 52.412 0.239 5.86 154.5 8.72
10/28/2022 9:45:00 AM 11.33 52.394 0.239 5.84 154.7 8.76
10/28/2022 10:00:00 AM 11.34 52.412 0.238 5.82 166 8.8
10/28/2022 10:15:00 AM 11.38 52.484 0.238 5.81 170.6 8.87
10/28/2022 10:30:00 AM 11.42 52.556 0.238 5.83 158.6 8.97
10/28/2022 10:45:00 AM 11.46 52.628 0.238 5.81 163.7 9.04
10/28/2022 11:00:00 AM 11.51 52.718 0.238 5.8 170.7 9.12
10/28/2022 11:15:00 AM 11.55 52.79 0.238 5.84 160.8 9.18
10/28/2022 11:30:00 AM 11.61 52.898 0.238 5.85 163.2 9.24
10/28/2022 11:45:00 AM 11.65 52.97 0.238 5.88 160.5 9.32
10/28/2022 12:00:00 PM 11.71 53.078 0.238 5.88 159.1 9.41
10/28/2022 12:15:00 PM 11.77 53.186 0.238 5.89 184.2 9.47
10/28/2022 12:30:00 PM 11.79 53.222 0.238 5.9 156.7 9.53
10/28/2022 12:45:00 PM 11.8 53.24 0.239 5.91 160.6 9.58
10/28/2022 1:00:00 PM 11.84 53.312 0.239 5.94 166.4 9.68
10/28/2022 1:15:00 PM 11.91 53.438 0.239 5.96 162.7 9.76
10/28/2022 1:30:00 PM 12.09 53.762 0.239 5.94 163.2 9.83
10/28/2022 1:45:00 PM 12.21 53.978 0.239 5.94 175.4 9.9
10/28/2022 2:00:00 PM 12.27 54.086 0.239 5.98 161.8 9.95
10/28/2022 2:15:00 PM 12.32 54.176 0.238 6.03 175.7 9.98
10/28/2022 2:30:00 PM 12.35 54.23 0.239 6.05 158.5 10.04
10/28/2022 2:45:00 PM 12.38 54.284 0.239 6.06 164.9 10.08
10/28/2022 3:00:00 PM 12.35 54.23 0.239 6.08 163.2 10.11
10/28/2022 3:15:00 PM 12.39 54.302 0.239 6.11 161.9 10.15
10/28/2022 3:30:00 PM 12.41 54.338 0.239 6.08 184.1 10.17
10/28/2022 3:45:00 PM 12.42 54.356 0.239 6.11 178.3 10.15
10/28/2022 4:00:00 PM 12.42 54.356 0.239 6.11 175.7 10.19
10/28/2022 4:15:00 PM 12.42 54.356 0.239 6.12 180.8 10.19
10/28/2022 4:30:00 PM 12.42 54.356 0.239 6.13 162.7 10.19
10/28/2022 4:45:00 PM 12.41 54.338 0.239 6.15 175.5 10.17
10/28/2022 5:00:00 PM 12.39 54.302 0.239 6.14 224.7 10.16
10/28/2022 5:15:00 PM 12.37 54.266 0.239 6.12 170.5 10.14
10/28/2022 5:30:00 PM 12.33 54.194 0.239 6.14 170.9 10.11
10/28/2022 5:45:00 PM 12.29 54.122 0.239 6.11 183.6 10.07
10/28/2022 6:00:00 PM 12.24 54.032 0.24 6.13 201.9 10.02
10/28/2022 6:15:00 PM 12.16 53.888 0.24 6.13 211.3 9.99
10/28/2022 6:30:00 PM 12.1 53.78 0.24 6.11 192.2 9.91
10/28/2022 6:45:00 PM 12.03 53.654 0.24 6.15 192.8 9.86
10/28/2022 7:00:00 PM 11.96 53.528 0.24 6.09 179.3 9.84
10/28/2022 7:15:00 PM 11.89 53.402 0.24 6.07 176.4 9.78
10/28/2022 7:30:00 PM 11.82 53.276 0.24 6.08 183.9 9.74
10/28/2022 7:45:00 PM 11.76 53.168 0.24 6.05 192.7 9.71
10/28/2022 8:00:00 PM 11.7 53.06 0.24 6.03 199.6 9.67
10/28/2022 8:15:00 PM 11.65 52.97 0.24 6.03 191.1 9.64
10/28/2022 8:30:00 PM 11.59 52.862 0.24 6 179.9 9.61
10/28/2022 8:45:00 PM 11.55 52.79 0.24 6.02 177.7 9.58
10/28/2022 9:00:00 PM 11.5 52.7 0.24 5.98 177.4 9.57
10/28/2022 9:15:00 PM 11.45 52.61 0.24 5.98 177.5 9.53
10/28/2022 9:30:00 PM 11.41 52.538 0.24 5.98 195.3 9.54
10/28/2022 9:45:00 PM 11.37 52.466 0.24 5.96 174.4 9.53
10/28/2022 10:00:00 PM 11.32 52.376 0.24 5.95 193.9 9.51
10/28/2022 10:15:00 PM 11.29 52.322 0.24 5.94 156.5 9.51
10/28/2022 10:30:00 PM 11.24 52.232 0.24 5.92 178.2 9.52
10/28/2022 10:45:00 PM 11.2 52.16 0.24 5.94 184.4 9.51
10/28/2022 11:00:00 PM 11.16 52.088 0.24 5.94 181.7 9.52
10/28/2022 11:15:00 PM 11.11 51.998 0.24 5.93 180.4 9.5
10/28/2022 11:30:00 PM 11.08 51.944 0.24 5.92 181.8 9.53
10/28/2022 11:45:00 PM 11.03 51.854 0.24 5.94 177.4 9.53
10/29/2022 12:00:00 AM 10.99 51.782 0.24 5.94 182.7 9.53
10/29/2022 12:15:00 AM 10.95 51.71 0.24 5.91 191.2 9.56
10/29/2022 12:30:00 AM 10.9 51.62 0.24 5.92 187.4 9.55
10/29/2022 12:45:00 AM 10.86 51.548 0.24 5.91 129.6 9.56
10/29/2022 1:00:00 AM 10.81 51.458 0.239 5.92 186.8 9.56
10/29/2022 1:15:00 AM 10.76 51.368 0.239 5.89 193.8 9.55
10/29/2022 1:30:00 AM 10.72 51.296 0.239 5.95 165 9.57
10/29/2022 1:45:00 AM 10.66 51.188 0.239 5.88 156.6 9.58
10/29/2022 2:00:00 AM 10.62 51.116 0.239 5.88 156.8 9.58
10/29/2022 2:15:00 AM 10.56 51.008 0.239 5.87 165.4 9.57
10/29/2022 2:30:00 AM 10.51 50.918 0.239 5.9 159.2 9.54
10/29/2022 2:45:00 AM 10.46 50.828 0.239 5.87 168.5 9.55
10/29/2022 3:00:00 AM 10.42 50.756 0.239 5.89 162.5 9.57
10/29/2022 3:15:00 AM 10.36 50.648 0.239 5.89 172.4 9.57
10/29/2022 3:30:00 AM 10.31 50.558 0.239 5.88 153.8 9.55
10/29/2022 3:45:00 AM 10.27 50.486 0.239 5.86 164.1 9.55
10/29/2022 4:00:00 AM 10.21 50.378 0.239 5.89 171.9 9.55
10/29/2022 4:15:00 AM 10.17 50.306 0.239 5.86 161.9 9.54
10/29/2022 4:30:00 AM 10.12 50.216 0.239 5.91 174.3 9.54
10/29/2022 4:45:00 AM 10.06 50.108 0.239 5.87 159.5 9.54
10/29/2022 5:00:00 AM 10.01 50.018 0.238 5.84 159.4 9.54
10/29/2022 5:15:00 AM 9.97 49.946 0.239 5.84 158.9 9.52
10/29/2022 5:30:00 AM 9.92 49.856 0.238 5.84 182 9.52
10/29/2022 5:45:00 AM 9.87 49.766 0.238 5.87 180.5 9.48
10/29/2022 6:00:00 AM 9.82 49.676 0.238 5.83 196.9 9.47
10/29/2022 6:15:00 AM 9.77 49.586 0.238 5.82 170.5 9.53
10/29/2022 6:30:00 AM 9.73 49.514 0.238 5.85 165.6 9.52
10/29/2022 6:45:00 AM 9.67 49.406 0.238 5.8 173.5 9.52
10/29/2022 7:00:00 AM 9.62 49.316 0.238 5.82 176.1 9.51
10/29/2022 7:15:00 AM 9.58 49.244 0.238 5.84 162.8 9.5
10/29/2022 7:30:00 AM 9.54 49.172 0.238 5.79 175 9.49
10/29/2022 7:45:00 AM 9.48 49.064 0.237 5.81 90.12 9.49
10/29/2022 8:00:00 AM 9.45 49.01 0.237 5.81 186.4 9.52
10/29/2022 8:15:00 AM 9.4 48.92 0.237 5.82 175.3 9.52
10/29/2022 8:30:00 AM 9.37 48.866 0.236 5.79 172.2 9.55
10/29/2022 8:45:00 AM 9.33 48.794 0.236 5.76 178.2 9.56
10/29/2022 9:00:00 AM 9.3 48.74 0.236 5.78 182.2 9.59
10/29/2022 9:15:00 AM 9.28 48.704 0.236 5.76 193.1 9.63
10/29/2022 9:30:00 AM 9.27 48.686 0.237 5.75 192.8 9.65
10/29/2022 9:45:00 AM 9.27 48.686 0.237 5.74 184.9 9.67
10/29/2022 10:00:00 AM 9.28 48.704 0.237 5.73 180.7 9.73
10/29/2022 10:15:00 AM 9.34 48.812 0.237 5.73 187.6 9.76
10/29/2022 10:30:00 AM 9.43 48.974 0.237 5.73 181.4 9.83
10/29/2022 10:45:00 AM 9.54 49.172 0.237 5.72 192.4 9.92
10/29/2022 11:00:00 AM 9.65 49.37 0.237 5.7 193.1 10
10/29/2022 11:15:00 AM 9.77 49.586 0.237 5.68 196 10.05
10/29/2022 11:30:00 AM 9.94 49.892 0.236 5.7 202.1 10.12
10/29/2022 11:45:00 AM 10.07 50.126 0.236 5.71 201.2 10.19
10/29/2022 12:00:00 PM 10.14 50.252 0.237 5.76 199.8 10.25
10/29/2022 12:15:00 PM 10.28 50.504 0.237 5.82 190.1 10.31
10/29/2022 12:30:00 PM 10.41 50.738 0.237 5.78 191 10.38
10/29/2022 12:45:00 PM 10.48 50.864 0.237 5.79 180.7 10.42
10/29/2022 1:00:00 PM 10.6 51.08 0.237 5.79 183.8 10.47
10/29/2022 1:15:00 PM 10.72 51.296 0.236 5.8 180.9 10.53
10/29/2022 1:30:00 PM 10.8 51.44 0.236 5.84 180.8 10.55
10/29/2022 1:45:00 PM 10.84 51.512 0.236 5.85 179.3 10.56
10/29/2022 2:00:00 PM 10.87 51.566 0.237 5.88 169.8 10.59
10/29/2022 2:15:00 PM 10.99 51.782 0.236 5.86 171.1 10.63
10/29/2022 2:30:00 PM 11.08 51.944 0.236 5.86 178.3 10.68
10/29/2022 2:45:00 PM 11.11 51.998 0.236 5.88 166.1 10.72
10/29/2022 3:00:00 PM 11.15 52.07 0.236 5.92 184.7 10.78
10/29/2022 3:15:00 PM 11.13 52.034 0.237 5.9 166.1 10.81
10/29/2022 3:30:00 PM 11.17 52.106 0.237 5.96 182.7 10.82
10/29/2022 3:45:00 PM 11.19 52.142 0.237 5.96 182.9 10.83
10/29/2022 4:00:00 PM 11.2 52.16 0.237 5.93 169.3 10.83
10/29/2022 4:15:00 PM 11.21 52.178 0.237 5.94 180 10.8
10/29/2022 4:30:00 PM 11.22 52.196 0.237 5.99 180.4 10.76
10/29/2022 4:45:00 PM 11.23 52.214 0.237 6 191.8 10.75
10/29/2022 5:00:00 PM 11.22 52.196 0.237 6.03 196.5 10.74
10/29/2022 5:15:00 PM 11.21 52.178 0.237 6.03 192.7 10.69
10/29/2022 5:30:00 PM 11.18 52.124 0.237 6 176.1 10.66
10/29/2022 5:45:00 PM 11.14 52.052 0.238 6.03 170.6 10.61
10/29/2022 6:00:00 PM 11.08 51.944 0.238 6.02 189.4 10.58
10/29/2022 6:15:00 PM 11.02 51.836 0.238 6.05 177.7 10.53
10/29/2022 6:30:00 PM 10.94 51.692 0.238 6.04 180.3 10.49
10/29/2022 6:45:00 PM 10.85 51.53 0.238 6.05 174.1 10.43
10/29/2022 7:00:00 PM 10.75 51.35 0.238 6.04 170.5 10.39
10/29/2022 7:15:00 PM 10.67 51.206 0.238 6.01 169 10.33
10/29/2022 7:30:00 PM 10.58 51.044 0.239 5.99 170.1 10.3
10/29/2022 7:45:00 PM 10.49 50.882 0.238 6.02 176.2 10.27
10/29/2022 8:00:00 PM 10.41 50.738 0.239 5.98 171 10.21
10/29/2022 8:15:00 PM 10.32 50.576 0.239 5.94 186.3 10.18
10/29/2022 8:30:00 PM 10.23 50.414 0.239 5.96 193.7 10.14
10/29/2022 8:45:00 PM 10.17 50.306 0.239 5.96 195.6 10.13
10/29/2022 9:00:00 PM 10.09 50.162 0.24 5.92 186.1 10.09
10/29/2022 9:15:00 PM 10.03 50.054 0.239 5.9 188.7 10.06
10/29/2022 9:30:00 PM 9.98 49.964 0.239 5.89 177.1 10.05
10/29/2022 9:45:00 PM 9.92 49.856 0.239 5.89 181.4 10.02
10/29/2022 10:00:00 PM 9.87 49.766 0.239 5.88 183.9 9.99
10/29/2022 10:15:00 PM 9.83 49.694 0.24 5.86 194.9 9.98
10/29/2022 10:30:00 PM 9.78 49.604 0.24 5.87 197.2 9.97
10/29/2022 10:45:00 PM 9.73 49.514 0.24 5.88 167.1 9.96
10/29/2022 11:00:00 PM 9.69 49.442 0.24 5.89 177.6 9.97
10/29/2022 11:15:00 PM 9.65 49.37 0.24 5.85 186.2 9.96
10/29/2022 11:30:00 PM 9.61 49.298 0.24 5.89 200 9.94
10/29/2022 11:45:00 PM 9.57 49.226 0.24 5.91 196.7 9.94
10/30/2022 12:00:00 AM 9.55 49.19 0.24 5.91 201.1 9.94
10/30/2022 12:15:00 AM 9.51 49.118 0.241 5.91 205.6 9.94
10/30/2022 12:30:00 AM 9.46 49.028 0.241 5.89 205.9 9.95
10/30/2022 12:45:00 AM 9.42 48.956 0.241 5.9 205.2 9.95
10/30/2022 1:00:00 AM 9.38 48.884 0.241 5.89 203.2 9.96
10/30/2022 1:15:00 AM 9.34 48.812 0.241 5.91 203 9.94
10/30/2022 1:30:00 AM 9.29 48.722 0.241 5.89 210.1 9.95
10/30/2022 1:45:00 AM 9.25 48.65 0.242 5.91 217.7 9.96
10/30/2022 2:00:00 AM 9.21 48.578 0.242 5.93 220.6 9.94
10/30/2022 2:15:00 AM 9.16 48.488 0.242 5.88 230.2 9.95
10/30/2022 2:30:00 AM 9.11 48.398 0.242 5.88 221.8 9.94
10/30/2022 2:45:00 AM 9.06 48.308 0.242 5.89 224.3 9.93
10/30/2022 3:00:00 AM 9.03 48.254 0.242 5.89 227.2 9.93
10/30/2022 3:15:00 AM 8.97 48.146 0.242 5.88 208.5 9.94
10/30/2022 3:30:00 AM 8.93 48.074 0.243 5.88 229.5 9.95
10/30/2022 3:45:00 AM 8.88 47.984 0.243 5.9 228.6 9.93
10/30/2022 4:00:00 AM 8.83 47.894 0.243 5.91 222.2 9.93
10/30/2022 4:15:00 AM 8.77 47.786 0.243 5.91 219.5 9.93
10/30/2022 4:30:00 AM 8.72 47.696 0.243 5.91 182.5 9.92
10/30/2022 4:45:00 AM 8.68 47.624 0.243 5.9 216.9 9.93
10/30/2022 5:00:00 AM 8.63 47.534 0.244 5.91 217.1 9.92
10/30/2022 5:15:00 AM 8.58 47.444 0.244 5.92 208.8 9.94
10/30/2022 5:30:00 AM 8.52 47.336 0.244 5.9 228.7 9.92
10/30/2022 5:45:00 AM 8.47 47.246 0.244 5.87 230.4 9.92
10/30/2022 6:00:00 AM 8.43 47.174 0.244 5.87 220 9.93
10/30/2022 6:15:00 AM 8.38 47.084 0.245 5.86 234.6 9.93
10/30/2022 6:30:00 AM 8.35 47.03 0.245 5.85 229.8 9.94
10/30/2022 6:45:00 AM 8.31 46.958 0.245 5.83 230.5 9.91
10/30/2022 7:00:00 AM 8.27 46.886 0.246 5.82 229.4 9.94
10/30/2022 7:15:00 AM 8.24 46.832 0.246 5.85 239.9 9.93
10/30/2022 7:30:00 AM 8.22 46.796 0.246 5.82 226.2 9.88
10/30/2022 7:45:00 AM 8.2 46.76 0.246 5.8 230.4 9.86
10/30/2022 8:00:00 AM 8.18 46.724 0.246 5.81 216.1 9.85
10/30/2022 8:15:00 AM 8.17 46.706 0.247 5.82 224 9.88
10/30/2022 8:30:00 AM 8.16 46.688 0.247 5.79 224.3 9.92
10/30/2022 8:45:00 AM 8.16 46.688 0.247 5.77 217.2 9.93
10/30/2022 9:00:00 AM 8.16 46.688 0.247 5.78 226.8 10
10/30/2022 9:15:00 AM 8.17 46.706 0.247 5.79 219.4 10.07
10/30/2022 9:30:00 AM 8.19 46.742 0.248 5.78 219.2 10.12
10/30/2022 9:45:00 AM 8.22 46.796 0.248 5.77 222.4 10.18
10/30/2022 10:00:00 AM 8.25 46.85 0.248 5.74 223.5 10.25
10/30/2022 10:15:00 AM 8.3 46.94 0.248 5.72 226.2 10.32
10/30/2022 10:30:00 AM 8.34 47.012 0.248 5.7 226.3 10.37
10/30/2022 10:45:00 AM 8.41 47.138 0.249 5.7 175.6 10.43
10/30/2022 11:00:00 AM 8.49 47.282 0.249 5.67 220.5 10.53
10/30/2022 11:15:00 AM 8.54 47.372 0.249 5.66 227.5 10.62
10/30/2022 11:30:00 AM 8.58 47.444 0.249 5.67 208.6 10.66
10/30/2022 11:45:00 AM 8.66 47.588 0.249 5.66 228.8 10.75
10/30/2022 12:00:00 PM 8.72 47.696 0.25 5.64 244.5 10.85
10/30/2022 12:15:00 PM 8.79 47.822 0.25 5.64 238.4 10.93
10/30/2022 12:30:00 PM 8.88 47.984 0.25 5.65 225.1 11.01
10/30/2022 12:45:00 PM 8.98 48.164 0.25 5.65 224 11.09
10/30/2022 1:00:00 PM 9.05 48.29 0.25 5.65 223.7 11.15
10/30/2022 1:15:00 PM 9.11 48.398 0.25 5.7 223.5 11.23
10/30/2022 1:30:00 PM 9.19 48.542 0.25 5.7 238.2 11.27
10/30/2022 1:45:00 PM 9.27 48.686 0.25 5.67 235 11.31
10/30/2022 2:00:00 PM 9.37 48.866 0.251 5.75 222.4 11.36
10/30/2022 2:15:00 PM 9.49 49.082 0.251 5.68 233.7 11.42
10/30/2022 2:30:00 PM 9.65 49.37 0.251 5.65 235.1 11.46
10/30/2022 2:45:00 PM 9.74 49.532 0.251 5.66 243.7 11.49
10/30/2022 3:00:00 PM 9.84 49.712 0.251 5.64 222.4 11.51
10/30/2022 3:15:00 PM 9.83 49.694 0.251 5.69 237.4 11.56
10/30/2022 3:30:00 PM 9.84 49.712 0.251 5.72 215 11.58
10/30/2022 3:45:00 PM 9.87 49.766 0.251 5.72 223.3 11.55
10/30/2022 4:00:00 PM 9.87 49.766 0.251 5.73 228.7 11.54
10/30/2022 4:15:00 PM 9.86 49.748 0.251 5.71 236.8 11.52
10/30/2022 4:30:00 PM 9.87 49.766 0.251 5.73 242.5 11.51
10/30/2022 4:45:00 PM 9.87 49.766 0.251 5.73 231.4 11.51
10/30/2022 5:00:00 PM 9.86 49.748 0.251 5.73 230.8 11.44
10/30/2022 5:15:00 PM 9.86 49.748 0.251 5.72 212.8 11.4
10/30/2022 5:30:00 PM 9.86 49.748 0.251 5.72 222.1 11.35
10/30/2022 5:45:00 PM 9.85 49.73 0.251 5.74 239.5 11.27
10/30/2022 6:00:00 PM 9.83 49.694 0.251 5.75 237.9 11.2
10/30/2022 6:15:00 PM 9.81 49.658 0.252 5.77 227.8 11.17
10/30/2022 6:30:00 PM 9.78 49.604 0.252 5.78 229 11.13
10/30/2022 6:45:00 PM 9.75 49.55 0.252 5.8 209.2 11.1
10/30/2022 7:00:00 PM 9.7 49.46 0.252 5.79 225.8 11.03
10/30/2022 7:15:00 PM 9.66 49.388 0.252 5.83 220.4 10.98
10/30/2022 7:30:00 PM 9.61 49.298 0.252 5.87 221.5 10.92
10/30/2022 7:45:00 PM 9.57 49.226 0.252 5.84 231 10.88
10/30/2022 8:00:00 PM 9.53 49.154 0.252 5.84 218 10.8
10/30/2022 8:15:00 PM 9.48 49.064 0.252 5.83 229.7 10.74
10/30/2022 8:30:00 PM 9.44 48.992 0.252 5.84 228.9 10.67
10/30/2022 8:45:00 PM 9.41 48.938 0.253 5.86 230.9 10.64
10/30/2022 9:00:00 PM 9.37 48.866 0.253 5.8 213.4 10.6
10/30/2022 9:15:00 PM 9.32 48.776 0.253 5.81 223.5 10.56
10/30/2022 9:30:00 PM 9.29 48.722 0.253 5.87 212.3 10.53
10/30/2022 9:45:00 PM 9.25 48.65 0.253 5.84 213.6 10.5
10/30/2022 10:00:00 PM 9.21 48.578 0.253 5.85 207.9 10.46
10/30/2022 10:15:00 PM 9.18 48.524 0.253 5.85 206.7 10.42
10/30/2022 10:30:00 PM 9.14 48.452 0.253 5.85 230.8 10.4
10/30/2022 10:45:00 PM 9.11 48.398 0.253 5.84 214.9 10.38
10/30/2022 11:00:00 PM 9.08 48.344 0.253 5.84 227.2 10.36
10/30/2022 11:15:00 PM 9.05 48.29 0.253 5.82 229.6 10.32
10/30/2022 11:30:00 PM 9.02 48.236 0.253 5.81 237.6 10.33
10/30/2022 11:45:00 PM 8.99 48.182 0.253 5.85 222.5 10.34
10/31/2022 12:00:00 AM 8.96 48.128 0.253 5.82 222.9 10.32
10/31/2022 12:15:00 AM 8.93 48.074 0.253 5.82 274.4 10.31
10/31/2022 12:30:00 AM 8.91 48.038 0.253 5.81 240.4 10.28
10/31/2022 12:45:00 AM 8.88 47.984 0.253 5.82 229.5 10.28
10/31/2022 1:00:00 AM 8.86 47.948 0.253 5.85 234.9 10.28
10/31/2022 1:15:00 AM 8.83 47.894 0.253 5.85 221.4 10.28
10/31/2022 1:30:00 AM 8.81 47.858 0.253 5.87 226.7 10.25
10/31/2022 1:45:00 AM 8.8 47.84 0.253 5.89 223.6 10.24
10/31/2022 2:00:00 AM 8.78 47.804 0.253 5.86 220.4 10.26
10/31/2022 2:15:00 AM 8.76 47.768 0.253 5.89 239.4 10.23
10/31/2022 2:30:00 AM 8.75 47.75 0.253 5.89 241.5 10.27
10/31/2022 2:45:00 AM 8.73 47.714 0.253 5.88 247.5 10.23
10/31/2022 3:00:00 AM 8.71 47.678 0.253 5.86 250.8 10.22
10/31/2022 3:15:00 AM 8.71 47.678 0.253 5.83 253.5 10.23
10/31/2022 3:30:00 AM 8.71 47.678 0.253 5.83 249.2 10.19
10/31/2022 3:45:00 AM 8.7 47.66 0.252 5.86 244.6 10.21
10/31/2022 4:00:00 AM 8.7 47.66 0.252 5.82 239.5 10.21
10/31/2022 4:15:00 AM 8.69 47.642 0.252 5.81 248.6 10.18
10/31/2022 4:30:00 AM 8.69 47.642 0.252 5.81 242.7 10.2
10/31/2022 4:45:00 AM 8.68 47.624 0.252 5.78 209.7 10.17
10/31/2022 5:00:00 AM 8.68 47.624 0.252 5.8 231 10.15
10/31/2022 5:15:00 AM 8.66 47.588 0.252 5.78 233.9 10.12
10/31/2022 5:30:00 AM 8.64 47.552 0.252 5.75 234.2 10.13
10/31/2022 5:45:00 AM 8.62 47.516 0.252 5.75 223.2 10.12
10/31/2022 6:00:00 AM 8.61 47.498 0.251 5.73 229.8 10.1
10/31/2022 6:15:00 AM 8.6 47.48 0.251 5.75 239.3 10.08
10/31/2022 6:30:00 AM 8.59 47.462 0.251 5.71 212.8 10.09
10/31/2022 6:45:00 AM 8.57 47.426 0.251 5.73 238.7 10.08
10/31/2022 7:00:00 AM 8.55 47.39 0.251 5.72 227.9 10.06
10/31/2022 7:15:00 AM 8.53 47.354 0.251 5.75 219.4 10.04
10/31/2022 7:30:00 AM 8.52 47.336 0.251 5.71 222.5 9.99
10/31/2022 7:45:00 AM 8.51 47.318 0.251 5.74 231.4 9.95
10/31/2022 8:00:00 AM 8.49 47.282 0.251 5.74 234.9 9.98
10/31/2022 8:15:00 AM 8.5 47.3 0.251 5.75 236.5 10.01
10/31/2022 8:30:00 AM 8.51 47.318 0.251 5.74 223.3 10.02
10/31/2022 8:45:00 AM 8.53 47.354 0.251 5.73 231.1 10.04
10/31/2022 9:00:00 AM 8.56 47.408 0.251 5.74 217 10.1
10/31/2022 9:15:00 AM 8.58 47.444 0.251 5.73 202.9 10.14
10/31/2022 9:30:00 AM 8.61 47.498 0.251 5.74 202.5 10.17
10/31/2022 9:45:00 AM 8.64 47.552 0.251 5.7 199.7 10.2
10/31/2022 10:00:00 AM 8.69 47.642 0.251 5.7 213.9 10.28
10/31/2022 10:15:00 AM 8.73 47.714 0.251 5.67 196.6 10.33
10/31/2022 10:30:00 AM 8.77 47.786 0.25 5.66 196.3 10.39
10/31/2022 10:45:00 AM 8.83 47.894 0.25 5.67 207.8 10.46
10/31/2022 11:00:00 AM 8.89 48.002 0.25 5.64 215.5 10.53
10/31/2022 11:15:00 AM 8.97 48.146 0.25 5.63 207.9 10.59
10/31/2022 11:30:00 AM 9.03 48.254 0.25 5.63 213.6 10.64
10/31/2022 11:45:00 AM 9.11 48.398 0.249 5.66 223.7 10.74
10/31/2022 12:00:00 PM 9.18 48.524 0.249 5.62 223.4 10.82
10/31/2022 12:15:00 PM 9.26 48.668 0.249 5.63 216 10.88
10/31/2022 12:30:00 PM 9.29 48.722 0.249 5.63 217.6 10.92
10/31/2022 12:45:00 PM 9.31 48.758 0.249 5.66 215.1 10.93
10/31/2022 1:00:00 PM 9.34 48.812 0.249 5.66 226.9 10.97
10/31/2022 1:15:00 PM 9.39 48.902 0.249 5.65 226.1 11
10/31/2022 1:30:00 PM 9.46 49.028 0.248 5.61 229.3 11.1
10/31/2022 1:45:00 PM 9.51 49.118 0.248 5.65 214.7 11.17
10/31/2022 2:00:00 PM 9.59 49.262 0.248 5.63 242.1 11.23
10/31/2022 2:15:00 PM 9.65 49.37 0.248 5.61 239.1 11.27
10/31/2022 2:30:00 PM 9.7 49.46 0.248 5.65 221.1 11.25
10/31/2022 2:45:00 PM 9.76 49.568 0.248 5.7 195.2 11.33
10/31/2022 3:00:00 PM 9.83 49.694 0.248 5.69 211.5 11.4
10/31/2022 3:15:00 PM 9.88 49.784 0.248 5.68 221.2 11.42
10/31/2022 3:30:00 PM 9.92 49.856 0.248 5.77 229.4 11.43
10/31/2022 3:45:00 PM 9.96 49.928 0.248 5.76 237.2 11.41
10/31/2022 4:00:00 PM 10 50 0.248 5.73 226.3 11.45
10/31/2022 4:15:00 PM 10.03 50.054 0.248 5.74 237.3 11.47
10/31/2022 4:30:00 PM 10.05 50.09 0.248 5.76 247.2 11.4
10/31/2022 4:45:00 PM 10.05 50.09 0.248 5.75 251.6 11.33
10/31/2022 5:00:00 PM 10.06 50.108 0.248 5.8 240.6 11.26
10/31/2022 5:15:00 PM 10.06 50.108 0.248 5.8 241.3 11.19
10/31/2022 5:30:00 PM 10.07 50.126 0.248 5.82 218.1 11.13
10/31/2022 5:45:00 PM 10.07 50.126 0.248 5.83 210.5 11.07
10/31/2022 6:00:00 PM 10.07 50.126 0.248 5.8 191.6 11.03
10/31/2022 6:15:00 PM 10.07 50.126 0.248 5.81 181.6 10.96
10/31/2022 6:30:00 PM 10.07 50.126 0.248 5.83 204.9 10.94
10/31/2022 6:45:00 PM 10.06 50.108 0.248 5.81 211 10.87
10/31/2022 7:00:00 PM 10.06 50.108 0.248 5.87 208.5 10.81
10/31/2022 7:15:00 PM 10.06 50.108 0.248 5.87 211.3 10.75
10/31/2022 7:30:00 PM 10.06 50.108 0.248 5.83 207 10.69
10/31/2022 7:45:00 PM 10.05 50.09 0.248 5.83 214.3 10.61
10/31/2022 8:00:00 PM 10.05 50.09 0.249 5.85 217.5 10.53
10/31/2022 8:15:00 PM 10.05 50.09 0.248 5.82 222.5 10.49
10/31/2022 8:30:00 PM 10.04 50.072 0.248 5.81 213.1 10.43
10/31/2022 8:45:00 PM 10.04 50.072 0.248 5.79 227.3 10.37
10/31/2022 9:00:00 PM 10.03 50.054 0.248 5.78 225.8 10.31
10/31/2022 9:15:00 PM 10.02 50.036 0.248 5.77 208.7 10.22
10/31/2022 9:30:00 PM 10.03 50.054 0.248 5.79 208.1 10.19
10/31/2022 9:45:00 PM 10.02 50.036 0.248 5.77 229.2 10.16
10/31/2022 10:00:00 PM 10.03 50.054 0.249 5.8 239.8 10.11
10/31/2022 10:15:00 PM 10.03 50.054 0.249 5.76 218.8 10.05
10/31/2022 10:30:00 PM 10.03 50.054 0.249 5.77 186.5 10.04
10/31/2022 10:45:00 PM 10.03 50.054 0.249 5.79 207 10.01
10/31/2022 11:00:00 PM 10.04 50.072 0.249 5.74 226 9.97
10/31/2022 11:15:00 PM 10.04 50.072 0.249 5.74 238.3 9.95
10/31/2022 11:30:00 PM 10.05 50.09 0.249 5.73 233.3 9.94
10/31/2022 11:45:00 PM 10.06 50.108 0.249 5.75 214.3 9.93
11/1/2022 12:00:00 AM 10.07 50.126 0.248 5.73 218.4 9.89
11/1/2022 12:15:00 AM 10.08 50.144 0.248 5.73 220.9 9.9
11/1/2022 12:30:00 AM 10.1 50.18 0.248 5.73 234 9.88
11/1/2022 12:45:00 AM 10.11 50.198 0.247 5.72 191.3 9.84
11/1/2022 1:00:00 AM 10.12 50.216 0.247 5.75 213.8 9.85
11/1/2022 1:15:00 AM 10.13 50.234 0.247 5.73 192 9.82
11/1/2022 1:30:00 AM 10.14 50.252 0.247 5.72 192.4 9.8
11/1/2022 1:45:00 AM 10.15 50.27 0.247 5.73 186.5 9.78
11/1/2022 2:00:00 AM 10.16 50.288 0.247 5.74 191.7 9.75
11/1/2022 2:15:00 AM 10.16 50.288 0.247 5.76 213.8 9.75
11/1/2022 2:30:00 AM 10.18 50.324 0.247 5.72 198.4 9.69
11/1/2022 2:45:00 AM 10.19 50.342 0.247 5.73 228 9.7
11/1/2022 3:00:00 AM 10.2 50.36 0.247 5.73 200 9.67
11/1/2022 3:15:00 AM 10.21 50.378 0.247 5.71 194.4 9.67
11/1/2022 3:30:00 AM 10.23 50.414 0.246 5.68 181.4 9.65
11/1/2022 3:45:00 AM 10.24 50.432 0.246 5.73 195 9.62
11/1/2022 4:00:00 AM 10.26 50.468 0.246 5.72 188.9 9.58
11/1/2022 4:15:00 AM 10.27 50.486 0.246 5.73 176.6 9.55
11/1/2022 4:30:00 AM 10.28 50.504 0.246 5.73 174.1 9.49
11/1/2022 4:45:00 AM 10.29 50.522 0.246 5.76 175.1 9.47
11/1/2022 5:00:00 AM 10.31 50.558 0.246 5.73 161 9.46
11/1/2022 5:15:00 AM 10.32 50.576 0.246 5.76 171.2 9.42
11/1/2022 5:30:00 AM 10.34 50.612 0.246 5.74 151.9 9.38
11/1/2022 5:45:00 AM 10.35 50.63 0.246 5.73 150.2 9.35
11/1/2022 6:00:00 AM 10.37 50.666 0.246 5.75 147.7 9.29
11/1/2022 6:15:00 AM 10.38 50.684 0.246 5.74 169.8 9.25
11/1/2022 6:30:00 AM 10.4 50.72 0.246 5.74 155.7 9.21
11/1/2022 6:45:00 AM 10.41 50.738 0.246 5.72 139.9 9.17
11/1/2022 7:00:00 AM 10.42 50.756 0.245 5.73 129.7 9.11
11/1/2022 7:15:00 AM 10.43 50.774 0.245 5.75 142.6 9.11
11/1/2022 7:30:00 AM 10.45 50.81 0.245 5.74 157.3 9.11
11/1/2022 7:45:00 AM 10.46 50.828 0.245 5.75 164.1 9.08
11/1/2022 8:00:00 AM 10.47 50.846 0.245 5.75 152.8 9.03
11/1/2022 8:15:00 AM 10.48 50.864 0.245 5.76 156 9.03
11/1/2022 8:30:00 AM 10.5 50.9 0.245 5.74 144.1 9
11/1/2022 8:45:00 AM 10.53 50.954 0.245 5.76 155.8 8.96
11/1/2022 9:00:00 AM 10.55 50.99 0.245 5.78 169 9.07
11/1/2022 9:15:00 AM 10.59 51.062 0.244 5.77 164.3 9.12
11/1/2022 9:30:00 AM 10.62 51.116 0.244 5.75 180.6 9.1
11/1/2022 9:45:00 AM 10.66 51.188 0.244 5.78 175.7 9.18
11/1/2022 10:00:00 AM 10.7 51.26 0.244 5.76 154.3 9.21
11/1/2022 10:15:00 AM 10.75 51.35 0.244 5.79 144.6 9.3
11/1/2022 10:30:00 AM 10.8 51.44 0.244 5.77 171.8 9.26
11/1/2022 10:45:00 AM 10.89 51.602 0.244 5.76 159.9 9.34
11/1/2022 11:00:00 AM 11.02 51.836 0.244 5.76 157.7 9.52
11/1/2022 11:15:00 AM 11.06 51.908 0.244 5.81 154.6 9.54
11/1/2022 11:30:00 AM 11.1 51.98 0.244 5.83 173.3 9.57
11/1/2022 11:45:00 AM 11.21 52.178 0.244 5.85 149.5 9.58
11/1/2022 12:00:00 PM 11.41 52.538 0.244 5.81 153.1 9.54
11/1/2022 12:15:00 PM 11.59 52.862 0.245 5.8 179.9 9.82
11/1/2022 12:30:00 PM 11.62 52.916 0.246 5.91 154.9 9.89
11/1/2022 12:45:00 PM 11.77 53.186 0.246 5.95 140.4 9.99
11/1/2022 1:00:00 PM 11.83 53.294 0.247 5.97 195.8 10.09
11/1/2022 1:15:00 PM 11.86 53.348 0.247 5.98 177 10.18
11/1/2022 1:30:00 PM 12.01 53.618 0.248 6.02 168.5 10.26
11/1/2022 1:45:00 PM 12.11 53.798 0.248 6.03 174.5 10.33
11/1/2022 2:00:00 PM 12.16 53.888 0.249 6.05 185.8 10.35
11/1/2022 2:15:00 PM 12.2 53.96 0.249 6.14 181.2 10.41
11/1/2022 2:30:00 PM 12.24 54.032 0.249 6.16 177.2 10.49
11/1/2022 2:45:00 PM 12.28 54.104 0.25 6.17 112.9 10.47
11/1/2022 3:00:00 PM 12.4 54.32 0.25 6.19 160.1 10.54
11/1/2022 3:15:00 PM 12.46 54.428 0.25 6.2 172.5 10.6
11/1/2022 3:30:00 PM 12.51 54.518 0.25 6.22 157.4 10.63
11/1/2022 3:45:00 PM 12.55 54.59 0.25 6.23 146.9 10.62
11/1/2022 4:00:00 PM 12.56 54.608 0.251 6.28 228.6 10.55
11/1/2022 4:15:00 PM 12.55 54.59 0.251 6.26 149.8 10.52
11/1/2022 4:30:00 PM 12.55 54.59 0.251 6.27 128.7 10.4
11/1/2022 4:45:00 PM 12.57 54.626 0.251 6.28 178.4 10.4
11/1/2022 5:00:00 PM 12.57 54.626 0.251 6.28 156.5 10.4
11/1/2022 5:15:00 PM 12.58 54.644 0.251 6.27 189.1 10.32
11/1/2022 5:30:00 PM 12.56 54.608 0.251 6.27 167.5 10.35
11/1/2022 5:45:00 PM 12.54 54.572 0.251 6.24 153.8 10.26
11/1/2022 6:00:00 PM 12.51 54.518 0.251 6.25 139.2 10.17
11/1/2022 6:15:00 PM 12.48 54.464 0.251 6.24 155.4 10.11
11/1/2022 6:30:00 PM 12.46 54.428 0.251 6.22 153.8 10.03
11/1/2022 6:45:00 PM 12.45 54.41 0.251 6.23 152.6 9.97
11/1/2022 7:00:00 PM 12.42 54.356 0.251 6.18 160.1 9.95
11/1/2022 7:15:00 PM 12.38 54.284 0.251 6.19 169.9 9.9
11/1/2022 7:30:00 PM 12.36 54.248 0.251 6.16 145 9.84
11/1/2022 7:45:00 PM 12.33 54.194 0.251 6.15 143.5 9.77
11/1/2022 8:00:00 PM 12.29 54.122 0.251 6.15 130.3 9.68
11/1/2022 8:15:00 PM 12.28 54.104 0.251 6.11 144.5 9.64
11/1/2022 8:30:00 PM 12.25 54.05 0.251 6.12 137.4 9.59
11/1/2022 8:45:00 PM 12.23 54.014 0.251 6.1 143.8 9.55
11/1/2022 9:00:00 PM 12.21 53.978 0.251 6.1 145.9 9.52
11/1/2022 9:15:00 PM 12.18 53.924 0.251 6.09 139.2 9.52
11/1/2022 9:30:00 PM 12.16 53.888 0.251 6.1 141.1 9.48
11/1/2022 9:45:00 PM 12.14 53.852 0.251 6.07 137.8 9.47
11/1/2022 10:00:00 PM 12.12 53.816 0.251 6.08 136.9 9.42
11/1/2022 10:15:00 PM 12.11 53.798 0.251 6.04 139.4 9.41
11/1/2022 10:30:00 PM 12.09 53.762 0.251 6.06 141.5 9.38
11/1/2022 10:45:00 PM 12.07 53.726 0.251 6.07 142.1 9.38
11/1/2022 11:00:00 PM 12.06 53.708 0.251 6.06 144.6 9.38
11/1/2022 11:15:00 PM 12.05 53.69 0.251 6.06 136.9 9.36
11/1/2022 11:30:00 PM 12.03 53.654 0.25 6.01 138.3 9.37
11/1/2022 11:45:00 PM 12.02 53.636 0.25 6.03 140.1 9.37
11/2/2022 12:00:00 AM 12 53.6 0.25 6.04 138.9 9.37
11/2/2022 12:15:00 AM 11.99 53.582 0.25 6.05 131.5 9.38
11/2/2022 12:30:00 AM 11.98 53.564 0.25 6.04 145.7 9.38
11/2/2022 12:45:00 AM 11.97 53.546 0.25 6.03 135.9 9.35
11/2/2022 1:00:00 AM 11.97 53.546 0.25 6.04 134.1 9.34
11/2/2022 1:15:00 AM 11.95 53.51 0.25 6.04 129.1 9.35
11/2/2022 1:30:00 AM 11.93 53.474 0.25 6.01 118 9.36
11/2/2022 1:45:00 AM 11.92 53.456 0.251 6.05 119.3 9.34
11/2/2022 2:00:00 AM 11.92 53.456 0.251 6.05 124.6 9.32
11/2/2022 2:15:00 AM 11.91 53.438 0.251 6.05 128 9.31
11/2/2022 2:30:00 AM 11.89 53.402 0.252 6.03 122.3 9.31
11/2/2022 2:45:00 AM 11.88 53.384 0.253 6.01 129 9.28
11/2/2022 3:00:00 AM 11.87 53.366 0.253 6.05 121.3 9.26
11/2/2022 3:15:00 AM 11.86 53.348 0.254 6.01 124.9 9.23
11/2/2022 3:30:00 AM 11.85 53.33 0.255 6.04 128.9 9.21
11/2/2022 3:45:00 AM 11.84 53.312 0.256 6.05 127.6 9.19
11/2/2022 4:00:00 AM 11.83 53.294 0.256 6.04 132.7 9.16
11/2/2022 4:15:00 AM 11.81 53.258 0.257 6.05 126.7 9.12
11/2/2022 4:30:00 AM 11.8 53.24 0.258 6.05 127.1 9.08
11/2/2022 4:45:00 AM 11.79 53.222 0.259 6.05 128.9 9.06
11/2/2022 5:00:00 AM 11.77 53.186 0.26 6.02 123 9.04
11/2/2022 5:15:00 AM 11.76 53.168 0.26 6.01 143.6 9.01
11/2/2022 5:30:00 AM 11.75 53.15 0.261 6 142 8.98
11/2/2022 5:45:00 AM 11.73 53.114 0.262 6.03 132.5 8.96
11/2/2022 6:00:00 AM 11.72 53.096 0.263 6.05 122.2 8.93
11/2/2022 6:15:00 AM 11.71 53.078 0.264 6 134.3 8.93
11/2/2022 6:30:00 AM 11.69 53.042 0.264 6.02 134.1 8.91
11/2/2022 6:45:00 AM 11.67 53.006 0.265 6.02 124.7 8.88
11/2/2022 7:00:00 AM 11.65 52.97 0.266 6.02 133.8 8.86
11/2/2022 7:15:00 AM 11.63 52.934 0.266 6 134.4 8.84
11/2/2022 7:30:00 AM 11.61 52.898 0.267 6.01 129.1 8.82
11/2/2022 7:45:00 AM 11.59 52.862 0.268 6.02 139.7 8.81
11/2/2022 8:00:00 AM 11.57 52.826 0.268 6.01 144.8 8.8
11/2/2022 8:15:00 AM 11.56 52.808 0.269 6.03 154.4 8.79
11/2/2022 8:30:00 AM 11.55 52.79 0.269 5.99 149 8.77
11/2/2022 8:45:00 AM 11.54 52.772 0.27 5.97 146.6 8.78
11/2/2022 9:00:00 AM 11.55 52.79 0.27 5.99 153.1 8.8
11/2/2022 9:15:00 AM 11.55 52.79 0.271 6.05 158.3 8.81
11/2/2022 9:30:00 AM 11.57 52.826 0.271 5.96 151.8 8.85
11/2/2022 9:45:00 AM 11.59 52.862 0.272 5.99 157.4 8.88
11/2/2022 10:00:00 AM 11.62 52.916 0.272 6 171.4 8.92
11/2/2022 10:15:00 AM 11.68 53.024 0.273 5.99 157.4 8.96
11/2/2022 10:30:00 AM 11.75 53.15 0.273 6.03 144.9 9.07
11/2/2022 10:45:00 AM 11.84 53.312 0.274 6.01 157.5 9.15
11/2/2022 11:00:00 AM 11.93 53.474 0.274 6.05 165.4 9.21
11/2/2022 11:15:00 AM 12.03 53.654 0.274 6.03 170.4 9.28
11/2/2022 11:30:00 AM 12.14 53.852 0.275 6.06 163.3 9.37
11/2/2022 11:45:00 AM 12.23 54.014 0.275 6.08 128.3 9.42
11/2/2022 12:00:00 PM 12.33 54.194 0.275 6.1 160.8 9.49
11/2/2022 12:15:00 PM 12.44 54.392 0.275 6.1 181.9 9.57
11/2/2022 12:30:00 PM 12.51 54.518 0.276 6.15 148 9.61
11/2/2022 12:45:00 PM 12.63 54.734 0.276 6.15 143.9 9.7
11/2/2022 1:00:00 PM 12.73 54.914 0.276 6.2 138.9 9.78
11/2/2022 1:15:00 PM 12.78 55.004 0.276 6.21 151.6 9.83
11/2/2022 1:30:00 PM 12.87 55.166 0.276 6.24 156.6 9.89
11/2/2022 1:45:00 PM 12.96 55.328 0.276 6.27 154.6 9.97
11/2/2022 2:00:00 PM 13.05 55.49 0.276 6.26 149 10.03
11/2/2022 2:15:00 PM 13.11 55.598 0.276 6.3 151.3 10.11
11/2/2022 2:30:00 PM 13.17 55.706 0.276 6.26 149.3 10.15
11/2/2022 2:45:00 PM 13.25 55.85 0.276 6.29 150.5 10.26
11/2/2022 3:00:00 PM 13.31 55.958 0.276 6.33 142.6 10.28
11/2/2022 3:15:00 PM 13.35 56.03 0.275 6.33 153.6 10.33
11/2/2022 3:30:00 PM 13.39 56.102 0.275 6.37 148.5 10.38
11/2/2022 3:45:00 PM 13.42 56.156 0.275 6.39 141.3 10.4
11/2/2022 4:00:00 PM 13.46 56.228 0.275 6.42 138.2 10.39
11/2/2022 4:15:00 PM 13.49 56.282 0.274 6.42 149.4 10.4
11/2/2022 4:30:00 PM 13.51 56.318 0.274 6.44 144.9 10.4
11/2/2022 4:45:00 PM 13.52 56.336 0.274 6.45 144.5 10.41
11/2/2022 5:00:00 PM 13.51 56.318 0.273 6.48 161.3 10.39
11/2/2022 5:15:00 PM 13.49 56.282 0.273 6.49 149.4 10.33
11/2/2022 5:30:00 PM 13.46 56.228 0.273 6.47 151.6 10.25
11/2/2022 5:45:00 PM 13.41 56.138 0.272 6.45 160.9 10.18
11/2/2022 6:00:00 PM 13.35 56.03 0.272 6.42 165.5 10.11
11/2/2022 6:15:00 PM 13.3 55.94 0.272 6.42 155.1 10.05
11/2/2022 6:30:00 PM 13.24 55.832 0.271 6.4 171.1 9.98
11/2/2022 6:45:00 PM 13.17 55.706 0.271 6.4 173 9.92
11/2/2022 7:00:00 PM 13.11 55.598 0.271 6.36 176.8 9.85
11/2/2022 7:15:00 PM 13.05 55.49 0.27 6.35 175 9.8
11/2/2022 7:30:00 PM 12.99 55.382 0.27 6.32 129.6 9.74
11/2/2022 7:45:00 PM 12.93 55.274 0.269 6.3 178.6 9.68
11/2/2022 8:00:00 PM 12.88 55.184 0.269 6.27 149.7 9.63
11/2/2022 8:15:00 PM 12.83 55.094 0.269 6.28 153.5 9.57
11/2/2022 8:30:00 PM 12.79 55.022 0.268 6.25 169.3 9.5
11/2/2022 8:45:00 PM 12.74 54.932 0.268 6.22 162.7 9.45
11/2/2022 9:00:00 PM 12.7 54.86 0.267 6.2 150.8 9.38
11/2/2022 9:15:00 PM 12.67 54.806 0.267 6.21 143.7 9.3
11/2/2022 9:30:00 PM 12.63 54.734 0.267 6.21 167.6 9.3
11/2/2022 9:45:00 PM 12.6 54.68 0.266 6.18 165.4 9.32
11/2/2022 10:00:00 PM 12.57 54.626 0.266 6.18 156.6 9.27
11/2/2022 10:15:00 PM 12.55 54.59 0.265 6.16 161.2 9.26
11/2/2022 10:30:00 PM 12.51 54.518 0.265 6.15 170.3 9.22
11/2/2022 10:45:00 PM 12.49 54.482 0.265 6.14 179 9.2
11/2/2022 11:00:00 PM 12.46 54.428 0.264 6.13 179.7 9.18
11/2/2022 11:15:00 PM 12.43 54.374 0.264 6.11 169.3 9.14
11/2/2022 11:30:00 PM 12.4 54.32 0.264 6.13 170.4 9.17
11/2/2022 11:45:00 PM 12.37 54.266 0.263 6.15 184.9 9.18
11/3/2022 12:00:00 AM 12.34 54.212 0.263 6.12 177.2 9.17
11/3/2022 12:15:00 AM 12.32 54.176 0.263 6.13 162.4 9.2
11/3/2022 12:30:00 AM 12.28 54.104 0.263 6.14 168.4 9.17
11/3/2022 12:45:00 AM 12.25 54.05 0.262 6.14 161.9 9.13
11/3/2022 1:00:00 AM 12.22 53.996 0.262 6.14 167.9 9.13
11/3/2022 1:15:00 AM 12.17 53.906 0.262 6.13 167.4 9.11
11/3/2022 1:30:00 AM 12.14 53.852 0.262 6.05 166.2 9.05
11/3/2022 1:45:00 AM 12.1 53.78 0.261 6.1 170.6 9.04
11/3/2022 2:00:00 AM 12.07 53.726 0.261 6.06 160.8 9.04
11/3/2022 2:15:00 AM 12.02 53.636 0.261 6.09 166.5 9.02
11/3/2022 2:30:00 AM 11.98 53.564 0.261 6.07 163.2 9.01
11/3/2022 2:45:00 AM 11.94 53.492 0.26 6.06 134.4 9.02
11/3/2022 3:00:00 AM 11.91 53.438 0.26 6.05 114.8 8.97
11/3/2022 3:15:00 AM 11.86 53.348 0.26 6.05 115.7 8.96
11/3/2022 3:30:00 AM 11.81 53.258 0.26 6.06 112.1 8.96
11/3/2022 3:45:00 AM 11.78 53.204 0.26 6.04 114.1 8.97
11/3/2022 4:00:00 AM 11.74 53.132 0.259 6.08 108.7 8.95
11/3/2022 4:15:00 AM 11.7 53.06 0.259 6.02 110.6 8.92
11/3/2022 4:30:00 AM 11.66 52.988 0.259 6.02 110.3 8.92
11/3/2022 4:45:00 AM 11.63 52.934 0.259 6 114.1 8.9
11/3/2022 5:00:00 AM 11.59 52.862 0.259 6.03 124.9 8.88
11/3/2022 5:15:00 AM 11.54 52.772 0.259 5.99 128.2 8.86
11/3/2022 5:30:00 AM 11.5 52.7 0.259 6.02 107.3 8.86
11/3/2022 5:45:00 AM 11.46 52.628 0.259 6.04 114.2 8.83
11/3/2022 6:00:00 AM 11.42 52.556 0.258 6.03 127.3 8.83
11/3/2022 6:15:00 AM 11.37 52.466 0.258 6.04 108.7 8.81
11/3/2022 6:30:00 AM 11.32 52.376 0.258 6.03 118.5 8.8
11/3/2022 6:45:00 AM 11.27 52.286 0.258 6.06 107.7 8.79
11/3/2022 7:00:00 AM 11.24 52.232 0.258 6.01 115.8 8.79
11/3/2022 7:15:00 AM 11.21 52.178 0.258 6.02 128.4 8.76
11/3/2022 7:30:00 AM 11.15 52.07 0.258 6.04 119.8 8.7
11/3/2022 7:45:00 AM 11.11 51.998 0.257 6.04 124.1 8.69
11/3/2022 8:00:00 AM 11.07 51.926 0.257 6.01 137.7 8.7
11/3/2022 8:15:00 AM 11.02 51.836 0.257 6.01 140.7 8.75
11/3/2022 8:30:00 AM 10.99 51.782 0.257 6 135.7 8.8
11/3/2022 8:45:00 AM 10.97 51.746 0.257 5.94 139.3 8.84
11/3/2022 9:00:00 AM 10.96 51.728 0.257 5.94 138 8.86
11/3/2022 9:15:00 AM 10.94 51.692 0.257 5.97 142 8.93
11/3/2022 9:30:00 AM 10.94 51.692 0.256 5.97 147.5 8.99
11/3/2022 9:45:00 AM 10.95 51.71 0.256 5.95 141.9 8.98
11/3/2022 10:00:00 AM 10.97 51.746 0.256 5.94 137.3 9.09
11/3/2022 10:15:00 AM 11.04 51.872 0.256 5.92 132.2 9.14
11/3/2022 10:30:00 AM 11.15 52.07 0.255 5.92 125.8 9.27
11/3/2022 10:45:00 AM 11.26 52.268 0.255 5.92 128.9 9.37
11/3/2022 11:00:00 AM 11.41 52.538 0.255 5.91 132.1 9.53
11/3/2022 11:15:00 AM 11.57 52.826 0.255 5.94 145.1 9.7
11/3/2022 11:30:00 AM 11.68 53.024 0.255 5.94 142.8 9.78
11/3/2022 11:45:00 AM 11.84 53.312 0.254 5.93 136.3 9.83
11/3/2022 12:00:00 PM 11.97 53.546 0.254 5.96 137 9.91
11/3/2022 12:15:00 PM 12.09 53.762 0.254 5.94 143.8 10
11/3/2022 12:30:00 PM 12.23 54.014 0.254 5.96 138.5 10.14
11/3/2022 12:45:00 PM 12.36 54.248 0.254 5.98 141.8 10.3
11/3/2022 1:00:00 PM 12.5 54.5 0.253 6.01 145 10.36
11/3/2022 1:15:00 PM 12.56 54.608 0.253 6.05 147.8 10.42
11/3/2022 1:30:00 PM 12.65 54.77 0.253 6.04 154.3 10.47
11/3/2022 1:45:00 PM 12.67 54.806 0.253 6.01 154 10.57
11/3/2022 2:00:00 PM 12.78 55.004 0.253 6.04 149.4 10.63
11/3/2022 2:15:00 PM 12.85 55.13 0.253 6.07 154.2 10.73
11/3/2022 2:30:00 PM 12.92 55.256 0.253 6.07 152.3 10.77
11/3/2022 2:45:00 PM 12.94 55.292 0.253 6.09 152.1 10.86
11/3/2022 3:00:00 PM 12.99 55.382 0.253 6.17 155.1 10.9
11/3/2022 3:15:00 PM 12.99 55.382 0.252 6.19 143 10.95
11/3/2022 3:30:00 PM 13.02 55.436 0.252 6.24 151.4 10.97
11/3/2022 3:45:00 PM 13.06 55.508 0.252 6.22 155.1 10.98
11/3/2022 4:00:00 PM 13.08 55.544 0.252 6.23 156.5 11.04
11/3/2022 4:15:00 PM 13.1 55.58 0.252 6.28 150.1 11
11/3/2022 4:30:00 PM 13.11 55.598 0.252 6.3 146.1 11
11/3/2022 4:45:00 PM 13.12 55.616 0.252 6.32 144.9 11
11/3/2022 5:00:00 PM 13.12 55.616 0.252 6.33 152.4 10.95
11/3/2022 5:15:00 PM 13.12 55.616 0.252 6.33 162.6 10.91
11/3/2022 5:30:00 PM 13.11 55.598 0.253 6.33 156.2 10.84
11/3/2022 5:45:00 PM 13.09 55.562 0.253 6.34 138.7 10.79
11/3/2022 6:00:00 PM 13.05 55.49 0.253 6.37 138.8 10.69
11/3/2022 6:15:00 PM 13 55.4 0.253 6.4 139.4 10.6
11/3/2022 6:30:00 PM 12.95 55.31 0.253 6.38 145.2 10.51
11/3/2022 6:45:00 PM 12.88 55.184 0.253 6.4 138.7 10.42
11/3/2022 7:00:00 PM 12.81 55.058 0.253 6.39 139.8 10.34
11/3/2022 7:15:00 PM 12.74 54.932 0.254 6.38 133.7 10.24
11/3/2022 7:30:00 PM 12.66 54.788 0.254 6.35 139.7 10.13
11/3/2022 7:45:00 PM 12.59 54.662 0.254 6.32 143.7 10.04
11/3/2022 8:00:00 PM 12.51 54.518 0.254 6.32 151.6 9.93
11/3/2022 8:15:00 PM 12.43 54.374 0.254 6.3 159.9 9.88
11/3/2022 8:30:00 PM 12.36 54.248 0.254 6.3 159.6 9.75
11/3/2022 8:45:00 PM 12.28 54.104 0.254 6.29 145.5 9.7
11/3/2022 9:00:00 PM 12.22 53.996 0.254 6.29 159.8 9.63
11/3/2022 9:15:00 PM 12.16 53.888 0.254 6.27 150.7 9.58
11/3/2022 9:30:00 PM 12.1 53.78 0.254 6.32 143.6 9.53
11/3/2022 9:45:00 PM 12.04 53.672 0.254 6.28 165.5 9.48
11/3/2022 10:00:00 PM 11.98 53.564 0.254 6.26 162.2 9.45
11/3/2022 10:15:00 PM 11.93 53.474 0.254 6.27 166.2 9.39
11/3/2022 10:30:00 PM 11.89 53.402 0.254 6.27 171.8 9.36
11/3/2022 10:45:00 PM 11.86 53.348 0.254 6.29 172.1 9.37
11/3/2022 11:00:00 PM 11.8 53.24 0.254 6.32 169.4 9.33
11/3/2022 11:15:00 PM 11.77 53.186 0.254 6.27 176.5 9.28
11/3/2022 11:30:00 PM 11.73 53.114 0.254 6.27 156.6 9.31
11/3/2022 11:45:00 PM 11.7 53.06 0.254 6.26 180.1 9.28
11/4/2022 12:00:00 AM 11.68 53.024 0.254 6.26 174.9 9.29
11/4/2022 12:15:00 AM 11.65 52.97 0.254 6.27 187.1 9.29
11/4/2022 12:30:00 AM 11.62 52.916 0.255 6.25 186.7 9.32
11/4/2022 12:45:00 AM 11.59 52.862 0.255 6.27 179.6 9.3
11/4/2022 1:00:00 AM 11.56 52.808 0.255 6.26 177.7 9.3
11/4/2022 1:15:00 AM 11.52 52.736 0.255 6.27 178.9 9.27
11/4/2022 1:30:00 AM 11.49 52.682 0.255 6.25 181.1 9.28
11/4/2022 1:45:00 AM 11.46 52.628 0.255 6.27 183.1 9.29
11/4/2022 2:00:00 AM 11.43 52.574 0.255 6.25 180.9 9.27
11/4/2022 2:15:00 AM 11.41 52.538 0.255 6.25 188.3 9.3
11/4/2022 2:30:00 AM 11.36 52.448 0.255 6.25 184.8 9.28
11/4/2022 2:45:00 AM 11.33 52.394 0.255 6.29 184.4 9.27
11/4/2022 3:00:00 AM 11.3 52.34 0.255 6.29 184.4 9.28
11/4/2022 3:15:00 AM 11.26 52.268 0.255 6.29 181.8 9.3
11/4/2022 3:30:00 AM 11.22 52.196 0.255 6.3 189.8 9.26
11/4/2022 3:45:00 AM 11.18 52.124 0.256 6.3 188.2 9.27
11/4/2022 4:00:00 AM 11.13 52.034 0.256 6.29 193.6 9.24
11/4/2022 4:15:00 AM 11.1 51.98 0.256 6.28 197.3 9.25
11/4/2022 4:30:00 AM 11.06 51.908 0.256 6.27 206.5 9.24
11/4/2022 4:45:00 AM 11.02 51.836 0.256 6.3 192.7 9.23
11/4/2022 5:00:00 AM 10.98 51.764 0.256 6.3 199.6 9.2
11/4/2022 5:15:00 AM 10.94 51.692 0.256 6.29 178.1 9.19
11/4/2022 5:30:00 AM 10.9 51.62 0.256 6.3 192.2 9.18
11/4/2022 5:45:00 AM 10.86 51.548 0.256 6.3 187 9.16
11/4/2022 6:00:00 AM 10.82 51.476 0.256 6.28 188.7 9.13
11/4/2022 6:15:00 AM 10.79 51.422 0.256 6.28 182.4 9.15
11/4/2022 6:30:00 AM 10.75 51.35 0.257 6.28 186.5 9.15
11/4/2022 6:45:00 AM 10.71 51.278 0.256 6.27 182.4 9.12
11/4/2022 7:00:00 AM 10.68 51.224 0.257 6.29 182.4 9.11
11/4/2022 7:15:00 AM 10.64 51.152 0.257 6.28 185.9 9.1
11/4/2022 7:30:00 AM 10.61 51.098 0.257 6.26 176.4 9.04
11/4/2022 7:45:00 AM 10.56 51.008 0.257 6.29 176.3 9.05
11/4/2022 8:00:00 AM 10.54 50.972 0.257 6.29 188.2 9.07
11/4/2022 8:15:00 AM 10.54 50.972 0.257 6.28 201.1 9.08
11/4/2022 8:30:00 AM 10.55 50.99 0.257 6.31 185.3 9.11
11/4/2022 8:45:00 AM 10.56 51.008 0.257 6.31 199.6 9.15
11/4/2022 9:00:00 AM 10.56 51.008 0.257 6.3 196.2 9.22
11/4/2022 9:15:00 AM 10.59 51.062 0.257 6.26 182.6 9.26
11/4/2022 9:30:00 AM 10.61 51.098 0.257 6.22 187.2 9.35
11/4/2022 9:45:00 AM 10.65 51.17 0.257 6.18 165.9 9.44
11/4/2022 10:00:00 AM 10.69 51.242 0.257 6.13 212 9.49
11/4/2022 10:15:00 AM 10.73 51.314 0.257 6.08 169.8 9.62
11/4/2022 10:30:00 AM 10.77 51.386 0.257 6.04 195.4 9.71
11/4/2022 10:45:00 AM 10.82 51.476 0.257 5.98 169.6 9.84
11/4/2022 11:00:00 AM 10.9 51.62 0.257 5.97 178.2 9.98
11/4/2022 11:15:00 AM 10.96 51.728 0.257 5.88 199.7 10.13
11/4/2022 11:30:00 AM 11.07 51.926 0.256 5.86 169 10.27
11/4/2022 11:45:00 AM 11.26 52.268 0.256 5.8 172.9 10.4
11/4/2022 12:00:00 PM 11.42 52.556 0.256 5.69 174.6 10.57
11/4/2022 12:15:00 PM 11.6 52.88 0.256 5.72 176.6 10.65
11/4/2022 12:30:00 PM 11.76 53.168 0.256 5.74 172 10.84
11/4/2022 12:45:00 PM 11.95 53.51 0.256 5.74 207.8 11.01
11/4/2022 1:00:00 PM 12.07 53.726 0.256 5.7 207 11.1
11/4/2022 1:15:00 PM 12.21 53.978 0.256 5.76 199 11.23
11/4/2022 1:30:00 PM 12.36 54.248 0.256 5.78 201.1 11.32
11/4/2022 1:45:00 PM 12.48 54.464 0.256 5.82 204 11.44
11/4/2022 2:00:00 PM 12.59 54.662 0.256 5.89 199.5 11.5
11/4/2022 2:15:00 PM 12.66 54.788 0.256 5.89 214.6 11.63
11/4/2022 2:30:00 PM 12.72 54.896 0.256 5.94 224.7 11.7
11/4/2022 2:45:00 PM 12.79 55.022 0.256 5.94 219.3 11.76
11/4/2022 3:00:00 PM 12.82 55.076 0.256 5.98 227.2 11.81
11/4/2022 3:15:00 PM 12.86 55.148 0.256 6.01 195.8 11.81
11/4/2022 3:30:00 PM 12.89 55.202 0.256 6.06 215.6 11.81
11/4/2022 3:45:00 PM 12.91 55.238 0.255 6.07 202.6 11.89
11/4/2022 4:00:00 PM 12.97 55.346 0.255 6.08 219.1 11.87
11/4/2022 4:15:00 PM 12.96 55.328 0.256 6.17 202 11.82
11/4/2022 4:30:00 PM 12.95 55.31 0.256 6.21 218.5 11.76
11/4/2022 4:45:00 PM 12.94 55.292 0.256 6.2 218.9 11.67
11/4/2022 5:00:00 PM 12.95 55.31 0.256 6.24 217.7 11.67
11/4/2022 5:15:00 PM 12.95 55.31 0.256 6.2 214.1 11.61
11/4/2022 5:30:00 PM 12.96 55.328 0.256 6.2 201.7 11.52
11/4/2022 5:45:00 PM 12.95 55.31 0.256 6.25 206.5 11.45
11/4/2022 6:00:00 PM 12.93 55.274 0.256 6.32 208.9 11.37
11/4/2022 6:15:00 PM 12.9 55.22 0.256 6.32 207.4 11.18
11/4/2022 6:30:00 PM 12.87 55.166 0.256 6.36 208 11.06
11/4/2022 6:45:00 PM 12.82 55.076 0.256 6.41 205.6 10.91
11/4/2022 7:00:00 PM 12.77 54.986 0.256 6.39 226.1 10.84
11/4/2022 7:15:00 PM 12.71 54.878 0.257 6.37 214.8 10.74
11/4/2022 7:30:00 PM 12.65 54.77 0.257 6.4 208.7 10.59
11/4/2022 7:45:00 PM 12.57 54.626 0.257 6.38 220.8 10.45
11/4/2022 8:00:00 PM 12.52 54.536 0.257 6.39 219.9 10.35
11/4/2022 8:15:00 PM 12.46 54.428 0.257 6.35 213.3 10.27
11/4/2022 8:30:00 PM 12.4 54.32 0.257 6.36 213.8 10.14
11/4/2022 8:45:00 PM 12.36 54.248 0.257 6.33 213.3 10.01
11/4/2022 9:00:00 PM 12.3 54.14 0.257 6.32 210.8 9.97
11/4/2022 9:15:00 PM 12.25 54.05 0.257 6.35 204 9.89
11/4/2022 9:30:00 PM 12.2 53.96 0.257 6.33 221.3 9.82
11/4/2022 9:45:00 PM 12.17 53.906 0.257 6.35 220.6 9.73
11/4/2022 10:00:00 PM 12.11 53.798 0.258 6.3 233.3 9.67
11/4/2022 10:15:00 PM 12.08 53.744 0.257 6.3 203.2 9.59
11/4/2022 10:30:00 PM 12.03 53.654 0.258 6.3 207.1 9.56
11/4/2022 10:45:00 PM 12 53.6 0.258 6.3 184.3 9.51
11/4/2022 11:00:00 PM 11.97 53.546 0.258 6.31 163.9 9.47
11/4/2022 11:15:00 PM 11.94 53.492 0.258 6.31 190.7 9.44
11/4/2022 11:30:00 PM 11.91 53.438 0.258 6.29 199 9.38
11/4/2022 11:45:00 PM 11.88 53.384 0.258 6.28 203.5 9.36
11/5/2022 12:00:00 AM 11.86 53.348 0.258 6.3 196.7 9.34
11/5/2022 12:15:00 AM 11.83 53.294 0.258 6.31 207.7 9.32
11/5/2022 12:30:00 AM 11.8 53.24 0.258 6.3 196.2 9.31
11/5/2022 12:45:00 AM 11.78 53.204 0.258 6.31 199.4 9.31
11/5/2022 1:00:00 AM 11.78 53.204 0.258 6.35 206.6 9.32
11/5/2022 1:15:00 AM 11.75 53.15 0.258 6.34 203.8 9.32
11/5/2022 1:30:00 AM 11.74 53.132 0.258 6.37 201.5 9.31
11/5/2022 1:45:00 AM 11.72 53.096 0.258 6.39 201.1 9.29
11/5/2022 2:00:00 AM 11.71 53.078 0.258 6.38 195.6 9.3
11/5/2022 2:15:00 AM 11.69 53.042 0.258 6.37 187.4 9.26
11/5/2022 2:30:00 AM 11.69 53.042 0.258 6.39 180.8 9.26
11/5/2022 2:45:00 AM 11.68 53.024 0.258 6.39 188.8 9.3
11/5/2022 3:00:00 AM 11.69 53.042 0.258 6.4 181.9 9.27
11/5/2022 3:15:00 AM 11.69 53.042 0.258 6.36 183.6 9.24
11/5/2022 3:30:00 AM 11.7 53.06 0.258 6.34 177.8 9.27
11/5/2022 3:45:00 AM 11.7 53.06 0.258 6.3 189.6 9.19
11/5/2022 4:00:00 AM 11.7 53.06 0.258 6.26 193.4 9.2
11/5/2022 4:15:00 AM 11.7 53.06 0.258 6.23 180.2 9.21
11/5/2022 4:30:00 AM 11.71 53.078 0.258 6.24 182.2 9.17
11/5/2022 4:45:00 AM 11.72 53.096 0.258 6.19 178 9.14
11/5/2022 5:00:00 AM 11.72 53.096 0.258 6.17 184.3 9.17
11/5/2022 5:15:00 AM 11.73 53.114 0.258 6.15 195.8 9.15
11/5/2022 5:30:00 AM 11.74 53.132 0.258 6.12 202 9.13
11/5/2022 5:45:00 AM 11.74 53.132 0.258 6.11 187.3 9.08
11/5/2022 6:00:00 AM 11.75 53.15 0.258 6.11 189 9.12
11/5/2022 6:15:00 AM 11.75 53.15 0.258 6.02 188.3 9.03
11/5/2022 6:30:00 AM 11.76 53.168 0.258 6.02 179.9 9.05
11/5/2022 6:45:00 AM 11.77 53.186 0.258 6.04 196.2 8.99
11/5/2022 7:00:00 AM 11.77 53.186 0.258 6.04 184.7 8.98
11/5/2022 7:15:00 AM 11.78 53.204 0.258 5.98 201 8.9
11/5/2022 7:30:00 AM 11.78 53.204 0.258 5.99 171.8 8.93
11/5/2022 7:45:00 AM 11.79 53.222 0.258 5.95 209.6 8.89
11/5/2022 8:00:00 AM 11.79 53.222 0.259 5.95 204.4 8.9
11/5/2022 8:15:00 AM 11.81 53.258 0.258 5.96 204.5 8.83
11/5/2022 8:30:00 AM 11.82 53.276 0.259 5.92 213.3 8.83
11/5/2022 8:45:00 AM 11.85 53.33 0.259 5.93 156.4 8.9
11/5/2022 9:00:00 AM 11.88 53.384 0.259 5.95 161.1 9.03
11/5/2022 9:15:00 AM 11.91 53.438 0.259 5.89 192.9 9.12
11/5/2022 9:30:00 AM 11.97 53.546 0.258 5.88 180.5 9.27
11/5/2022 9:45:00 AM 12.03 53.654 0.258 5.81 178.3 9.36
11/5/2022 10:00:00 AM 12.1 53.78 0.258 5.75 165.6 9.41
11/5/2022 10:15:00 AM 12.17 53.906 0.258 5.68 178.9 9.56
11/5/2022 10:30:00 AM 12.25 54.05 0.258 5.61 174.9 9.65
11/5/2022 10:45:00 AM 12.34 54.212 0.258 5.67 174.4 9.86
11/5/2022 11:00:00 AM 12.45 54.41 0.258 5.63 168.5 9.91
11/5/2022 11:15:00 AM 12.48 54.464 0.258 5.62 185.6 10.03
11/5/2022 11:30:00 AM 12.6 54.68 0.258 5.63 173.9 10.14
11/5/2022 11:45:00 AM 12.83 55.094 0.257 5.52 182.8 10.38
11/5/2022 12:00:00 PM 13.03 55.454 0.257 5.55 176.9 10.55
11/5/2022 12:15:00 PM 13.25 55.85 0.257 5.56 178.1 10.57
11/5/2022 12:30:00 PM 13.28 55.904 0.257 5.67 170.5 10.55
11/5/2022 12:45:00 PM 13.38 56.084 0.257 5.7 179 10.82
11/5/2022 1:00:00 PM 13.44 56.192 0.257 5.69 177.3 10.87
11/5/2022 1:15:00 PM 13.5 56.3 0.257 5.81 187.4 10.82
11/5/2022 1:30:00 PM 13.52 56.336 0.257 5.93 181.7 10.97
11/5/2022 1:45:00 PM 13.62 56.516 0.257 5.86 191.8 10.99
11/5/2022 2:00:00 PM 13.7 56.66 0.257 5.85 181.9 11.15
11/5/2022 2:15:00 PM 13.79 56.822 0.257 5.91 188.6 11.31
11/5/2022 2:30:00 PM 13.87 56.966 0.256 5.89 178 11.44
11/5/2022 2:45:00 PM 13.98 57.164 0.256 6.02 182.4 11.53
11/5/2022 3:00:00 PM 14.04 57.272 0.256 6.09 189.6 11.5
11/5/2022 3:15:00 PM 14.1 57.38 0.256 6.15 199 11.67
11/5/2022 3:30:00 PM 14.17 57.506 0.256 6.17 184.7 11.65
11/5/2022 3:45:00 PM 14.24 57.632 0.256 6.2 184.9 11.71
11/5/2022 4:00:00 PM 14.31 57.758 0.256 6.22 182.4 11.7
11/5/2022 4:15:00 PM 14.37 57.866 0.256 6.28 178.6 11.73
11/5/2022 4:30:00 PM 14.43 57.974 0.256 6.29 171.6 11.52
11/5/2022 4:45:00 PM 14.5 58.1 0.256 6.35 172.6 11.62
11/5/2022 5:00:00 PM 14.53 58.154 0.256 6.36 167 11.69
11/5/2022 5:15:00 PM 14.58 58.244 0.256 6.42 160.9 11.63
11/5/2022 5:30:00 PM 14.58 58.244 0.256 6.44 161 11.55
11/5/2022 5:45:00 PM 14.57 58.226 0.256 6.46 163.3 11.38
11/5/2022 6:00:00 PM 14.56 58.208 0.256 6.45 162.8 11.26
11/5/2022 6:15:00 PM 14.55 58.19 0.256 6.64 161.8 11.09
11/5/2022 6:30:00 PM 14.54 58.172 0.256 6.66 163.5 10.83
11/5/2022 6:45:00 PM 14.51 58.118 0.257 6.65 165.3 10.75
11/5/2022 7:00:00 PM 14.5 58.1 0.257 6.67 170.8 10.71
11/5/2022 7:15:00 PM 14.47 58.046 0.257 6.68 175.8 10.67
11/5/2022 7:30:00 PM 14.45 58.01 0.257 6.62 179.3 10.46
11/5/2022 7:45:00 PM 14.42 57.956 0.257 6.62 172 10.3
11/5/2022 8:00:00 PM 14.4 57.92 0.257 6.64 168.6 9.98
11/5/2022 8:15:00 PM 14.39 57.902 0.257 6.59 180.7 9.97
11/5/2022 8:30:00 PM 14.38 57.884 0.257 6.55 187.3 9.71
11/5/2022 8:45:00 PM 14.36 57.848 0.257 6.54 196.8 9.46
11/5/2022 9:00:00 PM 14.35 57.83 0.257 6.56 175.3 9.37
11/5/2022 9:15:00 PM 14.34 57.812 0.257 6.52 189.8 9.13
11/5/2022 9:30:00 PM 14.31 57.758 0.257 6.52 194.5 9.27
11/5/2022 9:45:00 PM 14.29 57.722 0.258 6.49 188.2 8.96
11/5/2022 10:00:00 PM 14.27 57.686 0.257 6.46 188.1 9.07
11/5/2022 10:15:00 PM 14.24 57.632 0.257 6.5 193.4 9.12
11/5/2022 10:30:00 PM 14.23 57.614 0.257 6.45 180.9 8.92
11/5/2022 10:45:00 PM 14.22 57.596 0.257 6.46 182.6 8.84
11/5/2022 11:00:00 PM 14.21 57.578 0.257 6.43 190 8.82
11/5/2022 11:15:00 PM 14.2 57.56 0.257 6.42 187.6 8.61
11/5/2022 11:30:00 PM 14.21 57.578 0.258 6.43 211.2 8.41
11/5/2022 11:45:00 PM 14.23 57.614 0.257 6.42 209.3 8.5
11/6/2022 12:00:00 AM 14.23 57.614 0.257 6.41 208.2 8.5
11/6/2022 12:15:00 AM 14.21 57.578 0.257 6.42 178.6 8.59
11/6/2022 12:30:00 AM 14.19 57.542 0.257 6.4 190.4 8.75
11/6/2022 12:45:00 AM 14.19 57.542 0.257 6.39 196.9 8.72
11/6/2022 1:00:00 AM 14.18 57.524 0.256 6.4 197.5 8.67
11/6/2022 1:15:00 AM 14.16 57.488 0.257 6.4 190.5 8.63
11/6/2022 1:30:00 AM 14.16 57.488 0.255 6.4 198.9 8.61
11/6/2022 1:45:00 AM 14.15 57.47 0.257 6.45 192.3 8.44
11/6/2022 2:00:00 AM 14.14 57.452 0.257 6.41 187.1 8.42
11/6/2022 2:15:00 AM 14.13 57.434 0.257 6.44 181.3 8.57
11/6/2022 2:30:00 AM 14.12 57.416 0.257 6.44 185.1 8.65
11/6/2022 2:45:00 AM 14.12 57.416 0.257 6.41 185.1 8.59
11/6/2022 3:00:00 AM 14.11 57.398 0.257 6.44 173.5 8.5
11/6/2022 3:15:00 AM 14.1 57.38 0.257 6.44 189 8.46
11/6/2022 3:30:00 AM 14.09 57.362 0.257 6.43 191.9 8.29
11/6/2022 3:45:00 AM 14.08 57.344 0.257 6.42 164.2 8.42
11/6/2022 4:00:00 AM 14.07 57.326 0.257 6.39 168.4 8.44
11/6/2022 4:15:00 AM 14.06 57.308 0.257 6.38 160.2 8.47
11/6/2022 4:30:00 AM 14.05 57.29 0.257 6.44 161.1 8.47
11/6/2022 4:45:00 AM 14.04 57.272 0.257 6.48 182.4 8.37
11/6/2022 5:00:00 AM 14.04 57.272 0.257 6.47 182 8.38
11/6/2022 5:15:00 AM 14.04 57.272 0.257 6.45 186.5 8.39
11/6/2022 5:30:00 AM 14.04 57.272 0.257 6.45 167 8.28
11/6/2022 5:45:00 AM 14.05 57.29 0.257 6.45 175.1 8.19
11/6/2022 6:00:00 AM 14.05 57.29 0.258 6.43 166.1 8.22
11/6/2022 6:15:00 AM 14.05 57.29 0.258 6.42 167.4 8.29
11/6/2022 6:30:00 AM 14.05 57.29 0.258 6.43 167.8 8.3
11/6/2022 6:45:00 AM 14.05 57.29 0.258 6.43 166.9 8.26
11/6/2022 7:00:00 AM 14.05 57.29 0.258 6.43 173.3 8.24
11/6/2022 7:15:00 AM 14.05 57.29 0.258 6.43 164.9 8.13
11/6/2022 7:30:00 AM 14.06 57.308 0.258 6.38 167.5 8.06
11/6/2022 7:45:00 AM 14.06 57.308 0.258 6.38 163.3 8.14
11/6/2022 8:00:00 AM 14.06 57.308 0.258 6.41 164.5 8.09
11/6/2022 8:15:00 AM 14.07 57.326 0.259 6.4 166.5 8.11
11/6/2022 8:30:00 AM 14.08 57.344 0.259 6.35 165.5 7.94
11/6/2022 8:45:00 AM 14.09 57.362 0.259 6.35 176.7 7.92
11/6/2022 9:00:00 AM 14.1 57.38 0.259 6.34 176.4 7.93
11/6/2022 9:15:00 AM 14.12 57.416 0.259 6.37 179.5 8.01
11/6/2022 9:30:00 AM 14.13 57.434 0.259 6.33 189.6 7.9
11/6/2022 9:45:00 AM 14.15 57.47 0.259 6.34 188.9 7.9
11/6/2022 10:00:00 AM 14.17 57.506 0.259 6.33 186.5 7.94
11/6/2022 10:15:00 AM 14.2 57.56 0.26 6.31 175 7.89
11/6/2022 10:30:00 AM 14.24 57.632 0.26 6.34 184.6 8.1
11/6/2022 10:45:00 AM 14.26 57.668 0.26 6.32 184.5 8.06
11/6/2022 11:00:00 AM 14.3 57.74 0.26 6.35 182.5 8.11
11/6/2022 11:15:00 AM 14.31 57.758 0.26 6.34 198 8.12
11/6/2022 11:30:00 AM 14.34 57.812 0.26 6.34 184.5 8.14
11/6/2022 11:45:00 AM 14.37 57.866 0.26 6.34 186.7 8.27
11/6/2022 12:00:00 PM 14.38 57.884 0.26 6.36 191.6 7.94
11/6/2022 12:15:00 PM 14.43 57.974 0.26 6.34 185.7 8.15
11/6/2022 12:30:00 PM 14.47 58.046 0.26 6.34 191.5 8.36
11/6/2022 12:45:00 PM 14.51 58.118 0.26 6.33 189.4 8.52
11/6/2022 1:00:00 PM 14.56 58.208 0.26 6.34 193.3 8.63
11/6/2022 1:15:00 PM 14.59 58.262 0.26 6.32 194.3 8.66
11/6/2022 1:30:00 PM 14.63 58.334 0.26 6.34 191.7 8.66
11/6/2022 1:45:00 PM 14.66 58.388 0.26 6.32 188.7 8.81
11/6/2022 2:00:00 PM 14.71 58.478 0.26 6.35 200.4 8.79
11/6/2022 2:15:00 PM 14.73 58.514 0.26 6.35 188.9 8.98
11/6/2022 2:30:00 PM 14.78 58.604 0.26 6.38 198.6 9.04
11/6/2022 2:45:00 PM 14.85 58.73 0.26 6.35 190.6 9.17
11/6/2022 3:00:00 PM 14.88 58.784 0.261 6.34 188.4 9.11
11/6/2022 3:15:00 PM 14.94 58.892 0.261 6.34 191.3 9.22
11/6/2022 3:30:00 PM 14.96 58.928 0.261 6.36 191.2 9.1
11/6/2022 3:45:00 PM 15 59 0.261 6.39 204.1 9.28
11/6/2022 4:00:00 PM 15.03 59.054 0.261 6.41 192.4 9.06
11/6/2022 4:15:00 PM 15.06 59.108 0.261 6.42 193.1 9.06
11/6/2022 4:30:00 PM 15.12 59.216 0.261 6.41 188.7 9.26
11/6/2022 4:45:00 PM 15.17 59.306 0.261 6.44 185.6 9.5
11/6/2022 5:00:00 PM 15.21 59.378 0.261 6.5 186.8 9.34
11/6/2022 5:15:00 PM 15.24 59.432 0.262 6.46 198 9.29
11/6/2022 5:30:00 PM 15.27 59.486 0.262 6.53 197 9.25
11/6/2022 5:45:00 PM 15.28 59.504 0.262 6.54 197.2 9.28
11/6/2022 6:00:00 PM 15.31 59.558 0.262 6.56 197.7 9.13
11/6/2022 6:15:00 PM 15.31 59.558 0.263 6.55 199.9 9.05
11/6/2022 6:30:00 PM 15.31 59.558 0.263 6.56 193.7 9.01
11/6/2022 6:45:00 PM 15.32 59.576 0.263 6.56 189.2 8.89
11/6/2022 7:00:00 PM 15.33 59.594 0.263 6.58 191.6 8.83
11/6/2022 7:15:00 PM 15.32 59.576 0.263 6.61 161.3 8.68
11/6/2022 7:30:00 PM 15.32 59.576 0.264 6.55 175.9 8.67
11/6/2022 7:45:00 PM 15.32 59.576 0.263 6.56 188.6 8.53
11/6/2022 8:00:00 PM 15.32 59.576 0.264 6.4 173.9 8.46
11/6/2022 8:15:00 PM 15.31 59.558 0.264 6.4 165 8.43
11/6/2022 8:30:00 PM 15.31 59.558 0.264 6.42 162.3 8.39
11/6/2022 8:45:00 PM 15.3 59.54 0.264 6.41 165.8 8.31
11/6/2022 9:00:00 PM 15.3 59.54 0.264 6.42 167.7 8.23
11/6/2022 9:15:00 PM 15.29 59.522 0.264 6.4 162.5 8.16
11/6/2022 9:30:00 PM 15.28 59.504 0.264 6.42 165.1 8.11
11/6/2022 9:45:00 PM 15.27 59.486 0.265 6.4 168.4 8.02
11/6/2022 10:00:00 PM 15.25 59.45 0.265 6.39 165.2 7.95
11/6/2022 10:15:00 PM 15.24 59.432 0.265 6.4 170.2 7.87
11/6/2022 10:30:00 PM 15.25 59.45 0.265 6.38 175 7.8
11/6/2022 10:45:00 PM 15.23 59.414 0.265 6.4 178.6 7.75
11/6/2022 11:00:00 PM 15.22 59.396 0.265 6.41 180.1 7.61
11/6/2022 11:15:00 PM 15.22 59.396 0.265 6.37 177.9 7.65
11/6/2022 11:30:00 PM 15.21 59.378 0.265 6.42 170.6 7.64
11/6/2022 11:45:00 PM 15.2 59.36 0.265 6.4 167.1 7.66
11/7/2022 12:00:00 AM 15.19 59.342 0.267 6.41 169.8 7.67
11/7/2022 12:15:00 AM 15.18 59.324 0.265 6.4 177 7.57
11/7/2022 12:30:00 AM 15.17 59.306 0.265 6.39 168.8 7.53
11/7/2022 12:45:00 AM 15.16 59.288 0.265 6.39 175.2 7.54
11/7/2022 1:00:00 AM 15.14 59.252 0.265 6.42 177 7.55
11/7/2022 1:15:00 AM 15.13 59.234 0.265 6.4 170.9 7.56
11/7/2022 1:30:00 AM 15.12 59.216 0.27 6.4 167.6 7.59
11/7/2022 1:45:00 AM 15.11 59.198 0.265 6.4 179.6 7.58
11/7/2022 2:00:00 AM 15.1 59.18 0.265 6.42 174.6 7.4
11/7/2022 2:15:00 AM 15.1 59.18 0.265 6.41 169.6 7.46
11/7/2022 2:30:00 AM 15.1 59.18 0.265 6.42 156.7 7.57
11/7/2022 2:45:00 AM 15.1 59.18 0.265 6.43 167.2 7.5
11/7/2022 3:00:00 AM 15.11 59.198 0.265 6.41 174.7 7.53
11/7/2022 3:15:00 AM 15.1 59.18 0.265 6.41 172.9 7.6
11/7/2022 3:30:00 AM 15.1 59.18 0.265 6.41 163.8 7.48
11/7/2022 3:45:00 AM 15.1 59.18 0.265 6.39 171.8 7.43
11/7/2022 4:00:00 AM 15.1 59.18 0.265 6.38 178.1 7.47
11/7/2022 4:15:00 AM 15.11 59.198 0.266 6.36 180.2 7.5
11/7/2022 4:30:00 AM 15.11 59.198 0.265 6.34 164.3 7.42
11/7/2022 4:45:00 AM 15.11 59.198 0.265 6.34 167 7.48
11/7/2022 5:00:00 AM 15.12 59.216 0.265 6.36 171.8 7.46
11/7/2022 5:15:00 AM 15.12 59.216 0.265 6.35 177 7.41
11/7/2022 5:30:00 AM 15.13 59.234 0.266 6.35 176.2 7.43
11/7/2022 5:45:00 AM 15.13 59.234 0.265 6.33 153.8 7.41
11/7/2022 6:00:00 AM 15.13 59.234 0.266 6.34 163.8 7.48
11/7/2022 6:15:00 AM 15.12 59.216 0.266 6.35 160.7 7.44
11/7/2022 6:30:00 AM 15.12 59.216 0.266 6.33 149.2 7.43
11/7/2022 6:45:00 AM 15.12 59.216 0.266 6.34 119.9 7.39
11/7/2022 7:00:00 AM 15.12 59.216 0.266 6.33 116.3 7.46
11/7/2022 7:15:00 AM 15.12 59.216 0.266 6.33 119.7 7.36
11/7/2022 7:30:00 AM 15.13 59.234 0.266 6.31 119.8 7.34
11/7/2022 7:45:00 AM 15.13 59.234 0.266 6.31 120.7 7.44
11/7/2022 8:00:00 AM 15.12 59.216 0.266 6.31 117.5 7.32
11/7/2022 8:15:00 AM 15.1 59.18 0.266 6.32 177.7 7.35
11/7/2022 8:30:00 AM 15.09 59.162 0.266 6.33 177.8 7.38
11/7/2022 8:45:00 AM 15.07 59.126 0.266 6.36 183.5 7.33
11/7/2022 9:00:00 AM 15.07 59.126 0.266 6.39 196 7.43
11/7/2022 9:15:00 AM 15.06 59.108 0.266 6.35 179.9 7.5
11/7/2022 9:30:00 AM 15.05 59.09 0.266 6.45 180.7 7.58
11/7/2022 9:45:00 AM 15.06 59.108 0.266 6.47 183 7.62
11/7/2022 10:00:00 AM 15.07 59.126 0.266 6.49 141.1 7.72
11/7/2022 10:15:00 AM 15.15 59.27 0.266 6.48 135 7.83
11/7/2022 10:30:00 AM 15.21 59.378 0.266 6.47 162 8.08
11/7/2022 10:45:00 AM 15.3 59.54 0.265 6.46 137.9 8.28
11/7/2022 11:00:00 AM 15.35 59.63 0.266 6.43 136.5 8.44
11/7/2022 11:15:00 AM 15.44 59.792 0.265 6.36 139.2 8.6
11/7/2022 11:30:00 AM 15.56 60.008 0.265 6.32 140.9 8.64
11/7/2022 11:45:00 AM 15.64 60.152 0.265 6.25 140.5 8.78
11/7/2022 12:00:00 PM 16.12 61.016 0.264 6.26 135.3 9.51
11/7/2022 12:15:00 PM 16.15 61.07 0.264 6.3 136.1 9.8
11/7/2022 12:30:00 PM 16.23 61.214 0.264 6.3 140.4 9.92
11/7/2022 12:45:00 PM 16.36 61.448 0.264 6.29 136.6 10.03
11/7/2022 1:00:00 PM 16.4 61.52 0.264 6.36 142.9 10.14
11/7/2022 1:15:00 PM 16.43 61.574 0.263 6.44 141.5 10.27
11/7/2022 1:30:00 PM 16.5 61.7 0.263 6.43 141.1 10.49
11/7/2022 1:45:00 PM 16.5 61.7 0.263 6.52 132 10.69
11/7/2022 2:00:00 PM 16.51 61.718 0.263 6.62 134.3 10.74
11/7/2022 2:15:00 PM 16.51 61.718 0.263 6.62 136.5 10.81
11/7/2022 2:30:00 PM 16.52 61.736 0.263 6.68 127.1 10.85
11/7/2022 2:45:00 PM 16.56 61.808 0.262 6.74 140.5 10.92
11/7/2022 3:00:00 PM 16.59 61.862 0.262 6.78 133.5 10.87
11/7/2022 3:15:00 PM 16.6 61.88 0.262 6.83 135.1 11.02
11/7/2022 3:30:00 PM 16.6 61.88 0.262 6.89 162.7 11.05
11/7/2022 3:45:00 PM 16.62 61.916 0.262 6.94 157.6 11.04
11/7/2022 4:00:00 PM 16.62 61.916 0.262 7 162.3 10.91
11/7/2022 4:15:00 PM 16.61 61.898 0.262 7.03 163.5 10.59
11/7/2022 4:30:00 PM 16.61 61.898 0.262 7.02 156.1 10.67
11/7/2022 4:45:00 PM 16.62 61.916 0.262 7.04 148.1 10.57
11/7/2022 5:00:00 PM 16.58 61.844 0.263 7.1 145.3 10.53
11/7/2022 5:15:00 PM 16.52 61.736 0.262 7.11 148.1 10.46
11/7/2022 5:30:00 PM 16.44 61.592 0.263 7.15 143.9 10.35
11/7/2022 5:45:00 PM 16.38 61.484 0.263 7.15 142.8 10.18
11/7/2022 6:00:00 PM 16.29 61.322 0.263 7.18 144.2 10.08
11/7/2022 6:15:00 PM 16.21 61.178 0.263 7.21 145.8 9.93
11/7/2022 6:30:00 PM 16.14 61.052 0.263 7.18 147.7 9.77
11/7/2022 6:45:00 PM 16.05 60.89 0.263 7.14 144 9.64
11/7/2022 7:00:00 PM 15.97 60.746 0.263 7.12 151.1 9.48
11/7/2022 7:15:00 PM 15.86 60.548 0.263 7.11 142.7 9.33
11/7/2022 7:30:00 PM 15.77 60.386 0.263 7.06 142.3 9.2
11/7/2022 7:45:00 PM 15.68 60.224 0.263 7.06 144.8 9.07
11/7/2022 8:00:00 PM 15.6 60.08 0.263 7.08 143.7 9
11/7/2022 8:15:00 PM 15.51 59.918 0.263 7.15 141.5 8.87
11/7/2022 8:30:00 PM 15.44 59.792 0.263 7.18 146 8.81
11/7/2022 8:45:00 PM 15.37 59.666 0.263 7.36 149.9 8.7
11/7/2022 9:00:00 PM 15.29 59.522 0.263 7.38 142.7 8.65
11/7/2022 9:15:00 PM 15.21 59.378 0.263 7.45 154.8 8.56
11/7/2022 9:30:00 PM 15.14 59.252 0.262 7.4 152 8.47
11/7/2022 9:45:00 PM 15.09 59.162 0.262 7.46 151.9 8.5
11/7/2022 10:00:00 PM 15.02 59.036 0.262 7.58 152.4 8.48
11/7/2022 10:15:00 PM 14.94 58.892 0.262 7.59 135 8.44
11/7/2022 10:30:00 PM 14.88 58.784 0.261 7.58 129.8 8.39
11/7/2022 10:45:00 PM 14.83 58.694 0.262 7.58 133.8 8.37
11/7/2022 11:00:00 PM 14.77 58.586 0.262 7.6 143.4 8.37
11/7/2022 11:15:00 PM 14.72 58.496 0.262 7.62 143.2 8.38
11/7/2022 11:30:00 PM 14.66 58.388 0.262 7.62 137.4 8.33
11/7/2022 11:45:00 PM 14.62 58.316 0.262 7.61 137 8.33
11/8/2022 12:00:00 AM 14.55 58.19 0.261 7.61 139.1 8.38
11/8/2022 12:15:00 AM 14.5 58.1 0.261 7.62 138.8 8.47
11/8/2022 12:30:00 AM 14.46 58.028 0.261 7.63 140.8 8.45
11/8/2022 12:45:00 AM 14.41 57.938 0.261 7.64 140.7 8.42
11/8/2022 1:00:00 AM 14.35 57.83 0.261 7.63 140.3 8.41
11/8/2022 1:15:00 AM 14.3 57.74 0.261 7.63 136.9 8.41
11/8/2022 1:30:00 AM 14.25 57.65 0.26 7.64 155.6 8.37
11/8/2022 1:45:00 AM 14.21 57.578 0.26 7.64 154.3 8.34
11/8/2022 2:00:00 AM 14.15 57.47 0.26 7.66 145.3 8.41
11/8/2022 2:15:00 AM 14.09 57.362 0.259 7.65 139.9 8.35
11/8/2022 2:30:00 AM 14.04 57.272 0.259 7.66 139.2 8.45
11/8/2022 2:45:00 AM 13.96 57.128 0.259 7.66 140.6 8.39
11/8/2022 3:00:00 AM 13.91 57.038 0.259 7.66 138.2 8.36
11/8/2022 3:15:00 AM 13.85 56.93 0.258 7.66 139.9 8.32
11/8/2022 3:30:00 AM 13.78 56.804 0.258 7.66 138.1 8.36
11/8/2022 3:45:00 AM 13.73 56.714 0.258 7.67 138 8.26
11/8/2022 4:00:00 AM 13.66 56.588 0.258 7.67 139.6 8.33
11/8/2022 4:15:00 AM 13.59 56.462 0.258 7.67 134.3 8.32
11/8/2022 4:30:00 AM 13.51 56.318 0.257 7.67 138.5 8.27
11/8/2022 4:45:00 AM 13.49 56.282 0.257 7.67 135.9 8.29
11/8/2022 5:00:00 AM 13.41 56.138 0.257 7.67 130.9 8.22
11/8/2022 5:15:00 AM 13.36 56.048 0.256 7.67 137.3 8.19
11/8/2022 5:30:00 AM 13.3 55.94 0.256 7.68 139 8.25
11/8/2022 5:45:00 AM 13.23 55.814 0.256 7.68 144.4 8.14
11/8/2022 6:00:00 AM 13.19 55.742 0.256 7.68 136.4 8.1
11/8/2022 6:15:00 AM 13.14 55.652 0.255 7.68 136.8 8.12
11/8/2022 6:30:00 AM 13.07 55.526 0.255 7.68 143 7.99
11/8/2022 6:45:00 AM 13 55.4 0.255 7.68 145.8 7.98
11/8/2022 7:00:00 AM 12.95 55.31 0.255 7.68 145.2 7.96
11/8/2022 7:15:00 AM 12.89 55.202 0.253 7.68 143.9 8.02
11/8/2022 7:30:00 AM 12.84 55.112 0.254 7.69 141 8.01
11/8/2022 7:45:00 AM 12.78 55.004 0.254 7.69 148.2 8.08
11/8/2022 8:00:00 AM 12.75 54.95 0.253 7.69 134.6 8.12
11/8/2022 8:15:00 AM 12.72 54.896 0.253 7.7 139.7 8.15
11/8/2022 8:30:00 AM 12.69 54.842 0.253 7.69 171 8.18
11/8/2022 8:45:00 AM 12.68 54.824 0.253 7.7 247.7 8.2
11/8/2022 9:00:00 AM 12.69 54.842 0.253 7.71 168.5 8.49
11/8/2022 9:15:00 AM 12.7 54.86 0.252 7.71 84.31 8.53
11/8/2022 9:30:00 AM 12.75 54.95 0.252 7.74 267.1 8.7
11/8/2022 9:45:00 AM 12.82 55.076 0.252 7.74 61.58 8.99
11/8/2022 10:00:00 AM 12.85 55.13 0.252 7.76 114.1 9.08
11/8/2022 10:15:00 AM 12.96 55.328 0.252 7.77 108.7 9.21
11/8/2022 10:30:00 AM 13 55.4 0.252 7.77 115.4 9.43
11/8/2022 10:45:00 AM 13.1 55.58 0.252 7.51 116.8 9.61
11/8/2022 11:00:00 AM 13.16 55.688 0.252 7.51 121.4 9.82
11/8/2022 11:15:00 AM 13.26 55.868 0.252 7.46 104.9 9.86
11/8/2022 11:30:00 AM 13.34 56.012 0.252 7.45 112.8 10.12
11/8/2022 11:45:00 AM 13.46 56.228 0.252 7.25 124.8 10.37
11/8/2022 12:00:00 PM 13.56 56.408 0.252 7.24 130.2 10.56
11/8/2022 12:15:00 PM 13.64 56.552 0.252 7.03 118 10.62
11/8/2022 12:30:00 PM 13.67 56.606 0.252 7 106.1 10.84
11/8/2022 12:45:00 PM 13.74 56.732 0.252 6.96 102.6 10.91
11/8/2022 1:00:00 PM 13.77 56.786 0.252 6.84 61.36 11.13
11/8/2022 1:15:00 PM 13.85 56.93 0.252 6.72 63.2 11.2
11/8/2022 1:30:00 PM 13.9 57.02 0.252 6.61 64.51 11.35
11/8/2022 1:45:00 PM 13.95 57.11 0.252 6.22 64.77 11.24
11/8/2022 2:00:00 PM 13.9 57.02 0.252 6.26 67.41 11.6
11/8/2022 2:15:00 PM 13.89 57.002 0.252 6.23 63.79 11.48
11/8/2022 2:30:00 PM 13.88 56.984 0.25 6.25 63.62 11.55
11/8/2022 2:45:00 PM 13.9 57.02 0.25 6.23 68.05 11.74
11/8/2022 3:00:00 PM 13.89 57.002 0.25 6.25 67.02 11.74
11/8/2022 3:15:00 PM 13.88 56.984 0.252 6.37 65.66 11.75
11/8/2022 3:30:00 PM 13.89 57.002 0.252 6.46 66.82 11.67
11/8/2022 3:45:00 PM 13.9 57.02 0.252 6.53 66.13 11.85
11/8/2022 4:00:00 PM 13.9 57.02 0.252 6.73 66.25 11.76
11/8/2022 4:15:00 PM 13.89 57.002 0.252 6.98 68.59 11.58
11/8/2022 4:30:00 PM 13.87 56.966 0.252 7.21 65.39 11.48
11/8/2022 4:45:00 PM 13.85 56.93 0.253 7.68 63.25 11.48
11/8/2022 5:00:00 PM 13.81 56.858 0.253 7.94 63.22 11.35
11/8/2022 5:15:00 PM 13.76 56.768 0.253 8.2 57.56 11.42
11/8/2022 5:30:00 PM 13.71 56.678 0.253 8.35 53.43 11.27
11/8/2022 5:45:00 PM 13.63 56.534 0.254 8.35 58.77 11.1
11/8/2022 6:00:00 PM 13.56 56.408 0.254 8.35 59.95 11
11/8/2022 6:15:00 PM 13.51 56.318 0.254 8.31 54.8 10.72
11/8/2022 6:30:00 PM 13.4 56.12 0.254 8.28 55.13 10.76
11/8/2022 6:45:00 PM 13.35 56.03 0.254 8.28 57.36 10.49
11/8/2022 7:00:00 PM 13.19 55.742 0.255 8.27 55.07 10.5
11/8/2022 7:15:00 PM 13.13 55.634 0.255 8.24 54.33 10.39
11/8/2022 7:30:00 PM 13.03 55.454 0.255 8.2 56.22 10.19
11/8/2022 7:45:00 PM 12.95 55.31 0.256 8.19 55.33 10.1
11/8/2022 8:00:00 PM 12.85 55.13 0.256 8.15 57.98 9.92
11/8/2022 8:15:00 PM 12.77 54.986 0.256 8.13 55.12 9.7
11/8/2022 8:30:00 PM 12.67 54.806 0.257 8.09 52.3 9.58
11/8/2022 8:45:00 PM 12.59 54.662 0.257 8.08 50.13 9.55
11/8/2022 9:00:00 PM 12.51 54.518 0.257 8.06 51.24 9.54
11/8/2022 9:15:00 PM 12.4 54.32 0.257 8.04 50.49 9.4
11/8/2022 9:30:00 PM 12.34 54.212 0.257 8.01 50.37 9.24
11/8/2022 9:45:00 PM 12.26 54.068 0.258 7.99 51.36 9.29
11/8/2022 10:00:00 PM 12.19 53.942 0.257 7.98 52.76 9.28
11/8/2022 10:15:00 PM 12.14 53.852 0.257 7.97 51.52 9.07
11/8/2022 10:30:00 PM 12.05 53.69 0.258 7.96 50.44 9.17
11/8/2022 10:45:00 PM 12 53.6 0.257 7.94 52.75 8.96
11/8/2022 11:00:00 PM 11.88 53.384 0.258 7.94 58.09 9.11
11/8/2022 11:15:00 PM 11.84 53.312 0.257 7.93 56.5 9.02
11/8/2022 11:30:00 PM 11.79 53.222 0.257 7.93 55.4 9.15
11/8/2022 11:45:00 PM 11.72 53.096 0.257 7.92 51.46 9.04
11/9/2022 12:00:00 AM 11.64 52.952 0.258 7.92 54.12 9.11
11/9/2022 12:15:00 AM 11.57 52.826 0.258 7.92 56.57 9.03
11/9/2022 12:30:00 AM 11.51 52.718 0.258 7.93 55.22 9.25
11/9/2022 12:45:00 AM 11.44 52.592 0.258 7.92 53.49 9.05
11/9/2022 1:00:00 AM 11.41 52.538 0.258 7.92 53.83 9.24
11/9/2022 1:15:00 AM 11.37 52.466 0.257 7.93 51.84 9.2
11/9/2022 1:30:00 AM 11.28 52.304 0.258 7.93 54.06 9.03
11/9/2022 1:45:00 AM 11.23 52.214 0.258 7.93 52.34 9.15
11/9/2022 2:00:00 AM 11.17 52.106 0.258 7.94 52.8 9.19
11/9/2022 2:15:00 AM 11.09 51.962 0.258 7.95 51.27 9.33
11/9/2022 2:30:00 AM 11.05 51.89 0.258 7.95 52.93 9.35
11/9/2022 2:45:00 AM 10.98 51.764 0.258 7.95 53.38 9.21
11/9/2022 3:00:00 AM 10.92 51.656 0.258 7.96 50.79 9.25
11/9/2022 3:15:00 AM 10.91 51.638 0.258 7.95 48.83 9.29
11/9/2022 3:30:00 AM 10.81 51.458 0.258 7.96 49.07 9.36
11/9/2022 3:45:00 AM 10.73 51.314 0.258 7.97 39.13 9.33
11/9/2022 4:00:00 AM 10.67 51.206 0.258 7.97 45.71 9.35
11/9/2022 4:15:00 AM 10.6 51.08 0.259 7.98 49.23 9.34
11/9/2022 4:30:00 AM 10.54 50.972 0.259 7.98 49.23 9.29
11/9/2022 4:45:00 AM 10.47 50.846 0.259 7.99 45.76 9.35
11/9/2022 5:00:00 AM 10.41 50.738 0.259 7.99 42.88 9.38
11/9/2022 5:15:00 AM 10.35 50.63 0.259 8 42.47 9.3
11/9/2022 5:30:00 AM 10.29 50.522 0.259 8 43.04 9.4
11/9/2022 5:45:00 AM 10.21 50.378 0.259 8 41.72 9.37
11/9/2022 6:00:00 AM 10.16 50.288 0.259 8 40.8 9.36
11/9/2022 6:15:00 AM 10.08 50.144 0.259 8 39.99 9.41
11/9/2022 6:30:00 AM 10.03 50.054 0.259 8 40.53 9.36
11/9/2022 6:45:00 AM 9.96 49.928 0.259 8 45.16 9.25
11/9/2022 7:00:00 AM 9.89 49.802 0.259 8 38.83 9.34
11/9/2022 7:15:00 AM 9.85 49.73 0.259 8 46.99 9.33
11/9/2022 7:30:00 AM 9.82 49.676 0.259 7.99 46.85 9.38
11/9/2022 7:45:00 AM 9.77 49.586 0.259 8 45.77 9.42
11/9/2022 8:00:00 AM 9.73 49.514 0.259 8.02 39.72 9.41
11/9/2022 8:15:00 AM 9.7 49.46 0.259 8.01 39.93 9.56
11/9/2022 8:30:00 AM 9.67 49.406 0.259 8.02 40.15 9.65
11/9/2022 8:45:00 AM 9.67 49.406 0.258 8.01 41.64 9.79
11/9/2022 9:00:00 AM 9.7 49.46 0.258 8.02 40.71 9.82
11/9/2022 9:15:00 AM 9.77 49.586 0.258 8.02 39.63 9.96
11/9/2022 9:30:00 AM 9.82 49.676 0.258 8.05 37.81 10.28
11/9/2022 9:45:00 AM 9.89 49.802 0.258 8.05 73.65 10.31
11/9/2022 10:00:00 AM 9.97 49.946 0.258 8.07 71.03 10.59
11/9/2022 10:15:00 AM 10.05 50.09 0.257 8.08 66.65 10.75
11/9/2022 10:30:00 AM 10.15 50.27 0.257 8.08 65.54 10.86
11/9/2022 10:45:00 AM 10.28 50.504 0.257 8.08 63.77 10.96
11/9/2022 11:00:00 AM 10.36 50.648 0.257 8.09 60.31 11.13
11/9/2022 11:15:00 AM 10.46 50.828 0.257 8.05 60.03 11.24
11/9/2022 11:30:00 AM 10.56 51.008 0.257 7.62 67.64 11.44
11/9/2022 11:45:00 AM 10.63 51.134 0.256 7.74 75.53 11.65
11/9/2022 12:00:00 PM 10.74 51.332 0.256 7.24 75.4 11.76
11/9/2022 12:15:00 PM 10.81 51.458 0.256 6.71 69.2 11.89
11/9/2022 12:30:00 PM 10.89 51.602 0.256 6.44 70.77 12.04
11/9/2022 12:45:00 PM 10.98 51.764 0.255 5.97 63.87 12.18
11/9/2022 1:00:00 PM 11.01 51.818 0.255 5.81 65.45 12.3
11/9/2022 1:15:00 PM 11.02 51.836 0.255 5.77 64.44 12.51
11/9/2022 1:30:00 PM 11.09 51.962 0.255 5.72 72.85 12.6
11/9/2022 1:45:00 PM 11.13 52.034 0.255 5.69 70.62 12.74
11/9/2022 2:00:00 PM 11.12 52.016 0.254 5.67 72.02 12.91
11/9/2022 2:15:00 PM 11.16 52.088 0.254 5.39 68.6 13.03
11/9/2022 2:30:00 PM 11.18 52.124 0.254 5.22 70.13 13.11
11/9/2022 2:45:00 PM 11.22 52.196 0.254 5.23 59.51 13.16
11/9/2022 3:00:00 PM 11.22 52.196 0.253 5.19 60.42 13.19
11/9/2022 3:15:00 PM 11.24 52.232 0.253 5.28 62.2 13.18
11/9/2022 3:30:00 PM 11.28 52.304 0.253 5.15 54.99 13.29
11/9/2022 3:45:00 PM 11.33 52.394 0.253 4.97 55.52 13.32
11/9/2022 4:00:00 PM 11.33 52.394 0.253 4.46 58.06 13.38
11/9/2022 4:15:00 PM 11.35 52.43 0.253 4.51 59.51 13.27
11/9/2022 4:30:00 PM 11.36 52.448 0.253 4.63 60.06 13.23
11/9/2022 4:45:00 PM 11.35 52.43 0.253 4.79 57.78 13.1
11/9/2022 5:00:00 PM 11.33 52.394 0.253 5.87 39.14 13
11/9/2022 5:15:00 PM 11.3 52.34 0.253 6.85 37.05 12.9
11/9/2022 5:30:00 PM 11.24 52.232 0.253 7.45 42.03 12.82
11/9/2022 5:45:00 PM 11.2 52.16 0.254 7.76 40.81 12.73
11/9/2022 6:00:00 PM 11.14 52.052 0.254 8.05 39.66 12.62
11/9/2022 6:15:00 PM 11.06 51.908 0.254 8.15 41.29 12.48
11/9/2022 6:30:00 PM 10.98 51.764 0.254 8.2 41.3 12.36
11/9/2022 6:45:00 PM 10.9 51.62 0.254 8.25 41.56 12.19
11/9/2022 7:00:00 PM 10.82 51.476 0.255 8.26 41.8 12.06
11/9/2022 7:15:00 PM 10.72 51.296 0.255 8.27 41.78 11.93
11/9/2022 7:30:00 PM 10.64 51.152 0.255 8.33 41.28 11.8
11/9/2022 7:45:00 PM 10.55 50.99 0.255 8.45 41.84 11.68
11/9/2022 8:00:00 PM 10.45 50.81 0.255 8.44 42.08 11.54
11/9/2022 8:15:00 PM 10.37 50.666 0.255 8.4 42.28 11.4
11/9/2022 8:30:00 PM 10.3 50.54 0.256 8.38 42.27 11.3
11/9/2022 8:45:00 PM 10.22 50.396 0.256 8.35 42.81 11.15
11/9/2022 9:00:00 PM 10.14 50.252 0.256 8.32 41.96 11.07
11/9/2022 9:15:00 PM 10.06 50.108 0.256 8.29 43.57 10.96
11/9/2022 9:30:00 PM 9.99 49.982 0.256 8.27 42.91 10.87
11/9/2022 9:45:00 PM 9.92 49.856 0.256 8.25 41.7 10.73
11/9/2022 10:00:00 PM 9.85 49.73 0.257 8.23 41.9 10.67
11/9/2022 10:15:00 PM 9.78 49.604 0.257 8.21 41.55 10.61
11/9/2022 10:30:00 PM 9.71 49.478 0.257 8.18 42.63 10.56
11/9/2022 10:45:00 PM 9.66 49.388 0.257 8.15 41.26 10.49
11/9/2022 11:00:00 PM 9.59 49.262 0.257 8.14 41.31 10.48
11/9/2022 11:15:00 PM 9.54 49.172 0.257 8.12 41.66 10.44
11/9/2022 11:30:00 PM 9.48 49.064 0.257 8.11 46.09 10.42
11/9/2022 11:45:00 PM 9.43 48.974 0.257 8.11 41.96 10.42
11/10/2022 12:00:00 AM 9.38 48.884 0.257 8.09 42.55 10.42
11/10/2022 12:15:00 AM 9.32 48.776 0.257 8.08 44.94 10.4
11/10/2022 12:30:00 AM 9.29 48.722 0.257 8.08 43.66 10.36
11/10/2022 12:45:00 AM 9.23 48.614 0.257 8.07 43.69 10.39
11/10/2022 1:00:00 AM 9.19 48.542 0.257 8.07 51.03 10.35
11/10/2022 1:15:00 AM 9.16 48.488 0.257 8.07 41.3 10.37
11/10/2022 1:30:00 AM 9.11 48.398 0.257 8.06 41.55 10.36
11/10/2022 1:45:00 AM 9.07 48.326 0.257 8.06 41.53 10.36
11/10/2022 2:00:00 AM 9.03 48.254 0.257 8.06 41.93 10.37
11/10/2022 2:15:00 AM 8.98 48.164 0.257 8.06 44.01 10.36
11/10/2022 2:30:00 AM 8.94 48.092 0.257 8.06 43.37 10.34
11/10/2022 2:45:00 AM 8.9 48.02 0.257 8.06 43.76 10.37
11/10/2022 3:00:00 AM 8.87 47.966 0.257 8.06 44.2 10.38
11/10/2022 3:15:00 AM 8.83 47.894 0.257 8.06 42.92 10.39
11/10/2022 3:30:00 AM 8.78 47.804 0.257 8.06 41.93 10.41
11/10/2022 3:45:00 AM 8.75 47.75 0.257 8.06 41.7 10.39
11/10/2022 4:00:00 AM 8.72 47.696 0.257 8.07 41.75 10.4
11/10/2022 4:15:00 AM 8.68 47.624 0.257 8.07 42.24 10.4
11/10/2022 4:30:00 AM 8.63 47.534 0.258 8.07 45.08 10.41
11/10/2022 4:45:00 AM 8.59 47.462 0.257 8.07 44.31 10.4
11/10/2022 5:00:00 AM 8.54 47.372 0.258 8.07 44.9 10.41
11/10/2022 5:15:00 AM 8.5 47.3 0.257 8.07 44.69 10.39
11/10/2022 5:30:00 AM 8.45 47.21 0.257 8.07 44.77 10.39
11/10/2022 5:45:00 AM 8.41 47.138 0.258 8.07 44.64 10.37
11/10/2022 6:00:00 AM 8.35 47.03 0.258 8.08 42.32 10.37
11/10/2022 6:15:00 AM 8.31 46.958 0.258 8.07 43.04 10.37
11/10/2022 6:30:00 AM 8.27 46.886 0.257 8.07 43.86 10.38
11/10/2022 6:45:00 AM 8.23 46.814 0.258 8.07 47.92 10.24
11/10/2022 7:00:00 AM 8.2 46.76 0.258 8.06 47.85 10.26
11/10/2022 7:15:00 AM 8.15 46.67 0.258 8.09 35 10.3
11/10/2022 7:30:00 AM 8.11 46.598 0.258 8.07 17.02 10.35
11/10/2022 7:45:00 AM 8.1 46.58 0.258 8.06 31.05 10.45
11/10/2022 8:00:00 AM 8.08 46.544